<?xml version="1.0" encoding="UTF-8" standalone="no" ?>
<gpx xmlns="http://www.topografix.com/GPX/1/1" xmlns:xsi="http://www.w3.org/2001/XMLSchema-instance" xsi:schemaLocation="http://www.topografix.com/GPX/1/1 http://www.topografix.com/GPX/1/1/gpx.xsd" version="1.1" creator="VisuGPX - https://www.visugpx.com">
  <metadata>
    <name>Boucle Nord autour de Bièvre (91)</name>
    <desc><![CDATA[Randonnée en boucle de 16km à partir de la gare de Bièvres]]></desc>
  </metadata>
  <trk>
    <name><![CDATA[Boucle Nord autour de Bièvres_R]]></name>
    <trkseg>
      <trkpt lat="48.75135" lon="2.21575">
        <ele>61.6</ele>
        <time>2021-07-18T07:37:37Z</time>
      </trkpt>
      <trkpt lat="48.75135" lon="2.21576">
        <ele>61.94</ele>
        <time>2021-07-18T07:37:55Z</time>
      </trkpt>
      <trkpt lat="48.75142" lon="2.21579">
        <ele>63.44</ele>
        <time>2021-07-18T07:39:23Z</time>
      </trkpt>
      <trkpt lat="48.75153" lon="2.21577">
        <ele>62.69</ele>
        <time>2021-07-18T07:39:34Z</time>
      </trkpt>
      <trkpt lat="48.75166" lon="2.21576">
        <ele>62.47</ele>
        <time>2021-07-18T07:39:46Z</time>
      </trkpt>
      <trkpt lat="48.75176" lon="2.21575">
        <ele>63.33</ele>
        <time>2021-07-18T07:39:57Z</time>
      </trkpt>
      <trkpt lat="48.75181" lon="2.21577">
        <ele>62.6</ele>
        <time>2021-07-18T07:40:08Z</time>
      </trkpt>
      <trkpt lat="48.75188" lon="2.21576">
        <ele>62.91</ele>
        <time>2021-07-18T07:40:19Z</time>
      </trkpt>
      <trkpt lat="48.75192" lon="2.21581">
        <ele>62.58</ele>
        <time>2021-07-18T07:40:30Z</time>
      </trkpt>
      <trkpt lat="48.75201" lon="2.21586">
        <ele>62.81</ele>
        <time>2021-07-18T07:40:43Z</time>
      </trkpt>
      <trkpt lat="48.75204" lon="2.21592">
        <ele>62.34</ele>
        <time>2021-07-18T07:41:02Z</time>
      </trkpt>
      <trkpt lat="48.75207" lon="2.21595">
        <ele>62.17</ele>
        <time>2021-07-18T07:41:20Z</time>
      </trkpt>
      <trkpt lat="48.75209" lon="2.21605">
        <ele>61.96</ele>
        <time>2021-07-18T07:41:34Z</time>
      </trkpt>
      <trkpt lat="48.75216" lon="2.21615">
        <ele>61.17</ele>
        <time>2021-07-18T07:41:46Z</time>
      </trkpt>
      <trkpt lat="48.75227" lon="2.21622">
        <ele>60.57</ele>
        <time>2021-07-18T07:41:59Z</time>
      </trkpt>
      <trkpt lat="48.75233" lon="2.21627">
        <ele>60.39</ele>
        <time>2021-07-18T07:42:08Z</time>
      </trkpt>
      <trkpt lat="48.75234" lon="2.21634">
        <ele>60.33</ele>
        <time>2021-07-18T07:42:20Z</time>
      </trkpt>
      <trkpt lat="48.7524" lon="2.21641">
        <ele>60.3</ele>
        <time>2021-07-18T07:42:33Z</time>
      </trkpt>
      <trkpt lat="48.75235" lon="2.21656">
        <ele>60.32</ele>
        <time>2021-07-18T07:42:47Z</time>
      </trkpt>
      <trkpt lat="48.75229" lon="2.21674">
        <ele>60.35</ele>
        <time>2021-07-18T07:43:03Z</time>
      </trkpt>
      <trkpt lat="48.75228" lon="2.21676">
        <ele>60.32</ele>
        <time>2021-07-18T07:43:12Z</time>
      </trkpt>
      <trkpt lat="48.75225" lon="2.2168">
        <ele>60.46</ele>
        <time>2021-07-18T07:43:17Z</time>
      </trkpt>
      <trkpt lat="48.75221" lon="2.2169">
        <ele>60.55</ele>
        <time>2021-07-18T07:43:28Z</time>
      </trkpt>
      <trkpt lat="48.7522" lon="2.21692">
        <ele>60.47</ele>
        <time>2021-07-18T07:43:30Z</time>
      </trkpt>
      <trkpt lat="48.7522" lon="2.21707">
        <ele>61.11</ele>
        <time>2021-07-18T07:43:41Z</time>
      </trkpt>
      <trkpt lat="48.75221" lon="2.21716">
        <ele>61.07</ele>
        <time>2021-07-18T07:43:49Z</time>
      </trkpt>
      <trkpt lat="48.75225" lon="2.21725">
        <ele>60.43</ele>
        <time>2021-07-18T07:43:59Z</time>
      </trkpt>
      <trkpt lat="48.75229" lon="2.21735">
        <ele>59.76</ele>
        <time>2021-07-18T07:44:08Z</time>
      </trkpt>
      <trkpt lat="48.75229" lon="2.21735">
        <ele>59.96</ele>
        <time>2021-07-18T07:44:09Z</time>
      </trkpt>
      <trkpt lat="48.75236" lon="2.21746">
        <ele>60.12</ele>
        <time>2021-07-18T07:44:18Z</time>
      </trkpt>
      <trkpt lat="48.7525" lon="2.21763">
        <ele>60.13</ele>
        <time>2021-07-18T07:44:31Z</time>
      </trkpt>
      <trkpt lat="48.7526" lon="2.21785">
        <ele>60.06</ele>
        <time>2021-07-18T07:44:46Z</time>
      </trkpt>
      <trkpt lat="48.75263" lon="2.21808">
        <ele>59.5</ele>
        <time>2021-07-18T07:45:03Z</time>
      </trkpt>
      <trkpt lat="48.75255" lon="2.21822">
        <ele>59.42</ele>
        <time>2021-07-18T07:45:15Z</time>
      </trkpt>
      <trkpt lat="48.75248" lon="2.21835">
        <ele>59.22</ele>
        <time>2021-07-18T07:45:29Z</time>
      </trkpt>
      <trkpt lat="48.75244" lon="2.21853">
        <ele>59.86</ele>
        <time>2021-07-18T07:45:50Z</time>
      </trkpt>
      <trkpt lat="48.75242" lon="2.2186">
        <ele>59.4</ele>
        <time>2021-07-18T07:46:02Z</time>
      </trkpt>
      <trkpt lat="48.75233" lon="2.2187">
        <ele>59.54</ele>
        <time>2021-07-18T07:46:15Z</time>
      </trkpt>
      <trkpt lat="48.75219" lon="2.21875">
        <ele>59.87</ele>
        <time>2021-07-18T07:46:31Z</time>
      </trkpt>
      <trkpt lat="48.75208" lon="2.21889">
        <ele>59</ele>
        <time>2021-07-18T07:46:45Z</time>
      </trkpt>
      <trkpt lat="48.75198" lon="2.21907">
        <ele>58.91</ele>
        <time>2021-07-18T07:47:00Z</time>
      </trkpt>
      <trkpt lat="48.75187" lon="2.21926">
        <ele>58.9</ele>
        <time>2021-07-18T07:47:16Z</time>
      </trkpt>
      <trkpt lat="48.75177" lon="2.21943">
        <ele>59.15</ele>
        <time>2021-07-18T07:47:30Z</time>
      </trkpt>
      <trkpt lat="48.75165" lon="2.21963">
        <ele>59.65</ele>
        <time>2021-07-18T07:47:46Z</time>
      </trkpt>
      <trkpt lat="48.75149" lon="2.2198">
        <ele>58.65</ele>
        <time>2021-07-18T07:48:04Z</time>
      </trkpt>
      <trkpt lat="48.75132" lon="2.21993">
        <ele>59.32</ele>
        <time>2021-07-18T07:48:21Z</time>
      </trkpt>
      <trkpt lat="48.75119" lon="2.21999">
        <ele>59.2</ele>
        <time>2021-07-18T07:48:34Z</time>
      </trkpt>
      <trkpt lat="48.75103" lon="2.22006">
        <ele>58.88</ele>
        <time>2021-07-18T07:48:49Z</time>
      </trkpt>
      <trkpt lat="48.75089" lon="2.22009">
        <ele>58.82</ele>
        <time>2021-07-18T07:49:04Z</time>
      </trkpt>
      <trkpt lat="48.75069" lon="2.22003">
        <ele>60.39</ele>
        <time>2021-07-18T07:49:20Z</time>
      </trkpt>
      <trkpt lat="48.75064" lon="2.22003">
        <ele>60.21</ele>
        <time>2021-07-18T07:49:24Z</time>
      </trkpt>
      <trkpt lat="48.7506" lon="2.22005">
        <ele>60.45</ele>
        <time>2021-07-18T07:49:28Z</time>
      </trkpt>
      <trkpt lat="48.7505" lon="2.22008">
        <ele>61.21</ele>
        <time>2021-07-18T07:49:38Z</time>
      </trkpt>
      <trkpt lat="48.75037" lon="2.22017">
        <ele>61.63</ele>
        <time>2021-07-18T07:49:52Z</time>
      </trkpt>
      <trkpt lat="48.75024" lon="2.22028">
        <ele>62.35</ele>
        <time>2021-07-18T07:50:09Z</time>
      </trkpt>
      <trkpt lat="48.75011" lon="2.22036">
        <ele>61.72</ele>
        <time>2021-07-18T07:50:23Z</time>
      </trkpt>
      <trkpt lat="48.74997" lon="2.22044">
        <ele>61.97</ele>
        <time>2021-07-18T07:50:35Z</time>
      </trkpt>
      <trkpt lat="48.74986" lon="2.22039">
        <ele>61.93</ele>
        <time>2021-07-18T07:50:45Z</time>
      </trkpt>
      <trkpt lat="48.74984" lon="2.22038">
        <ele>61.58</ele>
        <time>2021-07-18T07:50:51Z</time>
      </trkpt>
      <trkpt lat="48.74982" lon="2.22036">
        <ele>62.07</ele>
        <time>2021-07-18T07:50:54Z</time>
      </trkpt>
      <trkpt lat="48.74973" lon="2.22022">
        <ele>61.66</ele>
        <time>2021-07-18T07:51:06Z</time>
      </trkpt>
      <trkpt lat="48.74967" lon="2.22014">
        <ele>60.41</ele>
        <time>2021-07-18T07:51:14Z</time>
      </trkpt>
      <trkpt lat="48.74958" lon="2.22007">
        <ele>59.09</ele>
        <time>2021-07-18T07:51:30Z</time>
      </trkpt>
      <trkpt lat="48.74951" lon="2.22011">
        <ele>58.57</ele>
        <time>2021-07-18T07:51:42Z</time>
      </trkpt>
      <trkpt lat="48.74931" lon="2.22018">
        <ele>58.86</ele>
        <time>2021-07-18T07:52:09Z</time>
      </trkpt>
      <trkpt lat="48.74925" lon="2.22032">
        <ele>58.56</ele>
        <time>2021-07-18T07:52:22Z</time>
      </trkpt>
      <trkpt lat="48.74916" lon="2.22051">
        <ele>58.51</ele>
        <time>2021-07-18T07:52:38Z</time>
      </trkpt>
      <trkpt lat="48.74916" lon="2.22053">
        <ele>59.02</ele>
        <time>2021-07-18T07:52:39Z</time>
      </trkpt>
      <trkpt lat="48.74907" lon="2.2207">
        <ele>58.94</ele>
        <time>2021-07-18T07:52:51Z</time>
      </trkpt>
      <trkpt lat="48.74903" lon="2.22081">
        <ele>58.59</ele>
        <time>2021-07-18T07:53:03Z</time>
      </trkpt>
      <trkpt lat="48.74903" lon="2.22086">
        <ele>58.72</ele>
        <time>2021-07-18T07:53:06Z</time>
      </trkpt>
      <trkpt lat="48.7491" lon="2.22108">
        <ele>58.68</ele>
        <time>2021-07-18T07:53:20Z</time>
      </trkpt>
      <trkpt lat="48.74913" lon="2.22121">
        <ele>58.61</ele>
        <time>2021-07-18T07:53:31Z</time>
      </trkpt>
      <trkpt lat="48.74908" lon="2.22129">
        <ele>57.86</ele>
        <time>2021-07-18T07:53:43Z</time>
      </trkpt>
      <trkpt lat="48.74908" lon="2.22139">
        <ele>58.72</ele>
        <time>2021-07-18T07:53:57Z</time>
      </trkpt>
      <trkpt lat="48.74902" lon="2.22154">
        <ele>58.03</ele>
        <time>2021-07-18T07:54:10Z</time>
      </trkpt>
      <trkpt lat="48.74895" lon="2.2217">
        <ele>57.4</ele>
        <time>2021-07-18T07:54:25Z</time>
      </trkpt>
      <trkpt lat="48.74889" lon="2.22194">
        <ele>57.81</ele>
        <time>2021-07-18T07:54:42Z</time>
      </trkpt>
      <trkpt lat="48.7488" lon="2.2223">
        <ele>57.77</ele>
        <time>2021-07-18T07:55:00Z</time>
      </trkpt>
      <trkpt lat="48.74874" lon="2.22245">
        <ele>57.43</ele>
        <time>2021-07-18T07:55:09Z</time>
      </trkpt>
      <trkpt lat="48.74872" lon="2.2225">
        <ele>57.45</ele>
        <time>2021-07-18T07:55:11Z</time>
      </trkpt>
      <trkpt lat="48.74862" lon="2.22276">
        <ele>57.52</ele>
        <time>2021-07-18T07:55:22Z</time>
      </trkpt>
      <trkpt lat="48.74856" lon="2.22295">
        <ele>57.85</ele>
        <time>2021-07-18T07:55:32Z</time>
      </trkpt>
      <trkpt lat="48.74845" lon="2.22317">
        <ele>57.58</ele>
        <time>2021-07-18T07:55:45Z</time>
      </trkpt>
      <trkpt lat="48.74838" lon="2.22332">
        <ele>57.51</ele>
        <time>2021-07-18T07:55:54Z</time>
      </trkpt>
      <trkpt lat="48.74828" lon="2.2236">
        <ele>57.97</ele>
        <time>2021-07-18T07:56:10Z</time>
      </trkpt>
      <trkpt lat="48.7483" lon="2.22382">
        <ele>58.04</ele>
        <time>2021-07-18T07:56:24Z</time>
      </trkpt>
      <trkpt lat="48.74833" lon="2.22406">
        <ele>58.24</ele>
        <time>2021-07-18T07:56:41Z</time>
      </trkpt>
      <trkpt lat="48.74834" lon="2.22413">
        <ele>57.84</ele>
        <time>2021-07-18T07:56:46Z</time>
      </trkpt>
      <trkpt lat="48.74843" lon="2.22427">
        <ele>57.89</ele>
        <time>2021-07-18T07:56:59Z</time>
      </trkpt>
      <trkpt lat="48.74851" lon="2.22447">
        <ele>57.65</ele>
        <time>2021-07-18T07:57:12Z</time>
      </trkpt>
      <trkpt lat="48.74861" lon="2.2246">
        <ele>56.13</ele>
        <time>2021-07-18T07:57:21Z</time>
      </trkpt>
      <trkpt lat="48.74862" lon="2.22474">
        <ele>56.04</ele>
        <time>2021-07-18T07:57:35Z</time>
      </trkpt>
      <trkpt lat="48.74861" lon="2.22489">
        <ele>57.25</ele>
        <time>2021-07-18T07:57:44Z</time>
      </trkpt>
      <trkpt lat="48.74865" lon="2.22505">
        <ele>58.54</ele>
        <time>2021-07-18T07:57:56Z</time>
      </trkpt>
      <trkpt lat="48.74865" lon="2.22522">
        <ele>56.36</ele>
        <time>2021-07-18T07:58:09Z</time>
      </trkpt>
      <trkpt lat="48.74857" lon="2.22541">
        <ele>56.36</ele>
        <time>2021-07-18T07:58:22Z</time>
      </trkpt>
      <trkpt lat="48.74854" lon="2.22545">
        <ele>56.02</ele>
        <time>2021-07-18T07:58:26Z</time>
      </trkpt>
      <trkpt lat="48.74845" lon="2.22556">
        <ele>56.11</ele>
        <time>2021-07-18T07:58:36Z</time>
      </trkpt>
      <trkpt lat="48.7483" lon="2.22576">
        <ele>55.84</ele>
        <time>2021-07-18T07:58:51Z</time>
      </trkpt>
      <trkpt lat="48.74816" lon="2.22594">
        <ele>56.09</ele>
        <time>2021-07-18T07:59:08Z</time>
      </trkpt>
      <trkpt lat="48.74808" lon="2.22604">
        <ele>55.54</ele>
        <time>2021-07-18T07:59:19Z</time>
      </trkpt>
      <trkpt lat="48.7479" lon="2.22623">
        <ele>55.45</ele>
        <time>2021-07-18T07:59:37Z</time>
      </trkpt>
      <trkpt lat="48.74782" lon="2.2263">
        <ele>55.45</ele>
        <time>2021-07-18T07:59:45Z</time>
      </trkpt>
      <trkpt lat="48.74775" lon="2.22641">
        <ele>55.95</ele>
        <time>2021-07-18T07:59:53Z</time>
      </trkpt>
      <trkpt lat="48.74772" lon="2.22643">
        <ele>55.63</ele>
        <time>2021-07-18T07:59:55Z</time>
      </trkpt>
      <trkpt lat="48.74769" lon="2.22646">
        <ele>55.5</ele>
        <time>2021-07-18T07:59:58Z</time>
      </trkpt>
      <trkpt lat="48.74761" lon="2.22657">
        <ele>55.29</ele>
        <time>2021-07-18T08:00:09Z</time>
      </trkpt>
      <trkpt lat="48.74759" lon="2.2266">
        <ele>55.94</ele>
        <time>2021-07-18T08:00:12Z</time>
      </trkpt>
      <trkpt lat="48.74755" lon="2.22671">
        <ele>55.53</ele>
        <time>2021-07-18T08:00:20Z</time>
      </trkpt>
      <trkpt lat="48.74746" lon="2.22691">
        <ele>55.98</ele>
        <time>2021-07-18T08:00:34Z</time>
      </trkpt>
      <trkpt lat="48.74734" lon="2.2272">
        <ele>56.15</ele>
        <time>2021-07-18T08:00:52Z</time>
      </trkpt>
      <trkpt lat="48.74726" lon="2.22739">
        <ele>55.76</ele>
        <time>2021-07-18T08:01:09Z</time>
      </trkpt>
      <trkpt lat="48.74719" lon="2.22762">
        <ele>55.78</ele>
        <time>2021-07-18T08:01:26Z</time>
      </trkpt>
      <trkpt lat="48.74716" lon="2.22775">
        <ele>55.8</ele>
        <time>2021-07-18T08:01:39Z</time>
      </trkpt>
      <trkpt lat="48.74701" lon="2.22795">
        <ele>55.63</ele>
        <time>2021-07-18T08:01:53Z</time>
      </trkpt>
      <trkpt lat="48.74688" lon="2.22799">
        <ele>55.96</ele>
        <time>2021-07-18T08:02:09Z</time>
      </trkpt>
      <trkpt lat="48.7468" lon="2.22804">
        <ele>55.7</ele>
        <time>2021-07-18T08:02:20Z</time>
      </trkpt>
      <trkpt lat="48.74672" lon="2.2282">
        <ele>55.57</ele>
        <time>2021-07-18T08:02:32Z</time>
      </trkpt>
      <trkpt lat="48.7467" lon="2.22825">
        <ele>55.56</ele>
        <time>2021-07-18T08:02:35Z</time>
      </trkpt>
      <trkpt lat="48.74665" lon="2.2286">
        <ele>56.24</ele>
        <time>2021-07-18T08:02:54Z</time>
      </trkpt>
      <trkpt lat="48.74659" lon="2.22871">
        <ele>55.41</ele>
        <time>2021-07-18T08:03:02Z</time>
      </trkpt>
      <trkpt lat="48.74646" lon="2.22886">
        <ele>55.66</ele>
        <time>2021-07-18T08:03:15Z</time>
      </trkpt>
      <trkpt lat="48.74631" lon="2.22905">
        <ele>55.8</ele>
        <time>2021-07-18T08:03:30Z</time>
      </trkpt>
      <trkpt lat="48.74624" lon="2.22915">
        <ele>55.48</ele>
        <time>2021-07-18T08:03:39Z</time>
      </trkpt>
      <trkpt lat="48.7462" lon="2.22919">
        <ele>55.69</ele>
        <time>2021-07-18T08:03:43Z</time>
      </trkpt>
      <trkpt lat="48.74611" lon="2.2293">
        <ele>55.98</ele>
        <time>2021-07-18T08:03:53Z</time>
      </trkpt>
      <trkpt lat="48.74596" lon="2.22937">
        <ele>55.24</ele>
        <time>2021-07-18T08:04:10Z</time>
      </trkpt>
      <trkpt lat="48.74594" lon="2.22938">
        <ele>55.94</ele>
        <time>2021-07-18T08:04:25Z</time>
      </trkpt>
      <trkpt lat="48.74591" lon="2.22948">
        <ele>55.19</ele>
        <time>2021-07-18T08:04:42Z</time>
      </trkpt>
      <trkpt lat="48.74585" lon="2.22958">
        <ele>55.02</ele>
        <time>2021-07-18T08:04:54Z</time>
      </trkpt>
      <trkpt lat="48.74574" lon="2.22968">
        <ele>54.95</ele>
        <time>2021-07-18T08:05:05Z</time>
      </trkpt>
      <trkpt lat="48.7456" lon="2.22986">
        <ele>54.77</ele>
        <time>2021-07-18T08:05:19Z</time>
      </trkpt>
      <trkpt lat="48.74552" lon="2.22996">
        <ele>54.71</ele>
        <time>2021-07-18T08:05:31Z</time>
      </trkpt>
      <trkpt lat="48.74544" lon="2.23009">
        <ele>55.15</ele>
        <time>2021-07-18T08:05:47Z</time>
      </trkpt>
      <trkpt lat="48.7453" lon="2.2302">
        <ele>54.66</ele>
        <time>2021-07-18T08:06:02Z</time>
      </trkpt>
      <trkpt lat="48.74513" lon="2.23028">
        <ele>54.53</ele>
        <time>2021-07-18T08:06:17Z</time>
      </trkpt>
      <trkpt lat="48.74491" lon="2.23031">
        <ele>54.8</ele>
        <time>2021-07-18T08:06:37Z</time>
      </trkpt>
      <trkpt lat="48.74483" lon="2.23026">
        <ele>54.8</ele>
        <time>2021-07-18T08:06:45Z</time>
      </trkpt>
      <trkpt lat="48.74466" lon="2.23024">
        <ele>54.9</ele>
        <time>2021-07-18T08:07:01Z</time>
      </trkpt>
      <trkpt lat="48.74463" lon="2.23025">
        <ele>54.96</ele>
        <time>2021-07-18T08:07:03Z</time>
      </trkpt>
      <trkpt lat="48.74449" lon="2.23038">
        <ele>54.81</ele>
        <time>2021-07-18T08:07:19Z</time>
      </trkpt>
      <trkpt lat="48.74438" lon="2.23048">
        <ele>54.17</ele>
        <time>2021-07-18T08:07:33Z</time>
      </trkpt>
      <trkpt lat="48.74422" lon="2.23058">
        <ele>54.25</ele>
        <time>2021-07-18T08:07:49Z</time>
      </trkpt>
      <trkpt lat="48.74414" lon="2.2305">
        <ele>54.59</ele>
        <time>2021-07-18T08:08:02Z</time>
      </trkpt>
      <trkpt lat="48.74412" lon="2.23046">
        <ele>54.72</ele>
        <time>2021-07-18T08:08:11Z</time>
      </trkpt>
      <trkpt lat="48.74394" lon="2.23048">
        <ele>53.73</ele>
        <time>2021-07-18T08:08:28Z</time>
      </trkpt>
      <trkpt lat="48.74392" lon="2.23051">
        <ele>54.24</ele>
        <time>2021-07-18T08:08:31Z</time>
      </trkpt>
      <trkpt lat="48.74379" lon="2.23056">
        <ele>54.12</ele>
        <time>2021-07-18T08:08:44Z</time>
      </trkpt>
      <trkpt lat="48.74369" lon="2.23055">
        <ele>54.15</ele>
        <time>2021-07-18T08:08:53Z</time>
      </trkpt>
      <trkpt lat="48.74358" lon="2.23054">
        <ele>54.4</ele>
        <time>2021-07-18T08:09:04Z</time>
      </trkpt>
      <trkpt lat="48.74342" lon="2.23059">
        <ele>54.34</ele>
        <time>2021-07-18T08:09:20Z</time>
      </trkpt>
      <trkpt lat="48.74336" lon="2.23061">
        <ele>54.14</ele>
        <time>2021-07-18T08:09:26Z</time>
      </trkpt>
      <trkpt lat="48.7432" lon="2.23067">
        <ele>53.85</ele>
        <time>2021-07-18T08:09:40Z</time>
      </trkpt>
      <trkpt lat="48.74305" lon="2.2307">
        <ele>53.42</ele>
        <time>2021-07-18T08:09:54Z</time>
      </trkpt>
      <trkpt lat="48.74288" lon="2.23073">
        <ele>53.59</ele>
        <time>2021-07-18T08:10:11Z</time>
      </trkpt>
      <trkpt lat="48.74273" lon="2.23091">
        <ele>52.55</ele>
        <time>2021-07-18T08:10:27Z</time>
      </trkpt>
      <trkpt lat="48.74259" lon="2.23101">
        <ele>52.42</ele>
        <time>2021-07-18T08:10:41Z</time>
      </trkpt>
      <trkpt lat="48.74245" lon="2.23102">
        <ele>52.52</ele>
        <time>2021-07-18T08:10:52Z</time>
      </trkpt>
      <trkpt lat="48.74231" lon="2.23104">
        <ele>51.81</ele>
        <time>2021-07-18T08:11:04Z</time>
      </trkpt>
      <trkpt lat="48.74213" lon="2.23095">
        <ele>51.87</ele>
        <time>2021-07-18T08:11:18Z</time>
      </trkpt>
      <trkpt lat="48.74204" lon="2.23106">
        <ele>51.59</ele>
        <time>2021-07-18T08:11:31Z</time>
      </trkpt>
      <trkpt lat="48.74197" lon="2.2311">
        <ele>52.07</ele>
        <time>2021-07-18T08:11:45Z</time>
      </trkpt>
      <trkpt lat="48.74196" lon="2.23112">
        <ele>52.07</ele>
        <time>2021-07-18T08:11:49Z</time>
      </trkpt>
      <trkpt lat="48.74185" lon="2.23124">
        <ele>52.05</ele>
        <time>2021-07-18T08:12:04Z</time>
      </trkpt>
      <trkpt lat="48.7418" lon="2.2313">
        <ele>52.76</ele>
        <time>2021-07-18T08:12:20Z</time>
      </trkpt>
      <trkpt lat="48.74179" lon="2.23135">
        <ele>51.7</ele>
        <time>2021-07-18T08:12:37Z</time>
      </trkpt>
      <trkpt lat="48.7418" lon="2.2314">
        <ele>52.26</ele>
        <time>2021-07-18T08:12:58Z</time>
      </trkpt>
      <trkpt lat="48.74182" lon="2.23137">
        <ele>52.34</ele>
        <time>2021-07-18T08:13:05Z</time>
      </trkpt>
      <trkpt lat="48.74181" lon="2.23137">
        <ele>51.28</ele>
        <time>2021-07-18T08:13:25Z</time>
      </trkpt>
      <trkpt lat="48.74178" lon="2.23135">
        <ele>52.07</ele>
        <time>2021-07-18T08:13:43Z</time>
      </trkpt>
      <trkpt lat="48.74178" lon="2.23137">
        <ele>51.8</ele>
        <time>2021-07-18T08:14:05Z</time>
      </trkpt>
      <trkpt lat="48.74183" lon="2.23135">
        <ele>52.31</ele>
        <time>2021-07-18T08:14:23Z</time>
      </trkpt>
      <trkpt lat="48.74181" lon="2.23133">
        <ele>51.63</ele>
        <time>2021-07-18T08:14:44Z</time>
      </trkpt>
      <trkpt lat="48.74178" lon="2.23137">
        <ele>52.19</ele>
        <time>2021-07-18T08:15:07Z</time>
      </trkpt>
      <trkpt lat="48.74176" lon="2.23135">
        <ele>52.13</ele>
        <time>2021-07-18T08:15:29Z</time>
      </trkpt>
      <trkpt lat="48.74179" lon="2.23137">
        <ele>51.9</ele>
        <time>2021-07-18T08:15:50Z</time>
      </trkpt>
      <trkpt lat="48.74177" lon="2.23139">
        <ele>51.83</ele>
        <time>2021-07-18T08:16:09Z</time>
      </trkpt>
      <trkpt lat="48.74171" lon="2.23144">
        <ele>52.71</ele>
        <time>2021-07-18T08:16:25Z</time>
      </trkpt>
      <trkpt lat="48.74168" lon="2.23152">
        <ele>53.16</ele>
        <time>2021-07-18T08:16:34Z</time>
      </trkpt>
      <trkpt lat="48.74161" lon="2.23167">
        <ele>51.61</ele>
        <time>2021-07-18T08:16:52Z</time>
      </trkpt>
      <trkpt lat="48.74158" lon="2.23186">
        <ele>52.5</ele>
        <time>2021-07-18T08:17:07Z</time>
      </trkpt>
      <trkpt lat="48.74157" lon="2.23203">
        <ele>51.84</ele>
        <time>2021-07-18T08:17:17Z</time>
      </trkpt>
      <trkpt lat="48.7416" lon="2.23234">
        <ele>51.8</ele>
        <time>2021-07-18T08:17:35Z</time>
      </trkpt>
      <trkpt lat="48.74161" lon="2.23263">
        <ele>51.79</ele>
        <time>2021-07-18T08:17:54Z</time>
      </trkpt>
      <trkpt lat="48.74166" lon="2.23283">
        <ele>51.68</ele>
        <time>2021-07-18T08:18:08Z</time>
      </trkpt>
      <trkpt lat="48.74169" lon="2.23308">
        <ele>51.66</ele>
        <time>2021-07-18T08:18:22Z</time>
      </trkpt>
      <trkpt lat="48.74168" lon="2.2333">
        <ele>51.89</ele>
        <time>2021-07-18T08:18:36Z</time>
      </trkpt>
      <trkpt lat="48.74168" lon="2.23344">
        <ele>51.76</ele>
        <time>2021-07-18T08:18:47Z</time>
      </trkpt>
      <trkpt lat="48.74173" lon="2.23358">
        <ele>52.25</ele>
        <time>2021-07-18T08:18:58Z</time>
      </trkpt>
      <trkpt lat="48.7417" lon="2.23376">
        <ele>52.47</ele>
        <time>2021-07-18T08:19:11Z</time>
      </trkpt>
      <trkpt lat="48.74167" lon="2.23405">
        <ele>51.98</ele>
        <time>2021-07-18T08:19:28Z</time>
      </trkpt>
      <trkpt lat="48.74168" lon="2.2343">
        <ele>52.19</ele>
        <time>2021-07-18T08:19:44Z</time>
      </trkpt>
      <trkpt lat="48.7417" lon="2.23453">
        <ele>51.85</ele>
        <time>2021-07-18T08:19:59Z</time>
      </trkpt>
      <trkpt lat="48.74165" lon="2.23485">
        <ele>51.5</ele>
        <time>2021-07-18T08:20:15Z</time>
      </trkpt>
      <trkpt lat="48.74161" lon="2.23511">
        <ele>52.34</ele>
        <time>2021-07-18T08:20:31Z</time>
      </trkpt>
      <trkpt lat="48.7416" lon="2.23526">
        <ele>51.99</ele>
        <time>2021-07-18T08:20:42Z</time>
      </trkpt>
      <trkpt lat="48.74151" lon="2.2355">
        <ele>52.1</ele>
        <time>2021-07-18T08:20:54Z</time>
      </trkpt>
      <trkpt lat="48.74143" lon="2.23568">
        <ele>52.74</ele>
        <time>2021-07-18T08:21:12Z</time>
      </trkpt>
      <trkpt lat="48.74129" lon="2.23594">
        <ele>51.84</ele>
        <time>2021-07-18T08:21:28Z</time>
      </trkpt>
      <trkpt lat="48.74121" lon="2.23621">
        <ele>52.26</ele>
        <time>2021-07-18T08:21:45Z</time>
      </trkpt>
      <trkpt lat="48.74113" lon="2.23637">
        <ele>52.26</ele>
        <time>2021-07-18T08:21:56Z</time>
      </trkpt>
      <trkpt lat="48.74112" lon="2.23645">
        <ele>53.33</ele>
        <time>2021-07-18T08:22:10Z</time>
      </trkpt>
      <trkpt lat="48.74112" lon="2.23647">
        <ele>52.85</ele>
        <time>2021-07-18T08:22:28Z</time>
      </trkpt>
      <trkpt lat="48.74118" lon="2.23657">
        <ele>53.8</ele>
        <time>2021-07-18T08:22:44Z</time>
      </trkpt>
      <trkpt lat="48.74129" lon="2.23671">
        <ele>55.73</ele>
        <time>2021-07-18T08:23:01Z</time>
      </trkpt>
      <trkpt lat="48.74136" lon="2.23678">
        <ele>56.64</ele>
        <time>2021-07-18T08:23:12Z</time>
      </trkpt>
      <trkpt lat="48.74145" lon="2.23686">
        <ele>58.45</ele>
        <time>2021-07-18T08:23:27Z</time>
      </trkpt>
      <trkpt lat="48.74153" lon="2.2369">
        <ele>59.59</ele>
        <time>2021-07-18T08:23:36Z</time>
      </trkpt>
      <trkpt lat="48.74161" lon="2.23693">
        <ele>61.81</ele>
        <time>2021-07-18T08:23:49Z</time>
      </trkpt>
      <trkpt lat="48.7418" lon="2.23698">
        <ele>63.07</ele>
        <time>2021-07-18T08:24:03Z</time>
      </trkpt>
      <trkpt lat="48.7419" lon="2.23696">
        <ele>64.17</ele>
        <time>2021-07-18T08:24:16Z</time>
      </trkpt>
      <trkpt lat="48.74195" lon="2.23691">
        <ele>63.87</ele>
        <time>2021-07-18T08:24:29Z</time>
      </trkpt>
      <trkpt lat="48.74199" lon="2.23696">
        <ele>64.06</ele>
        <time>2021-07-18T08:24:49Z</time>
      </trkpt>
      <trkpt lat="48.742" lon="2.23704">
        <ele>64.74</ele>
        <time>2021-07-18T08:25:03Z</time>
      </trkpt>
      <trkpt lat="48.74206" lon="2.23705">
        <ele>66.12</ele>
        <time>2021-07-18T08:25:17Z</time>
      </trkpt>
      <trkpt lat="48.74206" lon="2.23705">
        <ele>66.78</ele>
        <time>2021-07-18T08:25:19Z</time>
      </trkpt>
      <trkpt lat="48.74216" lon="2.23698">
        <ele>65.82</ele>
        <time>2021-07-18T08:25:33Z</time>
      </trkpt>
      <trkpt lat="48.74221" lon="2.23685">
        <ele>66.48</ele>
        <time>2021-07-18T08:25:49Z</time>
      </trkpt>
      <trkpt lat="48.74229" lon="2.23667">
        <ele>65.84</ele>
        <time>2021-07-18T08:26:04Z</time>
      </trkpt>
      <trkpt lat="48.74237" lon="2.23647">
        <ele>66.86</ele>
        <time>2021-07-18T08:26:21Z</time>
      </trkpt>
      <trkpt lat="48.74246" lon="2.23631">
        <ele>68.07</ele>
        <time>2021-07-18T08:26:37Z</time>
      </trkpt>
      <trkpt lat="48.74253" lon="2.23615">
        <ele>69.83</ele>
        <time>2021-07-18T08:26:54Z</time>
      </trkpt>
      <trkpt lat="48.7426" lon="2.23607">
        <ele>72.56</ele>
        <time>2021-07-18T08:27:10Z</time>
      </trkpt>
      <trkpt lat="48.74272" lon="2.23598">
        <ele>74.35</ele>
        <time>2021-07-18T08:27:24Z</time>
      </trkpt>
      <trkpt lat="48.74278" lon="2.23591">
        <ele>75.53</ele>
        <time>2021-07-18T08:27:33Z</time>
      </trkpt>
      <trkpt lat="48.74289" lon="2.23592">
        <ele>77.14</ele>
        <time>2021-07-18T08:27:51Z</time>
      </trkpt>
      <trkpt lat="48.74294" lon="2.236">
        <ele>78.55</ele>
        <time>2021-07-18T08:28:01Z</time>
      </trkpt>
      <trkpt lat="48.74297" lon="2.23614">
        <ele>80.27</ele>
        <time>2021-07-18T08:28:18Z</time>
      </trkpt>
      <trkpt lat="48.74298" lon="2.23619">
        <ele>80.74</ele>
        <time>2021-07-18T08:28:23Z</time>
      </trkpt>
      <trkpt lat="48.74305" lon="2.23642">
        <ele>83.24</ele>
        <time>2021-07-18T08:28:41Z</time>
      </trkpt>
      <trkpt lat="48.74306" lon="2.23642">
        <ele>83.73</ele>
        <time>2021-07-18T08:28:42Z</time>
      </trkpt>
      <trkpt lat="48.74311" lon="2.23661">
        <ele>85.62</ele>
        <time>2021-07-18T08:28:59Z</time>
      </trkpt>
      <trkpt lat="48.74313" lon="2.23667">
        <ele>87.07</ele>
        <time>2021-07-18T08:29:08Z</time>
      </trkpt>
      <trkpt lat="48.74318" lon="2.23674">
        <ele>88.19</ele>
        <time>2021-07-18T08:29:17Z</time>
      </trkpt>
      <trkpt lat="48.74323" lon="2.23688">
        <ele>89.88</ele>
        <time>2021-07-18T08:29:36Z</time>
      </trkpt>
      <trkpt lat="48.74328" lon="2.23689">
        <ele>88.42</ele>
        <time>2021-07-18T08:29:51Z</time>
      </trkpt>
      <trkpt lat="48.7433" lon="2.23679">
        <ele>87.81</ele>
        <time>2021-07-18T08:30:03Z</time>
      </trkpt>
      <trkpt lat="48.74332" lon="2.23655">
        <ele>87.82</ele>
        <time>2021-07-18T08:30:21Z</time>
      </trkpt>
      <trkpt lat="48.7434" lon="2.23632">
        <ele>86.84</ele>
        <time>2021-07-18T08:30:36Z</time>
      </trkpt>
      <trkpt lat="48.74349" lon="2.2362">
        <ele>86.71</ele>
        <time>2021-07-18T08:30:51Z</time>
      </trkpt>
      <trkpt lat="48.74355" lon="2.23616">
        <ele>86.36</ele>
        <time>2021-07-18T08:30:57Z</time>
      </trkpt>
      <trkpt lat="48.7437" lon="2.23602">
        <ele>85.78</ele>
        <time>2021-07-18T08:31:11Z</time>
      </trkpt>
      <trkpt lat="48.74376" lon="2.236">
        <ele>85.2</ele>
        <time>2021-07-18T08:31:17Z</time>
      </trkpt>
      <trkpt lat="48.74387" lon="2.23605">
        <ele>86.65</ele>
        <time>2021-07-18T08:31:35Z</time>
      </trkpt>
      <trkpt lat="48.74388" lon="2.23614">
        <ele>88.09</ele>
        <time>2021-07-18T08:31:52Z</time>
      </trkpt>
      <trkpt lat="48.74388" lon="2.23623">
        <ele>89.57</ele>
        <time>2021-07-18T08:32:02Z</time>
      </trkpt>
      <trkpt lat="48.74388" lon="2.23626">
        <ele>91.35</ele>
        <time>2021-07-18T08:32:12Z</time>
      </trkpt>
      <trkpt lat="48.74372" lon="2.23675">
        <ele>95.59</ele>
        <time>2021-07-18T08:32:53Z</time>
      </trkpt>
      <trkpt lat="48.74385" lon="2.23679">
        <ele>96.11</ele>
        <time>2021-07-18T08:33:06Z</time>
      </trkpt>
      <trkpt lat="48.74391" lon="2.23689">
        <ele>97.51</ele>
        <time>2021-07-18T08:33:22Z</time>
      </trkpt>
      <trkpt lat="48.74401" lon="2.23694">
        <ele>100.08</ele>
        <time>2021-07-18T08:33:41Z</time>
      </trkpt>
      <trkpt lat="48.7441" lon="2.23707">
        <ele>102.95</ele>
        <time>2021-07-18T08:33:58Z</time>
      </trkpt>
      <trkpt lat="48.74413" lon="2.2372">
        <ele>105.97</ele>
        <time>2021-07-18T08:34:17Z</time>
      </trkpt>
      <trkpt lat="48.74404" lon="2.23743">
        <ele>107.49</ele>
        <time>2021-07-18T08:34:36Z</time>
      </trkpt>
      <trkpt lat="48.74397" lon="2.23756">
        <ele>108.54</ele>
        <time>2021-07-18T08:34:50Z</time>
      </trkpt>
      <trkpt lat="48.74398" lon="2.23763">
        <ele>112.08</ele>
        <time>2021-07-18T08:35:05Z</time>
      </trkpt>
      <trkpt lat="48.74399" lon="2.23778">
        <ele>112.79</ele>
        <time>2021-07-18T08:35:22Z</time>
      </trkpt>
      <trkpt lat="48.74408" lon="2.23787">
        <ele>115.98</ele>
        <time>2021-07-18T08:35:36Z</time>
      </trkpt>
      <trkpt lat="48.74418" lon="2.23794">
        <ele>118.63</ele>
        <time>2021-07-18T08:35:52Z</time>
      </trkpt>
      <trkpt lat="48.74422" lon="2.23795">
        <ele>120.3</ele>
        <time>2021-07-18T08:36:07Z</time>
      </trkpt>
      <trkpt lat="48.74429" lon="2.238">
        <ele>120.34</ele>
        <time>2021-07-18T08:36:19Z</time>
      </trkpt>
      <trkpt lat="48.74434" lon="2.23796">
        <ele>119.98</ele>
        <time>2021-07-18T08:36:39Z</time>
      </trkpt>
      <trkpt lat="48.7444" lon="2.23796">
        <ele>121.09</ele>
        <time>2021-07-18T08:37:01Z</time>
      </trkpt>
      <trkpt lat="48.74435" lon="2.23788">
        <ele>120.88</ele>
        <time>2021-07-18T08:37:21Z</time>
      </trkpt>
      <trkpt lat="48.74433" lon="2.23784">
        <ele>120.76</ele>
        <time>2021-07-18T08:37:37Z</time>
      </trkpt>
      <trkpt lat="48.7443" lon="2.23786">
        <ele>120.51</ele>
        <time>2021-07-18T08:37:55Z</time>
      </trkpt>
      <trkpt lat="48.74429" lon="2.23784">
        <ele>120.32</ele>
        <time>2021-07-18T08:38:15Z</time>
      </trkpt>
      <trkpt lat="48.7443" lon="2.23786">
        <ele>121.46</ele>
        <time>2021-07-18T08:38:34Z</time>
      </trkpt>
      <trkpt lat="48.7443" lon="2.23788">
        <ele>121.52</ele>
        <time>2021-07-18T08:38:52Z</time>
      </trkpt>
      <trkpt lat="48.74427" lon="2.23788">
        <ele>122.35</ele>
        <time>2021-07-18T08:39:12Z</time>
      </trkpt>
      <trkpt lat="48.74422" lon="2.23785">
        <ele>121.66</ele>
        <time>2021-07-18T08:39:33Z</time>
      </trkpt>
      <trkpt lat="48.7442" lon="2.23789">
        <ele>122.27</ele>
        <time>2021-07-18T08:39:56Z</time>
      </trkpt>
      <trkpt lat="48.74416" lon="2.2379">
        <ele>122.19</ele>
        <time>2021-07-18T08:40:16Z</time>
      </trkpt>
      <trkpt lat="48.74419" lon="2.23786">
        <ele>122.27</ele>
        <time>2021-07-18T08:40:39Z</time>
      </trkpt>
      <trkpt lat="48.74429" lon="2.23785">
        <ele>122.53</ele>
        <time>2021-07-18T08:40:54Z</time>
      </trkpt>
      <trkpt lat="48.7444" lon="2.23782">
        <ele>123.28</ele>
        <time>2021-07-18T08:41:10Z</time>
      </trkpt>
      <trkpt lat="48.74456" lon="2.23778">
        <ele>123.71</ele>
        <time>2021-07-18T08:41:27Z</time>
      </trkpt>
      <trkpt lat="48.74464" lon="2.23773">
        <ele>124.81</ele>
        <time>2021-07-18T08:41:42Z</time>
      </trkpt>
      <trkpt lat="48.74468" lon="2.2377">
        <ele>125.14</ele>
        <time>2021-07-18T08:41:49Z</time>
      </trkpt>
      <trkpt lat="48.74482" lon="2.23763">
        <ele>126.03</ele>
        <time>2021-07-18T08:42:05Z</time>
      </trkpt>
      <trkpt lat="48.74482" lon="2.23763">
        <ele>125.63</ele>
        <time>2021-07-18T08:42:06Z</time>
      </trkpt>
      <trkpt lat="48.74495" lon="2.23756">
        <ele>126.48</ele>
        <time>2021-07-18T08:42:18Z</time>
      </trkpt>
      <trkpt lat="48.74504" lon="2.23751">
        <ele>126.61</ele>
        <time>2021-07-18T08:42:28Z</time>
      </trkpt>
      <trkpt lat="48.74512" lon="2.23747">
        <ele>127.08</ele>
        <time>2021-07-18T08:42:36Z</time>
      </trkpt>
      <trkpt lat="48.74529" lon="2.23736">
        <ele>127.99</ele>
        <time>2021-07-18T08:42:52Z</time>
      </trkpt>
      <trkpt lat="48.74541" lon="2.2373">
        <ele>128.84</ele>
        <time>2021-07-18T08:43:07Z</time>
      </trkpt>
      <trkpt lat="48.74555" lon="2.23723">
        <ele>129.76</ele>
        <time>2021-07-18T08:43:22Z</time>
      </trkpt>
      <trkpt lat="48.7456" lon="2.23721">
        <ele>129.79</ele>
        <time>2021-07-18T08:43:28Z</time>
      </trkpt>
      <trkpt lat="48.74572" lon="2.23709">
        <ele>129.97</ele>
        <time>2021-07-18T08:43:42Z</time>
      </trkpt>
      <trkpt lat="48.74583" lon="2.23698">
        <ele>130.91</ele>
        <time>2021-07-18T08:43:55Z</time>
      </trkpt>
      <trkpt lat="48.74591" lon="2.23689">
        <ele>129.93</ele>
        <time>2021-07-18T08:44:08Z</time>
      </trkpt>
      <trkpt lat="48.74603" lon="2.23681">
        <ele>130.47</ele>
        <time>2021-07-18T08:44:22Z</time>
      </trkpt>
      <trkpt lat="48.74614" lon="2.23669">
        <ele>129.39</ele>
        <time>2021-07-18T08:44:37Z</time>
      </trkpt>
      <trkpt lat="48.74621" lon="2.23659">
        <ele>129.61</ele>
        <time>2021-07-18T08:44:50Z</time>
      </trkpt>
      <trkpt lat="48.74631" lon="2.23648">
        <ele>128.84</ele>
        <time>2021-07-18T08:45:03Z</time>
      </trkpt>
      <trkpt lat="48.74645" lon="2.23636">
        <ele>129.18</ele>
        <time>2021-07-18T08:45:21Z</time>
      </trkpt>
      <trkpt lat="48.7465" lon="2.23631">
        <ele>128.55</ele>
        <time>2021-07-18T08:45:42Z</time>
      </trkpt>
      <trkpt lat="48.74653" lon="2.23629">
        <ele>129.33</ele>
        <time>2021-07-18T08:46:07Z</time>
      </trkpt>
      <trkpt lat="48.74655" lon="2.23629">
        <ele>129.19</ele>
        <time>2021-07-18T08:46:31Z</time>
      </trkpt>
      <trkpt lat="48.74655" lon="2.23627">
        <ele>129.02</ele>
        <time>2021-07-18T08:46:55Z</time>
      </trkpt>
      <trkpt lat="48.74657" lon="2.23629">
        <ele>129.41</ele>
        <time>2021-07-18T08:47:17Z</time>
      </trkpt>
      <trkpt lat="48.74658" lon="2.23625">
        <ele>129.75</ele>
        <time>2021-07-18T08:47:39Z</time>
      </trkpt>
      <trkpt lat="48.74658" lon="2.2362">
        <ele>128.92</ele>
        <time>2021-07-18T08:47:53Z</time>
      </trkpt>
      <trkpt lat="48.74667" lon="2.23616">
        <ele>129.35</ele>
        <time>2021-07-18T08:48:05Z</time>
      </trkpt>
      <trkpt lat="48.74681" lon="2.23619">
        <ele>130.06</ele>
        <time>2021-07-18T08:48:20Z</time>
      </trkpt>
      <trkpt lat="48.74686" lon="2.2362">
        <ele>129.65</ele>
        <time>2021-07-18T08:48:26Z</time>
      </trkpt>
      <trkpt lat="48.7469" lon="2.23623">
        <ele>130</ele>
        <time>2021-07-18T08:48:32Z</time>
      </trkpt>
      <trkpt lat="48.74697" lon="2.23626">
        <ele>130.3</ele>
        <time>2021-07-18T08:48:36Z</time>
      </trkpt>
      <trkpt lat="48.74704" lon="2.23632">
        <ele>131.08</ele>
        <time>2021-07-18T08:48:44Z</time>
      </trkpt>
      <trkpt lat="48.74717" lon="2.23643">
        <ele>131.69</ele>
        <time>2021-07-18T08:49:00Z</time>
      </trkpt>
      <trkpt lat="48.74732" lon="2.23657">
        <ele>133.2</ele>
        <time>2021-07-18T08:49:15Z</time>
      </trkpt>
      <trkpt lat="48.74743" lon="2.23669">
        <ele>133.92</ele>
        <time>2021-07-18T08:49:30Z</time>
      </trkpt>
      <trkpt lat="48.74759" lon="2.2368">
        <ele>134.67</ele>
        <time>2021-07-18T08:49:46Z</time>
      </trkpt>
      <trkpt lat="48.74772" lon="2.23692">
        <ele>136.03</ele>
        <time>2021-07-18T08:50:02Z</time>
      </trkpt>
      <trkpt lat="48.74781" lon="2.23698">
        <ele>136.36</ele>
        <time>2021-07-18T08:50:13Z</time>
      </trkpt>
      <trkpt lat="48.74788" lon="2.23714">
        <ele>137.04</ele>
        <time>2021-07-18T08:50:24Z</time>
      </trkpt>
      <trkpt lat="48.74797" lon="2.23731">
        <ele>138.24</ele>
        <time>2021-07-18T08:50:41Z</time>
      </trkpt>
      <trkpt lat="48.74804" lon="2.23744">
        <ele>138.14</ele>
        <time>2021-07-18T08:50:52Z</time>
      </trkpt>
      <trkpt lat="48.74813" lon="2.23763">
        <ele>138.66</ele>
        <time>2021-07-18T08:51:08Z</time>
      </trkpt>
      <trkpt lat="48.74823" lon="2.2378">
        <ele>139.34</ele>
        <time>2021-07-18T08:51:24Z</time>
      </trkpt>
      <trkpt lat="48.74832" lon="2.23777">
        <ele>139.28</ele>
        <time>2021-07-18T08:51:40Z</time>
      </trkpt>
      <trkpt lat="48.74833" lon="2.23777">
        <ele>139.35</ele>
        <time>2021-07-18T08:51:41Z</time>
      </trkpt>
      <trkpt lat="48.74838" lon="2.23775">
        <ele>138.83</ele>
        <time>2021-07-18T08:51:49Z</time>
      </trkpt>
      <trkpt lat="48.74841" lon="2.23771">
        <ele>139.1</ele>
        <time>2021-07-18T08:51:55Z</time>
      </trkpt>
      <trkpt lat="48.74858" lon="2.23764">
        <ele>138.52</ele>
        <time>2021-07-18T08:52:10Z</time>
      </trkpt>
      <trkpt lat="48.74879" lon="2.23752">
        <ele>138.98</ele>
        <time>2021-07-18T08:52:28Z</time>
      </trkpt>
      <trkpt lat="48.74888" lon="2.23743">
        <ele>139.1</ele>
        <time>2021-07-18T08:52:42Z</time>
      </trkpt>
      <trkpt lat="48.74908" lon="2.23731">
        <ele>139.02</ele>
        <time>2021-07-18T08:52:59Z</time>
      </trkpt>
      <trkpt lat="48.74922" lon="2.23722">
        <ele>139.58</ele>
        <time>2021-07-18T08:53:14Z</time>
      </trkpt>
      <trkpt lat="48.74936" lon="2.23719">
        <ele>140.08</ele>
        <time>2021-07-18T08:53:29Z</time>
      </trkpt>
      <trkpt lat="48.74954" lon="2.23715">
        <ele>140.87</ele>
        <time>2021-07-18T08:53:46Z</time>
      </trkpt>
      <trkpt lat="48.74957" lon="2.23716">
        <ele>140.82</ele>
        <time>2021-07-18T08:53:50Z</time>
      </trkpt>
      <trkpt lat="48.74983" lon="2.23721">
        <ele>141.85</ele>
        <time>2021-07-18T08:54:09Z</time>
      </trkpt>
      <trkpt lat="48.74997" lon="2.2372">
        <ele>142.89</ele>
        <time>2021-07-18T08:54:24Z</time>
      </trkpt>
      <trkpt lat="48.75002" lon="2.23718">
        <ele>142.87</ele>
        <time>2021-07-18T08:54:35Z</time>
      </trkpt>
      <trkpt lat="48.75004" lon="2.23717">
        <ele>142.64</ele>
        <time>2021-07-18T08:54:38Z</time>
      </trkpt>
      <trkpt lat="48.75015" lon="2.23708">
        <ele>142.78</ele>
        <time>2021-07-18T08:54:56Z</time>
      </trkpt>
      <trkpt lat="48.75023" lon="2.23697">
        <ele>143.38</ele>
        <time>2021-07-18T08:55:09Z</time>
      </trkpt>
      <trkpt lat="48.75037" lon="2.23675">
        <ele>143.42</ele>
        <time>2021-07-18T08:55:27Z</time>
      </trkpt>
      <trkpt lat="48.75046" lon="2.23657">
        <ele>143.55</ele>
        <time>2021-07-18T08:55:43Z</time>
      </trkpt>
      <trkpt lat="48.75058" lon="2.23629">
        <ele>143.32</ele>
        <time>2021-07-18T08:55:59Z</time>
      </trkpt>
      <trkpt lat="48.75072" lon="2.23607">
        <ele>143.59</ele>
        <time>2021-07-18T08:56:15Z</time>
      </trkpt>
      <trkpt lat="48.75079" lon="2.23594">
        <ele>143.1</ele>
        <time>2021-07-18T08:56:31Z</time>
      </trkpt>
      <trkpt lat="48.75096" lon="2.23579">
        <ele>142.58</ele>
        <time>2021-07-18T08:56:49Z</time>
      </trkpt>
      <trkpt lat="48.75119" lon="2.2356">
        <ele>142.41</ele>
        <time>2021-07-18T08:57:07Z</time>
      </trkpt>
      <trkpt lat="48.75132" lon="2.23546">
        <ele>141.91</ele>
        <time>2021-07-18T08:57:24Z</time>
      </trkpt>
      <trkpt lat="48.75145" lon="2.23526">
        <ele>141.96</ele>
        <time>2021-07-18T08:57:43Z</time>
      </trkpt>
      <trkpt lat="48.75147" lon="2.23524">
        <ele>140.84</ele>
        <time>2021-07-18T08:57:47Z</time>
      </trkpt>
      <trkpt lat="48.75166" lon="2.23507">
        <ele>141.82</ele>
        <time>2021-07-18T08:58:03Z</time>
      </trkpt>
      <trkpt lat="48.75186" lon="2.2349">
        <ele>141.14</ele>
        <time>2021-07-18T08:58:21Z</time>
      </trkpt>
      <trkpt lat="48.75206" lon="2.23488">
        <ele>140.54</ele>
        <time>2021-07-18T08:58:35Z</time>
      </trkpt>
      <trkpt lat="48.7522" lon="2.23496">
        <ele>140.93</ele>
        <time>2021-07-18T08:58:51Z</time>
      </trkpt>
      <trkpt lat="48.75228" lon="2.23506">
        <ele>140.45</ele>
        <time>2021-07-18T08:59:02Z</time>
      </trkpt>
      <trkpt lat="48.75244" lon="2.23523">
        <ele>140.59</ele>
        <time>2021-07-18T08:59:17Z</time>
      </trkpt>
      <trkpt lat="48.75248" lon="2.23529">
        <ele>140.64</ele>
        <time>2021-07-18T08:59:21Z</time>
      </trkpt>
      <trkpt lat="48.75252" lon="2.23534">
        <ele>140.49</ele>
        <time>2021-07-18T08:59:24Z</time>
      </trkpt>
      <trkpt lat="48.75267" lon="2.23556">
        <ele>141.42</ele>
        <time>2021-07-18T08:59:40Z</time>
      </trkpt>
      <trkpt lat="48.75279" lon="2.2358">
        <ele>141.2</ele>
        <time>2021-07-18T08:59:57Z</time>
      </trkpt>
      <trkpt lat="48.75287" lon="2.23589">
        <ele>141.67</ele>
        <time>2021-07-18T09:00:09Z</time>
      </trkpt>
      <trkpt lat="48.75302" lon="2.236">
        <ele>142.07</ele>
        <time>2021-07-18T09:00:25Z</time>
      </trkpt>
      <trkpt lat="48.75316" lon="2.23602">
        <ele>142.09</ele>
        <time>2021-07-18T09:00:41Z</time>
      </trkpt>
      <trkpt lat="48.75329" lon="2.23586">
        <ele>141.79</ele>
        <time>2021-07-18T09:00:57Z</time>
      </trkpt>
      <trkpt lat="48.75337" lon="2.23562">
        <ele>141.02</ele>
        <time>2021-07-18T09:01:14Z</time>
      </trkpt>
      <trkpt lat="48.75345" lon="2.23535">
        <ele>140.27</ele>
        <time>2021-07-18T09:01:32Z</time>
      </trkpt>
      <trkpt lat="48.75354" lon="2.23507">
        <ele>139.69</ele>
        <time>2021-07-18T09:01:49Z</time>
      </trkpt>
      <trkpt lat="48.75359" lon="2.23482">
        <ele>139.2</ele>
        <time>2021-07-18T09:02:03Z</time>
      </trkpt>
      <trkpt lat="48.75365" lon="2.23453">
        <ele>138.81</ele>
        <time>2021-07-18T09:02:21Z</time>
      </trkpt>
      <trkpt lat="48.75371" lon="2.23434">
        <ele>138.72</ele>
        <time>2021-07-18T09:02:36Z</time>
      </trkpt>
      <trkpt lat="48.75386" lon="2.23418">
        <ele>138.69</ele>
        <time>2021-07-18T09:02:50Z</time>
      </trkpt>
      <trkpt lat="48.75391" lon="2.234">
        <ele>138.69</ele>
        <time>2021-07-18T09:03:07Z</time>
      </trkpt>
      <trkpt lat="48.75399" lon="2.23386">
        <ele>139.13</ele>
        <time>2021-07-18T09:03:26Z</time>
      </trkpt>
      <trkpt lat="48.75419" lon="2.23361">
        <ele>139.25</ele>
        <time>2021-07-18T09:03:42Z</time>
      </trkpt>
      <trkpt lat="48.75431" lon="2.23344">
        <ele>139.95</ele>
        <time>2021-07-18T09:03:57Z</time>
      </trkpt>
      <trkpt lat="48.75439" lon="2.2333">
        <ele>139.61</ele>
        <time>2021-07-18T09:04:13Z</time>
      </trkpt>
      <trkpt lat="48.75455" lon="2.23312">
        <ele>140.14</ele>
        <time>2021-07-18T09:04:29Z</time>
      </trkpt>
      <trkpt lat="48.75465" lon="2.23298">
        <ele>140.35</ele>
        <time>2021-07-18T09:04:38Z</time>
      </trkpt>
      <trkpt lat="48.75471" lon="2.23293">
        <ele>141.06</ele>
        <time>2021-07-18T09:04:42Z</time>
      </trkpt>
      <trkpt lat="48.75474" lon="2.2329">
        <ele>141.25</ele>
        <time>2021-07-18T09:04:48Z</time>
      </trkpt>
      <trkpt lat="48.75483" lon="2.23284">
        <ele>141.12</ele>
        <time>2021-07-18T09:05:08Z</time>
      </trkpt>
      <trkpt lat="48.75488" lon="2.23287">
        <ele>141.44</ele>
        <time>2021-07-18T09:05:29Z</time>
      </trkpt>
      <trkpt lat="48.75484" lon="2.23291">
        <ele>141.47</ele>
        <time>2021-07-18T09:05:49Z</time>
      </trkpt>
      <trkpt lat="48.75485" lon="2.23289">
        <ele>141.31</ele>
        <time>2021-07-18T09:06:03Z</time>
      </trkpt>
      <trkpt lat="48.75485" lon="2.23289">
        <ele>141.29</ele>
        <time>2021-07-18T09:06:09Z</time>
      </trkpt>
      <trkpt lat="48.75487" lon="2.23293">
        <ele>142.28</ele>
        <time>2021-07-18T09:06:30Z</time>
      </trkpt>
      <trkpt lat="48.75492" lon="2.2331">
        <ele>142.97</ele>
        <time>2021-07-18T09:06:44Z</time>
      </trkpt>
      <trkpt lat="48.75498" lon="2.23325">
        <ele>144.28</ele>
        <time>2021-07-18T09:06:57Z</time>
      </trkpt>
      <trkpt lat="48.75505" lon="2.23339">
        <ele>144.93</ele>
        <time>2021-07-18T09:07:08Z</time>
      </trkpt>
      <trkpt lat="48.75515" lon="2.23362">
        <ele>145.7</ele>
        <time>2021-07-18T09:07:25Z</time>
      </trkpt>
      <trkpt lat="48.75522" lon="2.23385">
        <ele>146.51</ele>
        <time>2021-07-18T09:07:39Z</time>
      </trkpt>
      <trkpt lat="48.7553" lon="2.23399">
        <ele>146.54</ele>
        <time>2021-07-18T09:07:55Z</time>
      </trkpt>
      <trkpt lat="48.75535" lon="2.23415">
        <ele>147.71</ele>
        <time>2021-07-18T09:08:07Z</time>
      </trkpt>
      <trkpt lat="48.75543" lon="2.23435">
        <ele>148.89</ele>
        <time>2021-07-18T09:08:23Z</time>
      </trkpt>
      <trkpt lat="48.75555" lon="2.23456">
        <ele>149.07</ele>
        <time>2021-07-18T09:08:39Z</time>
      </trkpt>
      <trkpt lat="48.75561" lon="2.23475">
        <ele>149.93</ele>
        <time>2021-07-18T09:08:54Z</time>
      </trkpt>
      <trkpt lat="48.75569" lon="2.23495">
        <ele>150.23</ele>
        <time>2021-07-18T09:09:10Z</time>
      </trkpt>
      <trkpt lat="48.7558" lon="2.23519">
        <ele>150.64</ele>
        <time>2021-07-18T09:09:26Z</time>
      </trkpt>
      <trkpt lat="48.7559" lon="2.23538">
        <ele>151.23</ele>
        <time>2021-07-18T09:09:41Z</time>
      </trkpt>
      <trkpt lat="48.75598" lon="2.23562">
        <ele>151.44</ele>
        <time>2021-07-18T09:09:55Z</time>
      </trkpt>
      <trkpt lat="48.75608" lon="2.23582">
        <ele>152.51</ele>
        <time>2021-07-18T09:10:10Z</time>
      </trkpt>
      <trkpt lat="48.75619" lon="2.23604">
        <ele>152.31</ele>
        <time>2021-07-18T09:10:26Z</time>
      </trkpt>
      <trkpt lat="48.75628" lon="2.23624">
        <ele>152.85</ele>
        <time>2021-07-18T09:10:41Z</time>
      </trkpt>
      <trkpt lat="48.7564" lon="2.23646">
        <ele>153.34</ele>
        <time>2021-07-18T09:10:56Z</time>
      </trkpt>
      <trkpt lat="48.75648" lon="2.23666">
        <ele>153.22</ele>
        <time>2021-07-18T09:11:11Z</time>
      </trkpt>
      <trkpt lat="48.75659" lon="2.23683">
        <ele>153.17</ele>
        <time>2021-07-18T09:11:24Z</time>
      </trkpt>
      <trkpt lat="48.75667" lon="2.23708">
        <ele>153.34</ele>
        <time>2021-07-18T09:11:38Z</time>
      </trkpt>
      <trkpt lat="48.75678" lon="2.2371">
        <ele>153.95</ele>
        <time>2021-07-18T09:11:53Z</time>
      </trkpt>
      <trkpt lat="48.75689" lon="2.23709">
        <ele>153.58</ele>
        <time>2021-07-18T09:12:05Z</time>
      </trkpt>
      <trkpt lat="48.75698" lon="2.23709">
        <ele>153.75</ele>
        <time>2021-07-18T09:12:12Z</time>
      </trkpt>
      <trkpt lat="48.75715" lon="2.23711">
        <ele>153.74</ele>
        <time>2021-07-18T09:12:27Z</time>
      </trkpt>
      <trkpt lat="48.75732" lon="2.23714">
        <ele>154.08</ele>
        <time>2021-07-18T09:12:42Z</time>
      </trkpt>
      <trkpt lat="48.75749" lon="2.23714">
        <ele>154.5</ele>
        <time>2021-07-18T09:12:56Z</time>
      </trkpt>
      <trkpt lat="48.75763" lon="2.23714">
        <ele>154.99</ele>
        <time>2021-07-18T09:13:11Z</time>
      </trkpt>
      <trkpt lat="48.75777" lon="2.23713">
        <ele>155.56</ele>
        <time>2021-07-18T09:13:26Z</time>
      </trkpt>
      <trkpt lat="48.75797" lon="2.23714">
        <ele>155.54</ele>
        <time>2021-07-18T09:13:43Z</time>
      </trkpt>
      <trkpt lat="48.75812" lon="2.23714">
        <ele>156.11</ele>
        <time>2021-07-18T09:13:58Z</time>
      </trkpt>
      <trkpt lat="48.75819" lon="2.23716">
        <ele>155.93</ele>
        <time>2021-07-18T09:14:06Z</time>
      </trkpt>
      <trkpt lat="48.75841" lon="2.23717">
        <ele>156.37</ele>
        <time>2021-07-18T09:14:25Z</time>
      </trkpt>
      <trkpt lat="48.75864" lon="2.23718">
        <ele>157.13</ele>
        <time>2021-07-18T09:14:43Z</time>
      </trkpt>
      <trkpt lat="48.75882" lon="2.23718">
        <ele>157.44</ele>
        <time>2021-07-18T09:15:00Z</time>
      </trkpt>
      <trkpt lat="48.75898" lon="2.23718">
        <ele>157.74</ele>
        <time>2021-07-18T09:15:13Z</time>
      </trkpt>
      <trkpt lat="48.75916" lon="2.23718">
        <ele>158.05</ele>
        <time>2021-07-18T09:15:31Z</time>
      </trkpt>
      <trkpt lat="48.75931" lon="2.23717">
        <ele>159.1</ele>
        <time>2021-07-18T09:15:47Z</time>
      </trkpt>
      <trkpt lat="48.75932" lon="2.23718">
        <ele>158.53</ele>
        <time>2021-07-18T09:15:49Z</time>
      </trkpt>
      <trkpt lat="48.75952" lon="2.2372">
        <ele>158.69</ele>
        <time>2021-07-18T09:16:04Z</time>
      </trkpt>
      <trkpt lat="48.75971" lon="2.23722">
        <ele>159.12</ele>
        <time>2021-07-18T09:16:20Z</time>
      </trkpt>
      <trkpt lat="48.75991" lon="2.23721">
        <ele>158.7</ele>
        <time>2021-07-18T09:16:35Z</time>
      </trkpt>
      <trkpt lat="48.76004" lon="2.23722">
        <ele>159.26</ele>
        <time>2021-07-18T09:16:51Z</time>
      </trkpt>
      <trkpt lat="48.76019" lon="2.23726">
        <ele>159.27</ele>
        <time>2021-07-18T09:17:06Z</time>
      </trkpt>
      <trkpt lat="48.76034" lon="2.23726">
        <ele>158.21</ele>
        <time>2021-07-18T09:17:20Z</time>
      </trkpt>
      <trkpt lat="48.76051" lon="2.23725">
        <ele>159.35</ele>
        <time>2021-07-18T09:17:37Z</time>
      </trkpt>
      <trkpt lat="48.76065" lon="2.2373">
        <ele>159.61</ele>
        <time>2021-07-18T09:17:52Z</time>
      </trkpt>
      <trkpt lat="48.76071" lon="2.23743">
        <ele>159.47</ele>
        <time>2021-07-18T09:18:07Z</time>
      </trkpt>
      <trkpt lat="48.7607" lon="2.23771">
        <ele>159.87</ele>
        <time>2021-07-18T09:18:26Z</time>
      </trkpt>
      <trkpt lat="48.76069" lon="2.23793">
        <ele>159.51</ele>
        <time>2021-07-18T09:18:41Z</time>
      </trkpt>
      <trkpt lat="48.76066" lon="2.23813">
        <ele>159.1</ele>
        <time>2021-07-18T09:18:54Z</time>
      </trkpt>
      <trkpt lat="48.76062" lon="2.23836">
        <ele>159.86</ele>
        <time>2021-07-18T09:19:07Z</time>
      </trkpt>
      <trkpt lat="48.76057" lon="2.23855">
        <ele>159.6</ele>
        <time>2021-07-18T09:19:22Z</time>
      </trkpt>
      <trkpt lat="48.76055" lon="2.23875">
        <ele>159.7</ele>
        <time>2021-07-18T09:19:36Z</time>
      </trkpt>
      <trkpt lat="48.76053" lon="2.23893">
        <ele>159.49</ele>
        <time>2021-07-18T09:19:48Z</time>
      </trkpt>
      <trkpt lat="48.76052" lon="2.23894">
        <ele>159.77</ele>
        <time>2021-07-18T09:19:49Z</time>
      </trkpt>
      <trkpt lat="48.76049" lon="2.23913">
        <ele>160.31</ele>
        <time>2021-07-18T09:20:02Z</time>
      </trkpt>
      <trkpt lat="48.76048" lon="2.23932">
        <ele>160.02</ele>
        <time>2021-07-18T09:20:17Z</time>
      </trkpt>
      <trkpt lat="48.7604" lon="2.23961">
        <ele>160.07</ele>
        <time>2021-07-18T09:20:32Z</time>
      </trkpt>
      <trkpt lat="48.76036" lon="2.23974">
        <ele>159.62</ele>
        <time>2021-07-18T09:20:40Z</time>
      </trkpt>
      <trkpt lat="48.7603" lon="2.23999">
        <ele>160.13</ele>
        <time>2021-07-18T09:20:55Z</time>
      </trkpt>
      <trkpt lat="48.76026" lon="2.24028">
        <ele>159.98</ele>
        <time>2021-07-18T09:21:14Z</time>
      </trkpt>
      <trkpt lat="48.76023" lon="2.2405">
        <ele>160.24</ele>
        <time>2021-07-18T09:21:29Z</time>
      </trkpt>
      <trkpt lat="48.76019" lon="2.24068">
        <ele>159.3</ele>
        <time>2021-07-18T09:21:38Z</time>
      </trkpt>
      <trkpt lat="48.76015" lon="2.24087">
        <ele>160.29</ele>
        <time>2021-07-18T09:21:47Z</time>
      </trkpt>
      <trkpt lat="48.76019" lon="2.24108">
        <ele>159.47</ele>
        <time>2021-07-18T09:22:01Z</time>
      </trkpt>
      <trkpt lat="48.76023" lon="2.24119">
        <ele>159.73</ele>
        <time>2021-07-18T09:22:15Z</time>
      </trkpt>
      <trkpt lat="48.76036" lon="2.24132">
        <ele>159.22</ele>
        <time>2021-07-18T09:22:34Z</time>
      </trkpt>
      <trkpt lat="48.76037" lon="2.24133">
        <ele>159.03</ele>
        <time>2021-07-18T09:22:35Z</time>
      </trkpt>
      <trkpt lat="48.76041" lon="2.24134">
        <ele>159.31</ele>
        <time>2021-07-18T09:22:37Z</time>
      </trkpt>
      <trkpt lat="48.76056" lon="2.24149">
        <ele>159.1</ele>
        <time>2021-07-18T09:22:53Z</time>
      </trkpt>
      <trkpt lat="48.76066" lon="2.24159">
        <ele>159.05</ele>
        <time>2021-07-18T09:23:06Z</time>
      </trkpt>
      <trkpt lat="48.76071" lon="2.24162">
        <ele>158.99</ele>
        <time>2021-07-18T09:23:10Z</time>
      </trkpt>
      <trkpt lat="48.76087" lon="2.24178">
        <ele>158.51</ele>
        <time>2021-07-18T09:23:28Z</time>
      </trkpt>
      <trkpt lat="48.761" lon="2.24195">
        <ele>158.22</ele>
        <time>2021-07-18T09:23:43Z</time>
      </trkpt>
      <trkpt lat="48.7612" lon="2.24212">
        <ele>157.63</ele>
        <time>2021-07-18T09:24:02Z</time>
      </trkpt>
      <trkpt lat="48.76135" lon="2.24226">
        <ele>157.64</ele>
        <time>2021-07-18T09:24:17Z</time>
      </trkpt>
      <trkpt lat="48.76148" lon="2.24239">
        <ele>157.3</ele>
        <time>2021-07-18T09:24:30Z</time>
      </trkpt>
      <trkpt lat="48.76158" lon="2.24253">
        <ele>157.25</ele>
        <time>2021-07-18T09:24:41Z</time>
      </trkpt>
      <trkpt lat="48.76167" lon="2.24275">
        <ele>156.64</ele>
        <time>2021-07-18T09:24:57Z</time>
      </trkpt>
      <trkpt lat="48.76181" lon="2.24296">
        <ele>156.14</ele>
        <time>2021-07-18T09:25:14Z</time>
      </trkpt>
      <trkpt lat="48.76194" lon="2.2432">
        <ele>155.59</ele>
        <time>2021-07-18T09:25:31Z</time>
      </trkpt>
      <trkpt lat="48.76203" lon="2.24343">
        <ele>155.8</ele>
        <time>2021-07-18T09:25:47Z</time>
      </trkpt>
      <trkpt lat="48.76206" lon="2.24352">
        <ele>155.71</ele>
        <time>2021-07-18T09:25:51Z</time>
      </trkpt>
      <trkpt lat="48.76215" lon="2.24377">
        <ele>154.64</ele>
        <time>2021-07-18T09:26:08Z</time>
      </trkpt>
      <trkpt lat="48.76222" lon="2.244">
        <ele>153.7</ele>
        <time>2021-07-18T09:26:23Z</time>
      </trkpt>
      <trkpt lat="48.7623" lon="2.24422">
        <ele>153.23</ele>
        <time>2021-07-18T09:26:37Z</time>
      </trkpt>
      <trkpt lat="48.76232" lon="2.24428">
        <ele>153.41</ele>
        <time>2021-07-18T09:26:40Z</time>
      </trkpt>
      <trkpt lat="48.76238" lon="2.24448">
        <ele>153.7</ele>
        <time>2021-07-18T09:26:52Z</time>
      </trkpt>
      <trkpt lat="48.76245" lon="2.24461">
        <ele>152.99</ele>
        <time>2021-07-18T09:27:02Z</time>
      </trkpt>
      <trkpt lat="48.7625" lon="2.24477">
        <ele>152.6</ele>
        <time>2021-07-18T09:27:12Z</time>
      </trkpt>
      <trkpt lat="48.76257" lon="2.24499">
        <ele>153.15</ele>
        <time>2021-07-18T09:27:25Z</time>
      </trkpt>
      <trkpt lat="48.76263" lon="2.24517">
        <ele>153.5</ele>
        <time>2021-07-18T09:27:36Z</time>
      </trkpt>
      <trkpt lat="48.76268" lon="2.24517">
        <ele>152.83</ele>
        <time>2021-07-18T09:27:49Z</time>
      </trkpt>
      <trkpt lat="48.76272" lon="2.24503">
        <ele>153.21</ele>
        <time>2021-07-18T09:28:01Z</time>
      </trkpt>
      <trkpt lat="48.76277" lon="2.24486">
        <ele>153.94</ele>
        <time>2021-07-18T09:28:16Z</time>
      </trkpt>
      <trkpt lat="48.76276" lon="2.24468">
        <ele>153.69</ele>
        <time>2021-07-18T09:28:32Z</time>
      </trkpt>
      <trkpt lat="48.76286" lon="2.24449">
        <ele>153.77</ele>
        <time>2021-07-18T09:28:45Z</time>
      </trkpt>
      <trkpt lat="48.7629" lon="2.24425">
        <ele>154.32</ele>
        <time>2021-07-18T09:28:53Z</time>
      </trkpt>
      <trkpt lat="48.76293" lon="2.24408">
        <ele>154.01</ele>
        <time>2021-07-18T09:29:02Z</time>
      </trkpt>
      <trkpt lat="48.76295" lon="2.24385">
        <ele>154.55</ele>
        <time>2021-07-18T09:29:18Z</time>
      </trkpt>
      <trkpt lat="48.763" lon="2.24361">
        <ele>155.06</ele>
        <time>2021-07-18T09:29:33Z</time>
      </trkpt>
      <trkpt lat="48.76304" lon="2.24347">
        <ele>155.47</ele>
        <time>2021-07-18T09:29:45Z</time>
      </trkpt>
      <trkpt lat="48.76309" lon="2.24325">
        <ele>155.93</ele>
        <time>2021-07-18T09:29:59Z</time>
      </trkpt>
      <trkpt lat="48.76316" lon="2.24311">
        <ele>156.28</ele>
        <time>2021-07-18T09:30:08Z</time>
      </trkpt>
      <trkpt lat="48.76324" lon="2.24289">
        <ele>156.58</ele>
        <time>2021-07-18T09:30:23Z</time>
      </trkpt>
      <trkpt lat="48.76327" lon="2.24272">
        <ele>156.81</ele>
        <time>2021-07-18T09:30:36Z</time>
      </trkpt>
      <trkpt lat="48.7633" lon="2.24262">
        <ele>156.75</ele>
        <time>2021-07-18T09:30:43Z</time>
      </trkpt>
      <trkpt lat="48.76334" lon="2.2424">
        <ele>157.15</ele>
        <time>2021-07-18T09:30:53Z</time>
      </trkpt>
      <trkpt lat="48.7634" lon="2.24214">
        <ele>156.56</ele>
        <time>2021-07-18T09:31:07Z</time>
      </trkpt>
      <trkpt lat="48.76342" lon="2.2419">
        <ele>156.86</ele>
        <time>2021-07-18T09:31:23Z</time>
      </trkpt>
      <trkpt lat="48.76352" lon="2.24163">
        <ele>156.26</ele>
        <time>2021-07-18T09:31:39Z</time>
      </trkpt>
      <trkpt lat="48.76359" lon="2.24134">
        <ele>157.08</ele>
        <time>2021-07-18T09:31:57Z</time>
      </trkpt>
      <trkpt lat="48.76364" lon="2.24108">
        <ele>157.82</ele>
        <time>2021-07-18T09:32:15Z</time>
      </trkpt>
      <trkpt lat="48.76373" lon="2.24088">
        <ele>157.49</ele>
        <time>2021-07-18T09:32:31Z</time>
      </trkpt>
      <trkpt lat="48.76383" lon="2.24073">
        <ele>157.25</ele>
        <time>2021-07-18T09:32:44Z</time>
      </trkpt>
      <trkpt lat="48.76396" lon="2.24059">
        <ele>157.43</ele>
        <time>2021-07-18T09:33:00Z</time>
      </trkpt>
      <trkpt lat="48.76413" lon="2.24045">
        <ele>156.9</ele>
        <time>2021-07-18T09:33:16Z</time>
      </trkpt>
      <trkpt lat="48.76428" lon="2.24031">
        <ele>156.55</ele>
        <time>2021-07-18T09:33:32Z</time>
      </trkpt>
      <trkpt lat="48.76444" lon="2.24022">
        <ele>156.65</ele>
        <time>2021-07-18T09:33:45Z</time>
      </trkpt>
      <trkpt lat="48.76458" lon="2.24013">
        <ele>156.48</ele>
        <time>2021-07-18T09:33:59Z</time>
      </trkpt>
      <trkpt lat="48.76475" lon="2.23997">
        <ele>156.03</ele>
        <time>2021-07-18T09:34:16Z</time>
      </trkpt>
      <trkpt lat="48.76489" lon="2.23983">
        <ele>155.61</ele>
        <time>2021-07-18T09:34:32Z</time>
      </trkpt>
      <trkpt lat="48.76509" lon="2.23969">
        <ele>155.33</ele>
        <time>2021-07-18T09:34:49Z</time>
      </trkpt>
      <trkpt lat="48.7651" lon="2.23969">
        <ele>155.28</ele>
        <time>2021-07-18T09:34:50Z</time>
      </trkpt>
      <trkpt lat="48.76522" lon="2.2396">
        <ele>155.02</ele>
        <time>2021-07-18T09:35:02Z</time>
      </trkpt>
      <trkpt lat="48.76538" lon="2.23948">
        <ele>155.13</ele>
        <time>2021-07-18T09:35:17Z</time>
      </trkpt>
      <trkpt lat="48.76548" lon="2.23941">
        <ele>154.73</ele>
        <time>2021-07-18T09:35:27Z</time>
      </trkpt>
      <trkpt lat="48.76567" lon="2.23929">
        <ele>154.14</ele>
        <time>2021-07-18T09:35:43Z</time>
      </trkpt>
      <trkpt lat="48.76578" lon="2.23918">
        <ele>153.82</ele>
        <time>2021-07-18T09:35:58Z</time>
      </trkpt>
      <trkpt lat="48.76593" lon="2.23907">
        <ele>154.2</ele>
        <time>2021-07-18T09:36:10Z</time>
      </trkpt>
      <trkpt lat="48.76599" lon="2.23902">
        <ele>154.12</ele>
        <time>2021-07-18T09:36:15Z</time>
      </trkpt>
      <trkpt lat="48.76603" lon="2.23898">
        <ele>154.18</ele>
        <time>2021-07-18T09:36:21Z</time>
      </trkpt>
      <trkpt lat="48.76607" lon="2.23896">
        <ele>153.57</ele>
        <time>2021-07-18T09:36:25Z</time>
      </trkpt>
      <trkpt lat="48.76625" lon="2.23883">
        <ele>152.7</ele>
        <time>2021-07-18T09:36:42Z</time>
      </trkpt>
      <trkpt lat="48.76628" lon="2.2388">
        <ele>152.8</ele>
        <time>2021-07-18T09:36:45Z</time>
      </trkpt>
      <trkpt lat="48.76632" lon="2.23877">
        <ele>152.96</ele>
        <time>2021-07-18T09:36:48Z</time>
      </trkpt>
      <trkpt lat="48.76635" lon="2.23873">
        <ele>152.79</ele>
        <time>2021-07-18T09:36:50Z</time>
      </trkpt>
      <trkpt lat="48.76642" lon="2.23868">
        <ele>153.2</ele>
        <time>2021-07-18T09:36:54Z</time>
      </trkpt>
      <trkpt lat="48.76646" lon="2.23863">
        <ele>153.21</ele>
        <time>2021-07-18T09:37:04Z</time>
      </trkpt>
      <trkpt lat="48.76646" lon="2.23861">
        <ele>153.32</ele>
        <time>2021-07-18T09:37:11Z</time>
      </trkpt>
      <trkpt lat="48.76639" lon="2.23849">
        <ele>153.74</ele>
        <time>2021-07-18T09:37:26Z</time>
      </trkpt>
      <trkpt lat="48.76632" lon="2.23838">
        <ele>153.47</ele>
        <time>2021-07-18T09:37:43Z</time>
      </trkpt>
      <trkpt lat="48.76631" lon="2.23833">
        <ele>152.85</ele>
        <time>2021-07-18T09:37:56Z</time>
      </trkpt>
      <trkpt lat="48.7663" lon="2.23826">
        <ele>153.5</ele>
        <time>2021-07-18T09:38:12Z</time>
      </trkpt>
      <trkpt lat="48.76629" lon="2.23822">
        <ele>152.98</ele>
        <time>2021-07-18T09:38:29Z</time>
      </trkpt>
      <trkpt lat="48.7663" lon="2.23816">
        <ele>152.61</ele>
        <time>2021-07-18T09:38:47Z</time>
      </trkpt>
      <trkpt lat="48.7663" lon="2.23805">
        <ele>152.39</ele>
        <time>2021-07-18T09:38:59Z</time>
      </trkpt>
      <trkpt lat="48.76629" lon="2.23794">
        <ele>151.69</ele>
        <time>2021-07-18T09:39:09Z</time>
      </trkpt>
      <trkpt lat="48.76633" lon="2.23774">
        <ele>149.77</ele>
        <time>2021-07-18T09:39:25Z</time>
      </trkpt>
      <trkpt lat="48.76638" lon="2.23761">
        <ele>149.28</ele>
        <time>2021-07-18T09:39:35Z</time>
      </trkpt>
      <trkpt lat="48.7664" lon="2.23749">
        <ele>149</ele>
        <time>2021-07-18T09:39:43Z</time>
      </trkpt>
      <trkpt lat="48.76647" lon="2.2373">
        <ele>148.06</ele>
        <time>2021-07-18T09:39:57Z</time>
      </trkpt>
      <trkpt lat="48.7665" lon="2.23721">
        <ele>147.35</ele>
        <time>2021-07-18T09:40:03Z</time>
      </trkpt>
      <trkpt lat="48.76655" lon="2.23709">
        <ele>147.12</ele>
        <time>2021-07-18T09:40:16Z</time>
      </trkpt>
      <trkpt lat="48.76661" lon="2.237">
        <ele>146.41</ele>
        <time>2021-07-18T09:40:26Z</time>
      </trkpt>
      <trkpt lat="48.76672" lon="2.23683">
        <ele>144.95</ele>
        <time>2021-07-18T09:40:44Z</time>
      </trkpt>
      <trkpt lat="48.76674" lon="2.23683">
        <ele>145.22</ele>
        <time>2021-07-18T09:40:47Z</time>
      </trkpt>
      <trkpt lat="48.76692" lon="2.23674">
        <ele>144.25</ele>
        <time>2021-07-18T09:40:59Z</time>
      </trkpt>
      <trkpt lat="48.76694" lon="2.23673">
        <ele>144.34</ele>
        <time>2021-07-18T09:41:01Z</time>
      </trkpt>
      <trkpt lat="48.76703" lon="2.23664">
        <ele>143.89</ele>
        <time>2021-07-18T09:41:11Z</time>
      </trkpt>
      <trkpt lat="48.76709" lon="2.23649">
        <ele>143.02</ele>
        <time>2021-07-18T09:41:21Z</time>
      </trkpt>
      <trkpt lat="48.76718" lon="2.2363">
        <ele>141.47</ele>
        <time>2021-07-18T09:41:33Z</time>
      </trkpt>
      <trkpt lat="48.7673" lon="2.23609">
        <ele>139.9</ele>
        <time>2021-07-18T09:41:48Z</time>
      </trkpt>
      <trkpt lat="48.76733" lon="2.23593">
        <ele>139.12</ele>
        <time>2021-07-18T09:41:58Z</time>
      </trkpt>
      <trkpt lat="48.76736" lon="2.23583">
        <ele>138.69</ele>
        <time>2021-07-18T09:42:04Z</time>
      </trkpt>
      <trkpt lat="48.76739" lon="2.23574">
        <ele>138.45</ele>
        <time>2021-07-18T09:42:08Z</time>
      </trkpt>
      <trkpt lat="48.76748" lon="2.23558">
        <ele>136.73</ele>
        <time>2021-07-18T09:42:21Z</time>
      </trkpt>
      <trkpt lat="48.76753" lon="2.23541">
        <ele>135.09</ele>
        <time>2021-07-18T09:42:31Z</time>
      </trkpt>
      <trkpt lat="48.76756" lon="2.23523">
        <ele>135.27</ele>
        <time>2021-07-18T09:42:43Z</time>
      </trkpt>
      <trkpt lat="48.76756" lon="2.2351">
        <ele>133.97</ele>
        <time>2021-07-18T09:42:50Z</time>
      </trkpt>
      <trkpt lat="48.76754" lon="2.23498">
        <ele>132.69</ele>
        <time>2021-07-18T09:43:00Z</time>
      </trkpt>
      <trkpt lat="48.76745" lon="2.23495">
        <ele>131.27</ele>
        <time>2021-07-18T09:43:11Z</time>
      </trkpt>
      <trkpt lat="48.76733" lon="2.23496">
        <ele>130.15</ele>
        <time>2021-07-18T09:43:22Z</time>
      </trkpt>
      <trkpt lat="48.76732" lon="2.23497">
        <ele>130.04</ele>
        <time>2021-07-18T09:43:23Z</time>
      </trkpt>
      <trkpt lat="48.76715" lon="2.23504">
        <ele>127.91</ele>
        <time>2021-07-18T09:43:40Z</time>
      </trkpt>
      <trkpt lat="48.76699" lon="2.23507">
        <ele>126.55</ele>
        <time>2021-07-18T09:43:53Z</time>
      </trkpt>
      <trkpt lat="48.76687" lon="2.23496">
        <ele>125.71</ele>
        <time>2021-07-18T09:44:06Z</time>
      </trkpt>
      <trkpt lat="48.76686" lon="2.23493">
        <ele>125.48</ele>
        <time>2021-07-18T09:44:08Z</time>
      </trkpt>
      <trkpt lat="48.76686" lon="2.2349">
        <ele>125.37</ele>
        <time>2021-07-18T09:44:10Z</time>
      </trkpt>
      <trkpt lat="48.76687" lon="2.23482">
        <ele>124.99</ele>
        <time>2021-07-18T09:44:15Z</time>
      </trkpt>
      <trkpt lat="48.7669" lon="2.23468">
        <ele>123.66</ele>
        <time>2021-07-18T09:44:24Z</time>
      </trkpt>
      <trkpt lat="48.76693" lon="2.23458">
        <ele>122.51</ele>
        <time>2021-07-18T09:44:31Z</time>
      </trkpt>
      <trkpt lat="48.76696" lon="2.23441">
        <ele>121.71</ele>
        <time>2021-07-18T09:44:43Z</time>
      </trkpt>
      <trkpt lat="48.76698" lon="2.23421">
        <ele>119.98</ele>
        <time>2021-07-18T09:44:57Z</time>
      </trkpt>
      <trkpt lat="48.76697" lon="2.23407">
        <ele>118.87</ele>
        <time>2021-07-18T09:45:08Z</time>
      </trkpt>
      <trkpt lat="48.76688" lon="2.23388">
        <ele>116.68</ele>
        <time>2021-07-18T09:45:23Z</time>
      </trkpt>
      <trkpt lat="48.76677" lon="2.23379">
        <ele>115.24</ele>
        <time>2021-07-18T09:45:38Z</time>
      </trkpt>
      <trkpt lat="48.76667" lon="2.23372">
        <ele>114.1</ele>
        <time>2021-07-18T09:45:48Z</time>
      </trkpt>
      <trkpt lat="48.76649" lon="2.23357">
        <ele>112.29</ele>
        <time>2021-07-18T09:46:03Z</time>
      </trkpt>
      <trkpt lat="48.76642" lon="2.23352">
        <ele>111.17</ele>
        <time>2021-07-18T09:46:12Z</time>
      </trkpt>
      <trkpt lat="48.76631" lon="2.23343">
        <ele>110.08</ele>
        <time>2021-07-18T09:46:23Z</time>
      </trkpt>
      <trkpt lat="48.76625" lon="2.23339">
        <ele>109.4</ele>
        <time>2021-07-18T09:46:29Z</time>
      </trkpt>
      <trkpt lat="48.76608" lon="2.23325">
        <ele>107.81</ele>
        <time>2021-07-18T09:46:42Z</time>
      </trkpt>
      <trkpt lat="48.76596" lon="2.23315">
        <ele>106.13</ele>
        <time>2021-07-18T09:46:52Z</time>
      </trkpt>
      <trkpt lat="48.76591" lon="2.23307">
        <ele>105.52</ele>
        <time>2021-07-18T09:47:01Z</time>
      </trkpt>
      <trkpt lat="48.76596" lon="2.23296">
        <ele>105.19</ele>
        <time>2021-07-18T09:47:13Z</time>
      </trkpt>
      <trkpt lat="48.76599" lon="2.23283">
        <ele>104.16</ele>
        <time>2021-07-18T09:47:24Z</time>
      </trkpt>
      <trkpt lat="48.76602" lon="2.23258">
        <ele>103.57</ele>
        <time>2021-07-18T09:47:39Z</time>
      </trkpt>
      <trkpt lat="48.76606" lon="2.23239">
        <ele>103.83</ele>
        <time>2021-07-18T09:47:53Z</time>
      </trkpt>
      <trkpt lat="48.76614" lon="2.23218">
        <ele>104.02</ele>
        <time>2021-07-18T09:48:11Z</time>
      </trkpt>
      <trkpt lat="48.76616" lon="2.23212">
        <ele>104.23</ele>
        <time>2021-07-18T09:48:15Z</time>
      </trkpt>
      <trkpt lat="48.76621" lon="2.23187">
        <ele>104.82</ele>
        <time>2021-07-18T09:48:31Z</time>
      </trkpt>
      <trkpt lat="48.76625" lon="2.2317">
        <ele>105.35</ele>
        <time>2021-07-18T09:48:45Z</time>
      </trkpt>
      <trkpt lat="48.7663" lon="2.23149">
        <ele>105.44</ele>
        <time>2021-07-18T09:48:57Z</time>
      </trkpt>
      <trkpt lat="48.76632" lon="2.23144">
        <ele>106.25</ele>
        <time>2021-07-18T09:49:00Z</time>
      </trkpt>
      <trkpt lat="48.76632" lon="2.23139">
        <ele>105.5</ele>
        <time>2021-07-18T09:49:03Z</time>
      </trkpt>
      <trkpt lat="48.76638" lon="2.23122">
        <ele>105.08</ele>
        <time>2021-07-18T09:49:11Z</time>
      </trkpt>
      <trkpt lat="48.7664" lon="2.23113">
        <ele>106.52</ele>
        <time>2021-07-18T09:49:16Z</time>
      </trkpt>
      <trkpt lat="48.76644" lon="2.23101">
        <ele>106.42</ele>
        <time>2021-07-18T09:49:25Z</time>
      </trkpt>
      <trkpt lat="48.76647" lon="2.23082">
        <ele>106.47</ele>
        <time>2021-07-18T09:49:39Z</time>
      </trkpt>
      <trkpt lat="48.76648" lon="2.23081">
        <ele>106.52</ele>
        <time>2021-07-18T09:49:57Z</time>
      </trkpt>
      <trkpt lat="48.76646" lon="2.23079">
        <ele>106.82</ele>
        <time>2021-07-18T09:50:15Z</time>
      </trkpt>
      <trkpt lat="48.76646" lon="2.23074">
        <ele>107.18</ele>
        <time>2021-07-18T09:50:33Z</time>
      </trkpt>
      <trkpt lat="48.76648" lon="2.23072">
        <ele>106.9</ele>
        <time>2021-07-18T09:50:35Z</time>
      </trkpt>
      <trkpt lat="48.76649" lon="2.23067">
        <ele>107.03</ele>
        <time>2021-07-18T09:50:38Z</time>
      </trkpt>
      <trkpt lat="48.76651" lon="2.23058">
        <ele>107.15</ele>
        <time>2021-07-18T09:50:44Z</time>
      </trkpt>
      <trkpt lat="48.76653" lon="2.23044">
        <ele>106.99</ele>
        <time>2021-07-18T09:50:53Z</time>
      </trkpt>
      <trkpt lat="48.76653" lon="2.23031">
        <ele>106.89</ele>
        <time>2021-07-18T09:51:03Z</time>
      </trkpt>
      <trkpt lat="48.76651" lon="2.23017">
        <ele>107.12</ele>
        <time>2021-07-18T09:51:19Z</time>
      </trkpt>
      <trkpt lat="48.76659" lon="2.22975">
        <ele>106.33</ele>
        <time>2021-07-18T09:51:42Z</time>
      </trkpt>
      <trkpt lat="48.76653" lon="2.22956">
        <ele>107.15</ele>
        <time>2021-07-18T09:51:56Z</time>
      </trkpt>
      <trkpt lat="48.76647" lon="2.22951">
        <ele>107.72</ele>
        <time>2021-07-18T09:52:13Z</time>
      </trkpt>
      <trkpt lat="48.76642" lon="2.22949">
        <ele>107.78</ele>
        <time>2021-07-18T09:52:30Z</time>
      </trkpt>
      <trkpt lat="48.76641" lon="2.2295">
        <ele>108.06</ele>
        <time>2021-07-18T09:52:50Z</time>
      </trkpt>
      <trkpt lat="48.7664" lon="2.22949">
        <ele>108.15</ele>
        <time>2021-07-18T09:53:10Z</time>
      </trkpt>
      <trkpt lat="48.76641" lon="2.2295">
        <ele>107.84</ele>
        <time>2021-07-18T09:53:30Z</time>
      </trkpt>
      <trkpt lat="48.76641" lon="2.2295">
        <ele>108.65</ele>
        <time>2021-07-18T09:53:44Z</time>
      </trkpt>
      <trkpt lat="48.76639" lon="2.22944">
        <ele>109.01</ele>
        <time>2021-07-18T09:53:59Z</time>
      </trkpt>
      <trkpt lat="48.76634" lon="2.22939">
        <ele>109.3</ele>
        <time>2021-07-18T09:54:11Z</time>
      </trkpt>
      <trkpt lat="48.76634" lon="2.22939">
        <ele>109.73</ele>
        <time>2021-07-18T09:54:28Z</time>
      </trkpt>
      <trkpt lat="48.76634" lon="2.22942">
        <ele>110.41</ele>
        <time>2021-07-18T09:54:51Z</time>
      </trkpt>
      <trkpt lat="48.76633" lon="2.2294">
        <ele>110.23</ele>
        <time>2021-07-18T09:55:11Z</time>
      </trkpt>
      <trkpt lat="48.76622" lon="2.2293">
        <ele>110.68</ele>
        <time>2021-07-18T09:55:24Z</time>
      </trkpt>
      <trkpt lat="48.76617" lon="2.22922">
        <ele>110.75</ele>
        <time>2021-07-18T09:55:30Z</time>
      </trkpt>
      <trkpt lat="48.76609" lon="2.22915">
        <ele>110.42</ele>
        <time>2021-07-18T09:55:40Z</time>
      </trkpt>
      <trkpt lat="48.76595" lon="2.22905">
        <ele>110.18</ele>
        <time>2021-07-18T09:55:55Z</time>
      </trkpt>
      <trkpt lat="48.76586" lon="2.22895">
        <ele>110.09</ele>
        <time>2021-07-18T09:56:04Z</time>
      </trkpt>
      <trkpt lat="48.76583" lon="2.2289">
        <ele>109.44</ele>
        <time>2021-07-18T09:56:08Z</time>
      </trkpt>
      <trkpt lat="48.76571" lon="2.22873">
        <ele>109.15</ele>
        <time>2021-07-18T09:56:21Z</time>
      </trkpt>
      <trkpt lat="48.76562" lon="2.2286">
        <ele>109.31</ele>
        <time>2021-07-18T09:56:31Z</time>
      </trkpt>
      <trkpt lat="48.76561" lon="2.22859">
        <ele>109.43</ele>
        <time>2021-07-18T09:56:32Z</time>
      </trkpt>
      <trkpt lat="48.7655" lon="2.22849">
        <ele>109.11</ele>
        <time>2021-07-18T09:56:43Z</time>
      </trkpt>
      <trkpt lat="48.76541" lon="2.2284">
        <ele>108.88</ele>
        <time>2021-07-18T09:56:53Z</time>
      </trkpt>
      <trkpt lat="48.76539" lon="2.22838">
        <ele>108.68</ele>
        <time>2021-07-18T09:56:55Z</time>
      </trkpt>
      <trkpt lat="48.7653" lon="2.22832">
        <ele>108.61</ele>
        <time>2021-07-18T09:57:05Z</time>
      </trkpt>
      <trkpt lat="48.76518" lon="2.22823">
        <ele>108.02</ele>
        <time>2021-07-18T09:57:16Z</time>
      </trkpt>
      <trkpt lat="48.76508" lon="2.22812">
        <ele>107.37</ele>
        <time>2021-07-18T09:57:27Z</time>
      </trkpt>
      <trkpt lat="48.76498" lon="2.22804">
        <ele>106.73</ele>
        <time>2021-07-18T09:57:37Z</time>
      </trkpt>
      <trkpt lat="48.76495" lon="2.228">
        <ele>106.8</ele>
        <time>2021-07-18T09:57:40Z</time>
      </trkpt>
      <trkpt lat="48.76488" lon="2.22789">
        <ele>106.15</ele>
        <time>2021-07-18T09:57:49Z</time>
      </trkpt>
      <trkpt lat="48.76484" lon="2.22784">
        <ele>105.43</ele>
        <time>2021-07-18T09:57:53Z</time>
      </trkpt>
      <trkpt lat="48.76472" lon="2.22766">
        <ele>105.23</ele>
        <time>2021-07-18T09:58:06Z</time>
      </trkpt>
      <trkpt lat="48.76464" lon="2.22757">
        <ele>105.32</ele>
        <time>2021-07-18T09:58:15Z</time>
      </trkpt>
      <trkpt lat="48.76455" lon="2.22749">
        <ele>105</ele>
        <time>2021-07-18T09:58:23Z</time>
      </trkpt>
      <trkpt lat="48.76446" lon="2.22741">
        <ele>104.89</ele>
        <time>2021-07-18T09:58:32Z</time>
      </trkpt>
      <trkpt lat="48.76441" lon="2.22736">
        <ele>104.2</ele>
        <time>2021-07-18T09:58:39Z</time>
      </trkpt>
      <trkpt lat="48.76432" lon="2.22729">
        <ele>104.56</ele>
        <time>2021-07-18T09:58:47Z</time>
      </trkpt>
      <trkpt lat="48.76429" lon="2.22727">
        <ele>104.57</ele>
        <time>2021-07-18T09:58:49Z</time>
      </trkpt>
      <trkpt lat="48.76419" lon="2.2271">
        <ele>103.56</ele>
        <time>2021-07-18T09:59:00Z</time>
      </trkpt>
      <trkpt lat="48.76416" lon="2.22706">
        <ele>103.32</ele>
        <time>2021-07-18T09:59:03Z</time>
      </trkpt>
      <trkpt lat="48.76414" lon="2.22704">
        <ele>103.24</ele>
        <time>2021-07-18T09:59:05Z</time>
      </trkpt>
      <trkpt lat="48.76407" lon="2.22697">
        <ele>103.16</ele>
        <time>2021-07-18T09:59:14Z</time>
      </trkpt>
      <trkpt lat="48.76406" lon="2.22695">
        <ele>102.99</ele>
        <time>2021-07-18T09:59:16Z</time>
      </trkpt>
      <trkpt lat="48.76403" lon="2.2269">
        <ele>102.94</ele>
        <time>2021-07-18T09:59:19Z</time>
      </trkpt>
      <trkpt lat="48.764" lon="2.22686">
        <ele>102.9</ele>
        <time>2021-07-18T09:59:23Z</time>
      </trkpt>
      <trkpt lat="48.76392" lon="2.22677">
        <ele>101.92</ele>
        <time>2021-07-18T09:59:33Z</time>
      </trkpt>
      <trkpt lat="48.76381" lon="2.22662">
        <ele>101.71</ele>
        <time>2021-07-18T09:59:44Z</time>
      </trkpt>
      <trkpt lat="48.76371" lon="2.2265">
        <ele>101.25</ele>
        <time>2021-07-18T09:59:54Z</time>
      </trkpt>
      <trkpt lat="48.76362" lon="2.22639">
        <ele>100.99</ele>
        <time>2021-07-18T10:00:06Z</time>
      </trkpt>
      <trkpt lat="48.76351" lon="2.22629">
        <ele>100.68</ele>
        <time>2021-07-18T10:00:19Z</time>
      </trkpt>
      <trkpt lat="48.76342" lon="2.22615">
        <ele>100.71</ele>
        <time>2021-07-18T10:00:34Z</time>
      </trkpt>
      <trkpt lat="48.76341" lon="2.22613">
        <ele>100.84</ele>
        <time>2021-07-18T10:00:35Z</time>
      </trkpt>
      <trkpt lat="48.76331" lon="2.22597">
        <ele>100.84</ele>
        <time>2021-07-18T10:00:48Z</time>
      </trkpt>
      <trkpt lat="48.76324" lon="2.22587">
        <ele>99.73</ele>
        <time>2021-07-18T10:01:00Z</time>
      </trkpt>
      <trkpt lat="48.76318" lon="2.22579">
        <ele>99.86</ele>
        <time>2021-07-18T10:01:10Z</time>
      </trkpt>
      <trkpt lat="48.7631" lon="2.22566">
        <ele>99.03</ele>
        <time>2021-07-18T10:01:22Z</time>
      </trkpt>
      <trkpt lat="48.76309" lon="2.22563">
        <ele>98.74</ele>
        <time>2021-07-18T10:01:24Z</time>
      </trkpt>
      <trkpt lat="48.76299" lon="2.22542">
        <ele>97.87</ele>
        <time>2021-07-18T10:01:40Z</time>
      </trkpt>
      <trkpt lat="48.76287" lon="2.22519">
        <ele>96.84</ele>
        <time>2021-07-18T10:01:57Z</time>
      </trkpt>
      <trkpt lat="48.76284" lon="2.22515">
        <ele>96.29</ele>
        <time>2021-07-18T10:02:01Z</time>
      </trkpt>
      <trkpt lat="48.7628" lon="2.22509">
        <ele>96.32</ele>
        <time>2021-07-18T10:02:06Z</time>
      </trkpt>
      <trkpt lat="48.76272" lon="2.22501">
        <ele>95.45</ele>
        <time>2021-07-18T10:02:13Z</time>
      </trkpt>
      <trkpt lat="48.76269" lon="2.22498">
        <ele>95.74</ele>
        <time>2021-07-18T10:02:15Z</time>
      </trkpt>
      <trkpt lat="48.76257" lon="2.22487">
        <ele>95.23</ele>
        <time>2021-07-18T10:02:26Z</time>
      </trkpt>
      <trkpt lat="48.76248" lon="2.22477">
        <ele>94.63</ele>
        <time>2021-07-18T10:02:36Z</time>
      </trkpt>
      <trkpt lat="48.76236" lon="2.22465">
        <ele>94.12</ele>
        <time>2021-07-18T10:02:49Z</time>
      </trkpt>
      <trkpt lat="48.76225" lon="2.22455">
        <ele>93.77</ele>
        <time>2021-07-18T10:02:58Z</time>
      </trkpt>
      <trkpt lat="48.76223" lon="2.2245">
        <ele>94.14</ele>
        <time>2021-07-18T10:03:02Z</time>
      </trkpt>
      <trkpt lat="48.76213" lon="2.22439">
        <ele>94.17</ele>
        <time>2021-07-18T10:03:13Z</time>
      </trkpt>
      <trkpt lat="48.76208" lon="2.22434">
        <ele>94.33</ele>
        <time>2021-07-18T10:03:19Z</time>
      </trkpt>
      <trkpt lat="48.762" lon="2.22422">
        <ele>94.01</ele>
        <time>2021-07-18T10:03:29Z</time>
      </trkpt>
      <trkpt lat="48.76199" lon="2.22421">
        <ele>94.31</ele>
        <time>2021-07-18T10:03:30Z</time>
      </trkpt>
      <trkpt lat="48.76191" lon="2.22407">
        <ele>93.6</ele>
        <time>2021-07-18T10:03:41Z</time>
      </trkpt>
      <trkpt lat="48.76187" lon="2.22402">
        <ele>93.47</ele>
        <time>2021-07-18T10:03:45Z</time>
      </trkpt>
      <trkpt lat="48.76182" lon="2.22389">
        <ele>92.69</ele>
        <time>2021-07-18T10:03:56Z</time>
      </trkpt>
      <trkpt lat="48.76174" lon="2.22369">
        <ele>93.87</ele>
        <time>2021-07-18T10:04:11Z</time>
      </trkpt>
      <trkpt lat="48.7617" lon="2.22353">
        <ele>93.14</ele>
        <time>2021-07-18T10:04:25Z</time>
      </trkpt>
      <trkpt lat="48.76162" lon="2.22336">
        <ele>93.62</ele>
        <time>2021-07-18T10:04:40Z</time>
      </trkpt>
      <trkpt lat="48.76159" lon="2.22327">
        <ele>93.61</ele>
        <time>2021-07-18T10:04:57Z</time>
      </trkpt>
      <trkpt lat="48.76172" lon="2.22326">
        <ele>93.81</ele>
        <time>2021-07-18T10:05:11Z</time>
      </trkpt>
      <trkpt lat="48.76175" lon="2.22316">
        <ele>94.71</ele>
        <time>2021-07-18T10:05:24Z</time>
      </trkpt>
      <trkpt lat="48.76179" lon="2.22296">
        <ele>96.14</ele>
        <time>2021-07-18T10:05:40Z</time>
      </trkpt>
      <trkpt lat="48.76181" lon="2.22286">
        <ele>97.02</ele>
        <time>2021-07-18T10:05:50Z</time>
      </trkpt>
      <trkpt lat="48.76184" lon="2.22281">
        <ele>97.41</ele>
        <time>2021-07-18T10:06:06Z</time>
      </trkpt>
      <trkpt lat="48.76184" lon="2.22281">
        <ele>97.42</ele>
        <time>2021-07-18T10:06:07Z</time>
      </trkpt>
      <trkpt lat="48.76191" lon="2.22285">
        <ele>96.61</ele>
        <time>2021-07-18T10:06:19Z</time>
      </trkpt>
      <trkpt lat="48.76194" lon="2.22277">
        <ele>97.36</ele>
        <time>2021-07-18T10:06:28Z</time>
      </trkpt>
      <trkpt lat="48.76201" lon="2.22263">
        <ele>99.23</ele>
        <time>2021-07-18T10:06:43Z</time>
      </trkpt>
      <trkpt lat="48.76206" lon="2.2224">
        <ele>101.49</ele>
        <time>2021-07-18T10:06:58Z</time>
      </trkpt>
      <trkpt lat="48.7621" lon="2.22228">
        <ele>102.43</ele>
        <time>2021-07-18T10:07:10Z</time>
      </trkpt>
      <trkpt lat="48.76215" lon="2.22206">
        <ele>103.67</ele>
        <time>2021-07-18T10:07:25Z</time>
      </trkpt>
      <trkpt lat="48.7622" lon="2.22189">
        <ele>105.64</ele>
        <time>2021-07-18T10:07:40Z</time>
      </trkpt>
      <trkpt lat="48.76228" lon="2.22173">
        <ele>106.83</ele>
        <time>2021-07-18T10:07:55Z</time>
      </trkpt>
      <trkpt lat="48.76241" lon="2.22156">
        <ele>108.02</ele>
        <time>2021-07-18T10:08:09Z</time>
      </trkpt>
      <trkpt lat="48.7625" lon="2.2214">
        <ele>110.39</ele>
        <time>2021-07-18T10:08:26Z</time>
      </trkpt>
      <trkpt lat="48.76254" lon="2.22127">
        <ele>112</ele>
        <time>2021-07-18T10:08:41Z</time>
      </trkpt>
      <trkpt lat="48.76256" lon="2.22109">
        <ele>113.38</ele>
        <time>2021-07-18T10:08:55Z</time>
      </trkpt>
      <trkpt lat="48.76263" lon="2.22093">
        <ele>114.75</ele>
        <time>2021-07-18T10:09:08Z</time>
      </trkpt>
      <trkpt lat="48.76272" lon="2.22078">
        <ele>116.56</ele>
        <time>2021-07-18T10:09:23Z</time>
      </trkpt>
      <trkpt lat="48.76274" lon="2.2206">
        <ele>117.97</ele>
        <time>2021-07-18T10:09:38Z</time>
      </trkpt>
      <trkpt lat="48.7628" lon="2.22039">
        <ele>119.64</ele>
        <time>2021-07-18T10:09:54Z</time>
      </trkpt>
      <trkpt lat="48.76286" lon="2.22024">
        <ele>121.19</ele>
        <time>2021-07-18T10:10:08Z</time>
      </trkpt>
      <trkpt lat="48.76291" lon="2.2201">
        <ele>122.32</ele>
        <time>2021-07-18T10:10:21Z</time>
      </trkpt>
      <trkpt lat="48.76298" lon="2.21995">
        <ele>123.45</ele>
        <time>2021-07-18T10:10:36Z</time>
      </trkpt>
      <trkpt lat="48.76299" lon="2.21994">
        <ele>123.5</ele>
        <time>2021-07-18T10:10:38Z</time>
      </trkpt>
      <trkpt lat="48.76301" lon="2.21977">
        <ele>125.5</ele>
        <time>2021-07-18T10:10:54Z</time>
      </trkpt>
      <trkpt lat="48.76306" lon="2.21964">
        <ele>127.24</ele>
        <time>2021-07-18T10:11:13Z</time>
      </trkpt>
      <trkpt lat="48.76312" lon="2.21942">
        <ele>129.79</ele>
        <time>2021-07-18T10:11:30Z</time>
      </trkpt>
      <trkpt lat="48.76312" lon="2.21942">
        <ele>130.33</ele>
        <time>2021-07-18T10:11:31Z</time>
      </trkpt>
      <trkpt lat="48.7632" lon="2.21922">
        <ele>132.66</ele>
        <time>2021-07-18T10:11:48Z</time>
      </trkpt>
      <trkpt lat="48.76325" lon="2.21907">
        <ele>134.11</ele>
        <time>2021-07-18T10:12:04Z</time>
      </trkpt>
      <trkpt lat="48.76327" lon="2.2189">
        <ele>135.72</ele>
        <time>2021-07-18T10:12:20Z</time>
      </trkpt>
      <trkpt lat="48.76331" lon="2.21869">
        <ele>137.38</ele>
        <time>2021-07-18T10:12:33Z</time>
      </trkpt>
      <trkpt lat="48.76339" lon="2.21852">
        <ele>139.84</ele>
        <time>2021-07-18T10:12:47Z</time>
      </trkpt>
      <trkpt lat="48.76342" lon="2.21853">
        <ele>139.47</ele>
        <time>2021-07-18T10:13:05Z</time>
      </trkpt>
      <trkpt lat="48.76346" lon="2.21847">
        <ele>141</ele>
        <time>2021-07-18T10:13:21Z</time>
      </trkpt>
      <trkpt lat="48.76351" lon="2.21835">
        <ele>142.26</ele>
        <time>2021-07-18T10:13:33Z</time>
      </trkpt>
      <trkpt lat="48.76354" lon="2.21816">
        <ele>144.24</ele>
        <time>2021-07-18T10:13:48Z</time>
      </trkpt>
      <trkpt lat="48.76351" lon="2.21795">
        <ele>147.24</ele>
        <time>2021-07-18T10:14:04Z</time>
      </trkpt>
      <trkpt lat="48.76342" lon="2.21787">
        <ele>146.63</ele>
        <time>2021-07-18T10:14:20Z</time>
      </trkpt>
      <trkpt lat="48.76337" lon="2.21776">
        <ele>148.18</ele>
        <time>2021-07-18T10:14:33Z</time>
      </trkpt>
      <trkpt lat="48.76335" lon="2.21774">
        <ele>148.23</ele>
        <time>2021-07-18T10:14:35Z</time>
      </trkpt>
      <trkpt lat="48.76325" lon="2.21764">
        <ele>148.64</ele>
        <time>2021-07-18T10:14:51Z</time>
      </trkpt>
      <trkpt lat="48.76313" lon="2.21756">
        <ele>148.95</ele>
        <time>2021-07-18T10:15:06Z</time>
      </trkpt>
      <trkpt lat="48.763" lon="2.21744">
        <ele>149.21</ele>
        <time>2021-07-18T10:15:21Z</time>
      </trkpt>
      <trkpt lat="48.76293" lon="2.21743">
        <ele>149.43</ele>
        <time>2021-07-18T10:15:40Z</time>
      </trkpt>
      <trkpt lat="48.76293" lon="2.21743">
        <ele>148.95</ele>
        <time>2021-07-18T10:16:53Z</time>
      </trkpt>
      <trkpt lat="48.76281" lon="2.21748">
        <ele>160.15</ele>
        <time>2021-07-18T10:55:21Z</time>
      </trkpt>
      <trkpt lat="48.76278" lon="2.2175">
        <ele>160.08</ele>
        <time>2021-07-18T10:55:56Z</time>
      </trkpt>
      <trkpt lat="48.76268" lon="2.21749">
        <ele>160.02</ele>
        <time>2021-07-18T10:56:11Z</time>
      </trkpt>
      <trkpt lat="48.76255" lon="2.21748">
        <ele>159.54</ele>
        <time>2021-07-18T10:56:27Z</time>
      </trkpt>
      <trkpt lat="48.76246" lon="2.21747">
        <ele>159.49</ele>
        <time>2021-07-18T10:56:45Z</time>
      </trkpt>
      <trkpt lat="48.76236" lon="2.21745">
        <ele>158.8</ele>
        <time>2021-07-18T10:56:59Z</time>
      </trkpt>
      <trkpt lat="48.76224" lon="2.21745">
        <ele>158.21</ele>
        <time>2021-07-18T10:57:18Z</time>
      </trkpt>
      <trkpt lat="48.76222" lon="2.21744">
        <ele>158.24</ele>
        <time>2021-07-18T10:57:22Z</time>
      </trkpt>
      <trkpt lat="48.7621" lon="2.21746">
        <ele>159.05</ele>
        <time>2021-07-18T10:57:37Z</time>
      </trkpt>
      <trkpt lat="48.76201" lon="2.21742">
        <ele>159.38</ele>
        <time>2021-07-18T10:57:50Z</time>
      </trkpt>
      <trkpt lat="48.76192" lon="2.21732">
        <ele>159.43</ele>
        <time>2021-07-18T10:58:00Z</time>
      </trkpt>
      <trkpt lat="48.76181" lon="2.21718">
        <ele>159.78</ele>
        <time>2021-07-18T10:58:13Z</time>
      </trkpt>
      <trkpt lat="48.7618" lon="2.21715">
        <ele>159.81</ele>
        <time>2021-07-18T10:58:15Z</time>
      </trkpt>
      <trkpt lat="48.76173" lon="2.21688">
        <ele>160.33</ele>
        <time>2021-07-18T10:58:34Z</time>
      </trkpt>
      <trkpt lat="48.76168" lon="2.21665">
        <ele>160.72</ele>
        <time>2021-07-18T10:58:51Z</time>
      </trkpt>
      <trkpt lat="48.76166" lon="2.21647">
        <ele>161.41</ele>
        <time>2021-07-18T10:59:07Z</time>
      </trkpt>
      <trkpt lat="48.76166" lon="2.21645">
        <ele>161.06</ele>
        <time>2021-07-18T10:59:09Z</time>
      </trkpt>
      <trkpt lat="48.76163" lon="2.21629">
        <ele>161.12</ele>
        <time>2021-07-18T10:59:26Z</time>
      </trkpt>
      <trkpt lat="48.76162" lon="2.21627">
        <ele>160.54</ele>
        <time>2021-07-18T10:59:29Z</time>
      </trkpt>
      <trkpt lat="48.76153" lon="2.21597">
        <ele>160.82</ele>
        <time>2021-07-18T10:59:48Z</time>
      </trkpt>
      <trkpt lat="48.76153" lon="2.21576">
        <ele>161.04</ele>
        <time>2021-07-18T10:59:59Z</time>
      </trkpt>
      <trkpt lat="48.76149" lon="2.21552">
        <ele>161.9</ele>
        <time>2021-07-18T11:00:17Z</time>
      </trkpt>
      <trkpt lat="48.76145" lon="2.21533">
        <ele>161.72</ele>
        <time>2021-07-18T11:00:34Z</time>
      </trkpt>
      <trkpt lat="48.76136" lon="2.21513">
        <ele>160.31</ele>
        <time>2021-07-18T11:00:48Z</time>
      </trkpt>
      <trkpt lat="48.76135" lon="2.2151">
        <ele>160.55</ele>
        <time>2021-07-18T11:00:50Z</time>
      </trkpt>
      <trkpt lat="48.76123" lon="2.21499">
        <ele>159.78</ele>
        <time>2021-07-18T11:01:03Z</time>
      </trkpt>
      <trkpt lat="48.76112" lon="2.21485">
        <ele>159.48</ele>
        <time>2021-07-18T11:01:21Z</time>
      </trkpt>
      <trkpt lat="48.76111" lon="2.21481">
        <ele>159.48</ele>
        <time>2021-07-18T11:01:25Z</time>
      </trkpt>
      <trkpt lat="48.76106" lon="2.21475">
        <ele>159.1</ele>
        <time>2021-07-18T11:01:31Z</time>
      </trkpt>
      <trkpt lat="48.76091" lon="2.21453">
        <ele>157.84</ele>
        <time>2021-07-18T11:01:54Z</time>
      </trkpt>
      <trkpt lat="48.7608" lon="2.21433">
        <ele>157.94</ele>
        <time>2021-07-18T11:02:11Z</time>
      </trkpt>
      <trkpt lat="48.76075" lon="2.21412">
        <ele>158.32</ele>
        <time>2021-07-18T11:02:27Z</time>
      </trkpt>
      <trkpt lat="48.76076" lon="2.2139">
        <ele>158.76</ele>
        <time>2021-07-18T11:02:43Z</time>
      </trkpt>
      <trkpt lat="48.7608" lon="2.21371">
        <ele>159.31</ele>
        <time>2021-07-18T11:02:58Z</time>
      </trkpt>
      <trkpt lat="48.7608" lon="2.21358">
        <ele>159.03</ele>
        <time>2021-07-18T11:03:13Z</time>
      </trkpt>
      <trkpt lat="48.76077" lon="2.21346">
        <ele>158.51</ele>
        <time>2021-07-18T11:03:30Z</time>
      </trkpt>
      <trkpt lat="48.76079" lon="2.21338">
        <ele>159.18</ele>
        <time>2021-07-18T11:03:37Z</time>
      </trkpt>
      <trkpt lat="48.76085" lon="2.21323">
        <ele>158.78</ele>
        <time>2021-07-18T11:03:47Z</time>
      </trkpt>
      <trkpt lat="48.76084" lon="2.21309">
        <ele>158.96</ele>
        <time>2021-07-18T11:04:03Z</time>
      </trkpt>
      <trkpt lat="48.76082" lon="2.21306">
        <ele>159.43</ele>
        <time>2021-07-18T11:04:05Z</time>
      </trkpt>
      <trkpt lat="48.76074" lon="2.213">
        <ele>158.22</ele>
        <time>2021-07-18T11:04:18Z</time>
      </trkpt>
      <trkpt lat="48.76063" lon="2.21307">
        <ele>156.9</ele>
        <time>2021-07-18T11:04:32Z</time>
      </trkpt>
      <trkpt lat="48.76061" lon="2.21308">
        <ele>156.83</ele>
        <time>2021-07-18T11:04:33Z</time>
      </trkpt>
      <trkpt lat="48.76058" lon="2.2131">
        <ele>156.56</ele>
        <time>2021-07-18T11:04:36Z</time>
      </trkpt>
      <trkpt lat="48.76047" lon="2.21318">
        <ele>155.62</ele>
        <time>2021-07-18T11:04:47Z</time>
      </trkpt>
      <trkpt lat="48.76032" lon="2.21332">
        <ele>154.81</ele>
        <time>2021-07-18T11:05:03Z</time>
      </trkpt>
      <trkpt lat="48.76019" lon="2.21352">
        <ele>154.18</ele>
        <time>2021-07-18T11:05:19Z</time>
      </trkpt>
      <trkpt lat="48.76009" lon="2.21362">
        <ele>154.05</ele>
        <time>2021-07-18T11:05:30Z</time>
      </trkpt>
      <trkpt lat="48.76" lon="2.21381">
        <ele>153.53</ele>
        <time>2021-07-18T11:05:44Z</time>
      </trkpt>
      <trkpt lat="48.75986" lon="2.21409">
        <ele>152.04</ele>
        <time>2021-07-18T11:06:03Z</time>
      </trkpt>
      <trkpt lat="48.75971" lon="2.21434">
        <ele>151.14</ele>
        <time>2021-07-18T11:06:23Z</time>
      </trkpt>
      <trkpt lat="48.75958" lon="2.21447">
        <ele>150.53</ele>
        <time>2021-07-18T11:06:36Z</time>
      </trkpt>
      <trkpt lat="48.75947" lon="2.21457">
        <ele>149.85</ele>
        <time>2021-07-18T11:06:52Z</time>
      </trkpt>
      <trkpt lat="48.75937" lon="2.2147">
        <ele>147.41</ele>
        <time>2021-07-18T11:07:07Z</time>
      </trkpt>
      <trkpt lat="48.75918" lon="2.2149">
        <ele>146.61</ele>
        <time>2021-07-18T11:07:25Z</time>
      </trkpt>
      <trkpt lat="48.75902" lon="2.21492">
        <ele>145.36</ele>
        <time>2021-07-18T11:07:42Z</time>
      </trkpt>
      <trkpt lat="48.75892" lon="2.21481">
        <ele>144.71</ele>
        <time>2021-07-18T11:07:56Z</time>
      </trkpt>
      <trkpt lat="48.7589" lon="2.21455">
        <ele>145.22</ele>
        <time>2021-07-18T11:08:11Z</time>
      </trkpt>
      <trkpt lat="48.75889" lon="2.21436">
        <ele>145.51</ele>
        <time>2021-07-18T11:08:24Z</time>
      </trkpt>
      <trkpt lat="48.7589" lon="2.21412">
        <ele>146.09</ele>
        <time>2021-07-18T11:08:40Z</time>
      </trkpt>
      <trkpt lat="48.75889" lon="2.21387">
        <ele>147.44</ele>
        <time>2021-07-18T11:08:56Z</time>
      </trkpt>
      <trkpt lat="48.75887" lon="2.21364">
        <ele>149.06</ele>
        <time>2021-07-18T11:09:12Z</time>
      </trkpt>
      <trkpt lat="48.75885" lon="2.21351">
        <ele>150.22</ele>
        <time>2021-07-18T11:09:26Z</time>
      </trkpt>
      <trkpt lat="48.75882" lon="2.21341">
        <ele>150.48</ele>
        <time>2021-07-18T11:09:34Z</time>
      </trkpt>
      <trkpt lat="48.75872" lon="2.21329">
        <ele>151.11</ele>
        <time>2021-07-18T11:09:49Z</time>
      </trkpt>
      <trkpt lat="48.75862" lon="2.21309">
        <ele>151.74</ele>
        <time>2021-07-18T11:10:04Z</time>
      </trkpt>
      <trkpt lat="48.75859" lon="2.21289">
        <ele>151.93</ele>
        <time>2021-07-18T11:10:18Z</time>
      </trkpt>
      <trkpt lat="48.75861" lon="2.21268">
        <ele>152.19</ele>
        <time>2021-07-18T11:10:32Z</time>
      </trkpt>
      <trkpt lat="48.75864" lon="2.21249">
        <ele>151.89</ele>
        <time>2021-07-18T11:10:46Z</time>
      </trkpt>
      <trkpt lat="48.75869" lon="2.21228">
        <ele>151.58</ele>
        <time>2021-07-18T11:11:01Z</time>
      </trkpt>
      <trkpt lat="48.75876" lon="2.21201">
        <ele>151</ele>
        <time>2021-07-18T11:11:17Z</time>
      </trkpt>
      <trkpt lat="48.75883" lon="2.21182">
        <ele>150.94</ele>
        <time>2021-07-18T11:11:30Z</time>
      </trkpt>
      <trkpt lat="48.75887" lon="2.21154">
        <ele>150.55</ele>
        <time>2021-07-18T11:11:45Z</time>
      </trkpt>
      <trkpt lat="48.75893" lon="2.21131">
        <ele>150.56</ele>
        <time>2021-07-18T11:12:00Z</time>
      </trkpt>
      <trkpt lat="48.759" lon="2.21107">
        <ele>150.43</ele>
        <time>2021-07-18T11:12:15Z</time>
      </trkpt>
      <trkpt lat="48.75905" lon="2.21085">
        <ele>150.94</ele>
        <time>2021-07-18T11:12:31Z</time>
      </trkpt>
      <trkpt lat="48.75908" lon="2.21069">
        <ele>151.13</ele>
        <time>2021-07-18T11:12:47Z</time>
      </trkpt>
      <trkpt lat="48.75913" lon="2.21044">
        <ele>151.37</ele>
        <time>2021-07-18T11:13:04Z</time>
      </trkpt>
      <trkpt lat="48.75918" lon="2.21015">
        <ele>152.2</ele>
        <time>2021-07-18T11:13:23Z</time>
      </trkpt>
      <trkpt lat="48.75916" lon="2.2099">
        <ele>150.6</ele>
        <time>2021-07-18T11:13:37Z</time>
      </trkpt>
      <trkpt lat="48.75913" lon="2.20959">
        <ele>150.89</ele>
        <time>2021-07-18T11:13:55Z</time>
      </trkpt>
      <trkpt lat="48.7591" lon="2.20928">
        <ele>150.01</ele>
        <time>2021-07-18T11:14:10Z</time>
      </trkpt>
      <trkpt lat="48.7591" lon="2.20905">
        <ele>148.89</ele>
        <time>2021-07-18T11:14:26Z</time>
      </trkpt>
      <trkpt lat="48.75911" lon="2.20902">
        <ele>148.95</ele>
        <time>2021-07-18T11:14:30Z</time>
      </trkpt>
      <trkpt lat="48.7591" lon="2.20891">
        <ele>148.79</ele>
        <time>2021-07-18T11:14:51Z</time>
      </trkpt>
      <trkpt lat="48.7591" lon="2.2089">
        <ele>148.72</ele>
        <time>2021-07-18T11:15:11Z</time>
      </trkpt>
      <trkpt lat="48.75908" lon="2.20886">
        <ele>148.06</ele>
        <time>2021-07-18T11:15:27Z</time>
      </trkpt>
      <trkpt lat="48.75905" lon="2.20884">
        <ele>148.54</ele>
        <time>2021-07-18T11:15:44Z</time>
      </trkpt>
      <trkpt lat="48.75907" lon="2.20888">
        <ele>148.46</ele>
        <time>2021-07-18T11:15:57Z</time>
      </trkpt>
      <trkpt lat="48.75909" lon="2.20886">
        <ele>148.11</ele>
        <time>2021-07-18T11:16:18Z</time>
      </trkpt>
      <trkpt lat="48.7591" lon="2.20885">
        <ele>148.37</ele>
        <time>2021-07-18T11:16:39Z</time>
      </trkpt>
      <trkpt lat="48.7591" lon="2.20879">
        <ele>148.91</ele>
        <time>2021-07-18T11:16:56Z</time>
      </trkpt>
      <trkpt lat="48.75913" lon="2.20862">
        <ele>148.91</ele>
        <time>2021-07-18T11:17:10Z</time>
      </trkpt>
      <trkpt lat="48.75913" lon="2.20849">
        <ele>148.69</ele>
        <time>2021-07-18T11:17:22Z</time>
      </trkpt>
      <trkpt lat="48.75913" lon="2.20829">
        <ele>148.78</ele>
        <time>2021-07-18T11:17:39Z</time>
      </trkpt>
      <trkpt lat="48.75914" lon="2.20804">
        <ele>148.56</ele>
        <time>2021-07-18T11:17:54Z</time>
      </trkpt>
      <trkpt lat="48.75914" lon="2.2078">
        <ele>148.48</ele>
        <time>2021-07-18T11:18:09Z</time>
      </trkpt>
      <trkpt lat="48.75917" lon="2.20762">
        <ele>148.26</ele>
        <time>2021-07-18T11:18:25Z</time>
      </trkpt>
      <trkpt lat="48.75919" lon="2.20744">
        <ele>148.08</ele>
        <time>2021-07-18T11:18:41Z</time>
      </trkpt>
      <trkpt lat="48.75918" lon="2.20741">
        <ele>148.39</ele>
        <time>2021-07-18T11:18:43Z</time>
      </trkpt>
      <trkpt lat="48.75919" lon="2.20737">
        <ele>148.03</ele>
        <time>2021-07-18T11:18:47Z</time>
      </trkpt>
      <trkpt lat="48.75923" lon="2.20713">
        <ele>148.17</ele>
        <time>2021-07-18T11:19:06Z</time>
      </trkpt>
      <trkpt lat="48.75923" lon="2.2071">
        <ele>148.54</ele>
        <time>2021-07-18T11:19:08Z</time>
      </trkpt>
      <trkpt lat="48.75929" lon="2.20684">
        <ele>149.05</ele>
        <time>2021-07-18T11:19:24Z</time>
      </trkpt>
      <trkpt lat="48.75937" lon="2.20657">
        <ele>149.29</ele>
        <time>2021-07-18T11:19:40Z</time>
      </trkpt>
      <trkpt lat="48.75939" lon="2.20637">
        <ele>149.53</ele>
        <time>2021-07-18T11:19:54Z</time>
      </trkpt>
      <trkpt lat="48.75945" lon="2.20615">
        <ele>149.46</ele>
        <time>2021-07-18T11:20:11Z</time>
      </trkpt>
      <trkpt lat="48.75946" lon="2.20612">
        <ele>149.5</ele>
        <time>2021-07-18T11:20:13Z</time>
      </trkpt>
      <trkpt lat="48.75948" lon="2.20604">
        <ele>149.56</ele>
        <time>2021-07-18T11:20:31Z</time>
      </trkpt>
      <trkpt lat="48.75948" lon="2.20602">
        <ele>150.02</ele>
        <time>2021-07-18T11:20:34Z</time>
      </trkpt>
      <trkpt lat="48.75943" lon="2.20596">
        <ele>151.2</ele>
        <time>2021-07-18T11:20:50Z</time>
      </trkpt>
      <trkpt lat="48.75944" lon="2.206">
        <ele>151.21</ele>
        <time>2021-07-18T11:21:09Z</time>
      </trkpt>
      <trkpt lat="48.75945" lon="2.20596">
        <ele>150.17</ele>
        <time>2021-07-18T11:21:24Z</time>
      </trkpt>
      <trkpt lat="48.75953" lon="2.20576">
        <ele>149.98</ele>
        <time>2021-07-18T11:21:39Z</time>
      </trkpt>
      <trkpt lat="48.75959" lon="2.20555">
        <ele>150.08</ele>
        <time>2021-07-18T11:21:55Z</time>
      </trkpt>
      <trkpt lat="48.75959" lon="2.20551">
        <ele>150.51</ele>
        <time>2021-07-18T11:21:59Z</time>
      </trkpt>
      <trkpt lat="48.75967" lon="2.20523">
        <ele>151.18</ele>
        <time>2021-07-18T11:22:17Z</time>
      </trkpt>
      <trkpt lat="48.75972" lon="2.20501">
        <ele>150.92</ele>
        <time>2021-07-18T11:22:33Z</time>
      </trkpt>
      <trkpt lat="48.75973" lon="2.20499">
        <ele>150.97</ele>
        <time>2021-07-18T11:22:36Z</time>
      </trkpt>
      <trkpt lat="48.75983" lon="2.20473">
        <ele>151.07</ele>
        <time>2021-07-18T11:22:53Z</time>
      </trkpt>
      <trkpt lat="48.75987" lon="2.20444">
        <ele>150.22</ele>
        <time>2021-07-18T11:23:09Z</time>
      </trkpt>
      <trkpt lat="48.75994" lon="2.20425">
        <ele>150.08</ele>
        <time>2021-07-18T11:23:23Z</time>
      </trkpt>
      <trkpt lat="48.76001" lon="2.20406">
        <ele>149.98</ele>
        <time>2021-07-18T11:23:38Z</time>
      </trkpt>
      <trkpt lat="48.7601" lon="2.20387">
        <ele>149.65</ele>
        <time>2021-07-18T11:23:51Z</time>
      </trkpt>
      <trkpt lat="48.76019" lon="2.20368">
        <ele>148.79</ele>
        <time>2021-07-18T11:24:07Z</time>
      </trkpt>
      <trkpt lat="48.76028" lon="2.20361">
        <ele>148.63</ele>
        <time>2021-07-18T11:24:22Z</time>
      </trkpt>
      <trkpt lat="48.76045" lon="2.20357">
        <ele>148.85</ele>
        <time>2021-07-18T11:24:36Z</time>
      </trkpt>
      <trkpt lat="48.76059" lon="2.20352">
        <ele>149.24</ele>
        <time>2021-07-18T11:24:53Z</time>
      </trkpt>
      <trkpt lat="48.76077" lon="2.20345">
        <ele>148.28</ele>
        <time>2021-07-18T11:25:12Z</time>
      </trkpt>
      <trkpt lat="48.76079" lon="2.20344">
        <ele>148.56</ele>
        <time>2021-07-18T11:25:14Z</time>
      </trkpt>
      <trkpt lat="48.76081" lon="2.20344">
        <ele>148.68</ele>
        <time>2021-07-18T11:25:16Z</time>
      </trkpt>
      <trkpt lat="48.76099" lon="2.20336">
        <ele>148.95</ele>
        <time>2021-07-18T11:25:34Z</time>
      </trkpt>
      <trkpt lat="48.76104" lon="2.20336">
        <ele>149.39</ele>
        <time>2021-07-18T11:25:38Z</time>
      </trkpt>
      <trkpt lat="48.7611" lon="2.20334">
        <ele>148.62</ele>
        <time>2021-07-18T11:25:44Z</time>
      </trkpt>
      <trkpt lat="48.76127" lon="2.20327">
        <ele>148.67</ele>
        <time>2021-07-18T11:25:58Z</time>
      </trkpt>
      <trkpt lat="48.76134" lon="2.20325">
        <ele>148.18</ele>
        <time>2021-07-18T11:26:02Z</time>
      </trkpt>
      <trkpt lat="48.76154" lon="2.20321">
        <ele>147.35</ele>
        <time>2021-07-18T11:26:17Z</time>
      </trkpt>
      <trkpt lat="48.7617" lon="2.20318">
        <ele>145.9</ele>
        <time>2021-07-18T11:26:34Z</time>
      </trkpt>
      <trkpt lat="48.76193" lon="2.20315">
        <ele>145.12</ele>
        <time>2021-07-18T11:26:55Z</time>
      </trkpt>
      <trkpt lat="48.76218" lon="2.2031">
        <ele>145.15</ele>
        <time>2021-07-18T11:27:13Z</time>
      </trkpt>
      <trkpt lat="48.76226" lon="2.20306">
        <ele>145.23</ele>
        <time>2021-07-18T11:27:21Z</time>
      </trkpt>
      <trkpt lat="48.76228" lon="2.20304">
        <ele>145.64</ele>
        <time>2021-07-18T11:27:26Z</time>
      </trkpt>
      <trkpt lat="48.7625" lon="2.20301">
        <ele>145.7</ele>
        <time>2021-07-18T11:27:43Z</time>
      </trkpt>
      <trkpt lat="48.76275" lon="2.20296">
        <ele>146.52</ele>
        <time>2021-07-18T11:28:02Z</time>
      </trkpt>
      <trkpt lat="48.76295" lon="2.20287">
        <ele>146.13</ele>
        <time>2021-07-18T11:28:19Z</time>
      </trkpt>
      <trkpt lat="48.76313" lon="2.20274">
        <ele>144.59</ele>
        <time>2021-07-18T11:28:38Z</time>
      </trkpt>
      <trkpt lat="48.76321" lon="2.20264">
        <ele>143.53</ele>
        <time>2021-07-18T11:28:47Z</time>
      </trkpt>
      <trkpt lat="48.76328" lon="2.20261">
        <ele>144.05</ele>
        <time>2021-07-18T11:29:07Z</time>
      </trkpt>
      <trkpt lat="48.76327" lon="2.20258">
        <ele>144.57</ele>
        <time>2021-07-18T11:29:24Z</time>
      </trkpt>
      <trkpt lat="48.76322" lon="2.20258">
        <ele>143.98</ele>
        <time>2021-07-18T11:29:38Z</time>
      </trkpt>
      <trkpt lat="48.76318" lon="2.20257">
        <ele>144.42</ele>
        <time>2021-07-18T11:29:57Z</time>
      </trkpt>
      <trkpt lat="48.76318" lon="2.20243">
        <ele>143.74</ele>
        <time>2021-07-18T11:30:13Z</time>
      </trkpt>
      <trkpt lat="48.76321" lon="2.20238">
        <ele>143.64</ele>
        <time>2021-07-18T11:30:28Z</time>
      </trkpt>
      <trkpt lat="48.76321" lon="2.20236">
        <ele>144.25</ele>
        <time>2021-07-18T11:30:49Z</time>
      </trkpt>
      <trkpt lat="48.76319" lon="2.20231">
        <ele>142.56</ele>
        <time>2021-07-18T11:31:07Z</time>
      </trkpt>
      <trkpt lat="48.7632" lon="2.20221">
        <ele>142.14</ele>
        <time>2021-07-18T11:31:23Z</time>
      </trkpt>
      <trkpt lat="48.76323" lon="2.20213">
        <ele>142.05</ele>
        <time>2021-07-18T11:31:37Z</time>
      </trkpt>
      <trkpt lat="48.76333" lon="2.20207">
        <ele>142.75</ele>
        <time>2021-07-18T11:31:52Z</time>
      </trkpt>
      <trkpt lat="48.76344" lon="2.20202">
        <ele>143.89</ele>
        <time>2021-07-18T11:32:05Z</time>
      </trkpt>
      <trkpt lat="48.76353" lon="2.20198">
        <ele>144.29</ele>
        <time>2021-07-18T11:32:18Z</time>
      </trkpt>
      <trkpt lat="48.76352" lon="2.20179">
        <ele>143.45</ele>
        <time>2021-07-18T11:32:36Z</time>
      </trkpt>
      <trkpt lat="48.76351" lon="2.20164">
        <ele>142.71</ele>
        <time>2021-07-18T11:32:50Z</time>
      </trkpt>
      <trkpt lat="48.76351" lon="2.2016">
        <ele>141.86</ele>
        <time>2021-07-18T11:32:53Z</time>
      </trkpt>
      <trkpt lat="48.76346" lon="2.20138">
        <ele>141.05</ele>
        <time>2021-07-18T11:33:09Z</time>
      </trkpt>
      <trkpt lat="48.76344" lon="2.20112">
        <ele>140.49</ele>
        <time>2021-07-18T11:33:24Z</time>
      </trkpt>
      <trkpt lat="48.7634" lon="2.20087">
        <ele>138.73</ele>
        <time>2021-07-18T11:33:42Z</time>
      </trkpt>
      <trkpt lat="48.7634" lon="2.20065">
        <ele>137.57</ele>
        <time>2021-07-18T11:33:59Z</time>
      </trkpt>
      <trkpt lat="48.76344" lon="2.2004">
        <ele>137.13</ele>
        <time>2021-07-18T11:34:16Z</time>
      </trkpt>
      <trkpt lat="48.76349" lon="2.2002">
        <ele>137.66</ele>
        <time>2021-07-18T11:34:32Z</time>
      </trkpt>
      <trkpt lat="48.76359" lon="2.20007">
        <ele>138.23</ele>
        <time>2021-07-18T11:34:46Z</time>
      </trkpt>
      <trkpt lat="48.76372" lon="2.19996">
        <ele>139.34</ele>
        <time>2021-07-18T11:35:01Z</time>
      </trkpt>
      <trkpt lat="48.76382" lon="2.19989">
        <ele>140.45</ele>
        <time>2021-07-18T11:35:14Z</time>
      </trkpt>
      <trkpt lat="48.76393" lon="2.19981">
        <ele>141.25</ele>
        <time>2021-07-18T11:35:25Z</time>
      </trkpt>
      <trkpt lat="48.76407" lon="2.19968">
        <ele>141.69</ele>
        <time>2021-07-18T11:35:41Z</time>
      </trkpt>
      <trkpt lat="48.76411" lon="2.19964">
        <ele>142.31</ele>
        <time>2021-07-18T11:35:48Z</time>
      </trkpt>
      <trkpt lat="48.76426" lon="2.19949">
        <ele>142.62</ele>
        <time>2021-07-18T11:36:05Z</time>
      </trkpt>
      <trkpt lat="48.76446" lon="2.19941">
        <ele>143.71</ele>
        <time>2021-07-18T11:36:21Z</time>
      </trkpt>
      <trkpt lat="48.76451" lon="2.19939">
        <ele>142.76</ele>
        <time>2021-07-18T11:36:25Z</time>
      </trkpt>
      <trkpt lat="48.76463" lon="2.1993">
        <ele>141.81</ele>
        <time>2021-07-18T11:36:42Z</time>
      </trkpt>
      <trkpt lat="48.76476" lon="2.19916">
        <ele>140.92</ele>
        <time>2021-07-18T11:36:59Z</time>
      </trkpt>
      <trkpt lat="48.76487" lon="2.19889">
        <ele>141.73</ele>
        <time>2021-07-18T11:37:16Z</time>
      </trkpt>
      <trkpt lat="48.76492" lon="2.19862">
        <ele>141.27</ele>
        <time>2021-07-18T11:37:34Z</time>
      </trkpt>
      <trkpt lat="48.76493" lon="2.19859">
        <ele>141.73</ele>
        <time>2021-07-18T11:37:37Z</time>
      </trkpt>
      <trkpt lat="48.76492" lon="2.19845">
        <ele>141.88</ele>
        <time>2021-07-18T11:37:49Z</time>
      </trkpt>
      <trkpt lat="48.76488" lon="2.19818">
        <ele>142.29</ele>
        <time>2021-07-18T11:38:05Z</time>
      </trkpt>
      <trkpt lat="48.76481" lon="2.19791">
        <ele>144.3</ele>
        <time>2021-07-18T11:38:22Z</time>
      </trkpt>
      <trkpt lat="48.7648" lon="2.19771">
        <ele>145.46</ele>
        <time>2021-07-18T11:38:36Z</time>
      </trkpt>
      <trkpt lat="48.76479" lon="2.19758">
        <ele>146.12</ele>
        <time>2021-07-18T11:38:50Z</time>
      </trkpt>
      <trkpt lat="48.76475" lon="2.19741">
        <ele>147.93</ele>
        <time>2021-07-18T11:39:04Z</time>
      </trkpt>
      <trkpt lat="48.7647" lon="2.19722">
        <ele>148.3</ele>
        <time>2021-07-18T11:39:19Z</time>
      </trkpt>
      <trkpt lat="48.76465" lon="2.19704">
        <ele>148.46</ele>
        <time>2021-07-18T11:39:36Z</time>
      </trkpt>
      <trkpt lat="48.76465" lon="2.19702">
        <ele>148.83</ele>
        <time>2021-07-18T11:39:38Z</time>
      </trkpt>
      <trkpt lat="48.76459" lon="2.19692">
        <ele>149.16</ele>
        <time>2021-07-18T11:39:54Z</time>
      </trkpt>
      <trkpt lat="48.76454" lon="2.197">
        <ele>147.78</ele>
        <time>2021-07-18T11:40:16Z</time>
      </trkpt>
      <trkpt lat="48.7645" lon="2.19697">
        <ele>148.18</ele>
        <time>2021-07-18T11:40:32Z</time>
      </trkpt>
      <trkpt lat="48.76451" lon="2.19702">
        <ele>148.42</ele>
        <time>2021-07-18T11:40:50Z</time>
      </trkpt>
      <trkpt lat="48.76453" lon="2.197">
        <ele>147.98</ele>
        <time>2021-07-18T11:41:14Z</time>
      </trkpt>
      <trkpt lat="48.76454" lon="2.19695">
        <ele>148.22</ele>
        <time>2021-07-18T11:41:31Z</time>
      </trkpt>
      <trkpt lat="48.76448" lon="2.197">
        <ele>148.15</ele>
        <time>2021-07-18T11:41:53Z</time>
      </trkpt>
      <trkpt lat="48.76447" lon="2.19699">
        <ele>148.18</ele>
        <time>2021-07-18T11:41:58Z</time>
      </trkpt>
      <trkpt lat="48.76449" lon="2.19706">
        <ele>148.03</ele>
        <time>2021-07-18T11:42:21Z</time>
      </trkpt>
      <trkpt lat="48.7645" lon="2.19706">
        <ele>148.29</ele>
        <time>2021-07-18T11:42:43Z</time>
      </trkpt>
      <trkpt lat="48.76446" lon="2.19703">
        <ele>148.33</ele>
        <time>2021-07-18T11:43:00Z</time>
      </trkpt>
      <trkpt lat="48.76445" lon="2.19698">
        <ele>148.52</ele>
        <time>2021-07-18T11:43:21Z</time>
      </trkpt>
      <trkpt lat="48.76449" lon="2.197">
        <ele>148.6</ele>
        <time>2021-07-18T11:43:43Z</time>
      </trkpt>
      <trkpt lat="48.76451" lon="2.19698">
        <ele>148.95</ele>
        <time>2021-07-18T11:43:54Z</time>
      </trkpt>
      <trkpt lat="48.76456" lon="2.19684">
        <ele>149.93</ele>
        <time>2021-07-18T11:44:12Z</time>
      </trkpt>
      <trkpt lat="48.76458" lon="2.19681">
        <ele>149.67</ele>
        <time>2021-07-18T11:44:31Z</time>
      </trkpt>
      <trkpt lat="48.76457" lon="2.19681">
        <ele>149.84</ele>
        <time>2021-07-18T11:44:53Z</time>
      </trkpt>
      <trkpt lat="48.76458" lon="2.19674">
        <ele>150.34</ele>
        <time>2021-07-18T11:45:09Z</time>
      </trkpt>
      <trkpt lat="48.76459" lon="2.1966">
        <ele>150.01</ele>
        <time>2021-07-18T11:45:26Z</time>
      </trkpt>
      <trkpt lat="48.76458" lon="2.19649">
        <ele>149.83</ele>
        <time>2021-07-18T11:45:41Z</time>
      </trkpt>
      <trkpt lat="48.76458" lon="2.1964">
        <ele>150.47</ele>
        <time>2021-07-18T11:45:56Z</time>
      </trkpt>
      <trkpt lat="48.76461" lon="2.19631">
        <ele>150.32</ele>
        <time>2021-07-18T11:46:07Z</time>
      </trkpt>
      <trkpt lat="48.7646" lon="2.19616">
        <ele>149.44</ele>
        <time>2021-07-18T11:46:20Z</time>
      </trkpt>
      <trkpt lat="48.76459" lon="2.196">
        <ele>148.34</ele>
        <time>2021-07-18T11:46:33Z</time>
      </trkpt>
      <trkpt lat="48.76465" lon="2.19586">
        <ele>147.63</ele>
        <time>2021-07-18T11:46:48Z</time>
      </trkpt>
      <trkpt lat="48.76477" lon="2.1957">
        <ele>148.21</ele>
        <time>2021-07-18T11:47:05Z</time>
      </trkpt>
      <trkpt lat="48.76481" lon="2.19566">
        <ele>147.41</ele>
        <time>2021-07-18T11:47:09Z</time>
      </trkpt>
      <trkpt lat="48.76492" lon="2.19554">
        <ele>148.5</ele>
        <time>2021-07-18T11:47:20Z</time>
      </trkpt>
      <trkpt lat="48.76497" lon="2.19547">
        <ele>146.7</ele>
        <time>2021-07-18T11:47:28Z</time>
      </trkpt>
      <trkpt lat="48.76505" lon="2.19532">
        <ele>144.85</ele>
        <time>2021-07-18T11:47:43Z</time>
      </trkpt>
      <trkpt lat="48.76512" lon="2.19514">
        <ele>143.37</ele>
        <time>2021-07-18T11:47:59Z</time>
      </trkpt>
      <trkpt lat="48.76517" lon="2.19495">
        <ele>142.14</ele>
        <time>2021-07-18T11:48:13Z</time>
      </trkpt>
      <trkpt lat="48.76524" lon="2.19483">
        <ele>143.91</ele>
        <time>2021-07-18T11:48:30Z</time>
      </trkpt>
      <trkpt lat="48.76524" lon="2.19469">
        <ele>141.22</ele>
        <time>2021-07-18T11:48:48Z</time>
      </trkpt>
      <trkpt lat="48.76522" lon="2.19457">
        <ele>140.54</ele>
        <time>2021-07-18T11:49:02Z</time>
      </trkpt>
      <trkpt lat="48.76524" lon="2.1944">
        <ele>140.33</ele>
        <time>2021-07-18T11:49:14Z</time>
      </trkpt>
      <trkpt lat="48.7652" lon="2.19416">
        <ele>142.16</ele>
        <time>2021-07-18T11:49:31Z</time>
      </trkpt>
      <trkpt lat="48.76519" lon="2.19392">
        <ele>143.7</ele>
        <time>2021-07-18T11:49:46Z</time>
      </trkpt>
      <trkpt lat="48.76518" lon="2.19384">
        <ele>142.52</ele>
        <time>2021-07-18T11:49:52Z</time>
      </trkpt>
      <trkpt lat="48.76514" lon="2.19378">
        <ele>144.3</ele>
        <time>2021-07-18T11:49:59Z</time>
      </trkpt>
      <trkpt lat="48.76512" lon="2.19374">
        <ele>143.99</ele>
        <time>2021-07-18T11:50:08Z</time>
      </trkpt>
      <trkpt lat="48.76509" lon="2.19356">
        <ele>144.09</ele>
        <time>2021-07-18T11:50:26Z</time>
      </trkpt>
      <trkpt lat="48.76507" lon="2.19332">
        <ele>142.74</ele>
        <time>2021-07-18T11:50:40Z</time>
      </trkpt>
      <trkpt lat="48.76507" lon="2.19327">
        <ele>142.46</ele>
        <time>2021-07-18T11:50:43Z</time>
      </trkpt>
      <trkpt lat="48.76506" lon="2.19309">
        <ele>140.48</ele>
        <time>2021-07-18T11:51:01Z</time>
      </trkpt>
      <trkpt lat="48.76508" lon="2.19294">
        <ele>138.82</ele>
        <time>2021-07-18T11:51:16Z</time>
      </trkpt>
      <trkpt lat="48.76509" lon="2.19282">
        <ele>138.63</ele>
        <time>2021-07-18T11:51:32Z</time>
      </trkpt>
      <trkpt lat="48.76504" lon="2.19273">
        <ele>138.52</ele>
        <time>2021-07-18T11:51:52Z</time>
      </trkpt>
      <trkpt lat="48.76502" lon="2.19271">
        <ele>137.13</ele>
        <time>2021-07-18T11:52:12Z</time>
      </trkpt>
      <trkpt lat="48.76498" lon="2.19273">
        <ele>137.07</ele>
        <time>2021-07-18T11:52:22Z</time>
      </trkpt>
      <trkpt lat="48.76489" lon="2.19278">
        <ele>134.87</ele>
        <time>2021-07-18T11:52:37Z</time>
      </trkpt>
      <trkpt lat="48.76476" lon="2.19284">
        <ele>132.09</ele>
        <time>2021-07-18T11:52:55Z</time>
      </trkpt>
      <trkpt lat="48.76464" lon="2.19294">
        <ele>129.38</ele>
        <time>2021-07-18T11:53:10Z</time>
      </trkpt>
      <trkpt lat="48.76457" lon="2.19305">
        <ele>127.69</ele>
        <time>2021-07-18T11:53:25Z</time>
      </trkpt>
      <trkpt lat="48.76451" lon="2.19318">
        <ele>125.26</ele>
        <time>2021-07-18T11:53:40Z</time>
      </trkpt>
      <trkpt lat="48.76443" lon="2.19334">
        <ele>122.01</ele>
        <time>2021-07-18T11:53:54Z</time>
      </trkpt>
      <trkpt lat="48.7644" lon="2.19349">
        <ele>118.83</ele>
        <time>2021-07-18T11:54:10Z</time>
      </trkpt>
      <trkpt lat="48.76438" lon="2.19362">
        <ele>117.06</ele>
        <time>2021-07-18T11:54:26Z</time>
      </trkpt>
      <trkpt lat="48.76434" lon="2.19377">
        <ele>114.53</ele>
        <time>2021-07-18T11:54:43Z</time>
      </trkpt>
      <trkpt lat="48.7643" lon="2.19386">
        <ele>113.52</ele>
        <time>2021-07-18T11:54:51Z</time>
      </trkpt>
      <trkpt lat="48.76424" lon="2.19393">
        <ele>113.73</ele>
        <time>2021-07-18T11:54:59Z</time>
      </trkpt>
      <trkpt lat="48.76407" lon="2.19403">
        <ele>114.37</ele>
        <time>2021-07-18T11:55:14Z</time>
      </trkpt>
      <trkpt lat="48.76392" lon="2.19414">
        <ele>114.36</ele>
        <time>2021-07-18T11:55:32Z</time>
      </trkpt>
      <trkpt lat="48.7639" lon="2.19415">
        <ele>114.21</ele>
        <time>2021-07-18T11:55:39Z</time>
      </trkpt>
      <trkpt lat="48.76381" lon="2.19427">
        <ele>112.39</ele>
        <time>2021-07-18T11:55:55Z</time>
      </trkpt>
      <trkpt lat="48.76366" lon="2.19437">
        <ele>111.82</ele>
        <time>2021-07-18T11:56:12Z</time>
      </trkpt>
      <trkpt lat="48.76355" lon="2.19446">
        <ele>110.49</ele>
        <time>2021-07-18T11:56:28Z</time>
      </trkpt>
      <trkpt lat="48.7634" lon="2.19453">
        <ele>108.71</ele>
        <time>2021-07-18T11:56:44Z</time>
      </trkpt>
      <trkpt lat="48.76325" lon="2.1946">
        <ele>107.39</ele>
        <time>2021-07-18T11:56:59Z</time>
      </trkpt>
      <trkpt lat="48.76308" lon="2.19469">
        <ele>105.18</ele>
        <time>2021-07-18T11:57:18Z</time>
      </trkpt>
      <trkpt lat="48.76293" lon="2.19479">
        <ele>103.86</ele>
        <time>2021-07-18T11:57:34Z</time>
      </trkpt>
      <trkpt lat="48.76275" lon="2.19488">
        <ele>102.2</ele>
        <time>2021-07-18T11:57:51Z</time>
      </trkpt>
      <trkpt lat="48.76261" lon="2.19491">
        <ele>100.33</ele>
        <time>2021-07-18T11:58:04Z</time>
      </trkpt>
      <trkpt lat="48.76248" lon="2.19495">
        <ele>99.45</ele>
        <time>2021-07-18T11:58:13Z</time>
      </trkpt>
      <trkpt lat="48.76233" lon="2.19501">
        <ele>98.55</ele>
        <time>2021-07-18T11:58:24Z</time>
      </trkpt>
      <trkpt lat="48.76221" lon="2.19506">
        <ele>97.76</ele>
        <time>2021-07-18T11:58:36Z</time>
      </trkpt>
      <trkpt lat="48.76206" lon="2.1951">
        <ele>96.24</ele>
        <time>2021-07-18T11:58:48Z</time>
      </trkpt>
      <trkpt lat="48.76195" lon="2.1951">
        <ele>94.93</ele>
        <time>2021-07-18T11:58:59Z</time>
      </trkpt>
      <trkpt lat="48.76183" lon="2.19512">
        <ele>92.39</ele>
        <time>2021-07-18T11:59:14Z</time>
      </trkpt>
      <trkpt lat="48.76179" lon="2.1951">
        <ele>92.2</ele>
        <time>2021-07-18T11:59:17Z</time>
      </trkpt>
      <trkpt lat="48.76161" lon="2.19514">
        <ele>89.91</ele>
        <time>2021-07-18T11:59:34Z</time>
      </trkpt>
      <trkpt lat="48.76153" lon="2.19535">
        <ele>88.88</ele>
        <time>2021-07-18T11:59:48Z</time>
      </trkpt>
      <trkpt lat="48.76146" lon="2.19546">
        <ele>89.3</ele>
        <time>2021-07-18T11:59:58Z</time>
      </trkpt>
      <trkpt lat="48.76143" lon="2.19545">
        <ele>87.66</ele>
        <time>2021-07-18T12:00:06Z</time>
      </trkpt>
      <trkpt lat="48.76142" lon="2.19537">
        <ele>88.32</ele>
        <time>2021-07-18T12:00:15Z</time>
      </trkpt>
      <trkpt lat="48.76139" lon="2.19531">
        <ele>88.85</ele>
        <time>2021-07-18T12:00:33Z</time>
      </trkpt>
      <trkpt lat="48.7614" lon="2.19542">
        <ele>88.38</ele>
        <time>2021-07-18T12:00:49Z</time>
      </trkpt>
      <trkpt lat="48.76138" lon="2.19545">
        <ele>88.09</ele>
        <time>2021-07-18T12:01:08Z</time>
      </trkpt>
      <trkpt lat="48.76133" lon="2.19547">
        <ele>86.95</ele>
        <time>2021-07-18T12:01:21Z</time>
      </trkpt>
      <trkpt lat="48.7613" lon="2.19531">
        <ele>85.8</ele>
        <time>2021-07-18T12:01:33Z</time>
      </trkpt>
      <trkpt lat="48.76117" lon="2.1951">
        <ele>83.42</ele>
        <time>2021-07-18T12:01:51Z</time>
      </trkpt>
      <trkpt lat="48.76106" lon="2.19492">
        <ele>81.36</ele>
        <time>2021-07-18T12:02:08Z</time>
      </trkpt>
      <trkpt lat="48.76101" lon="2.19485">
        <ele>80.64</ele>
        <time>2021-07-18T12:02:18Z</time>
      </trkpt>
      <trkpt lat="48.76096" lon="2.19478">
        <ele>80.49</ele>
        <time>2021-07-18T12:02:27Z</time>
      </trkpt>
      <trkpt lat="48.76094" lon="2.19466">
        <ele>80.24</ele>
        <time>2021-07-18T12:02:35Z</time>
      </trkpt>
      <trkpt lat="48.7609" lon="2.19452">
        <ele>78.53</ele>
        <time>2021-07-18T12:02:46Z</time>
      </trkpt>
      <trkpt lat="48.76083" lon="2.19438">
        <ele>77.51</ele>
        <time>2021-07-18T12:03:04Z</time>
      </trkpt>
      <trkpt lat="48.76082" lon="2.19426">
        <ele>77.3</ele>
        <time>2021-07-18T12:03:17Z</time>
      </trkpt>
      <trkpt lat="48.76081" lon="2.19418">
        <ele>76.29</ele>
        <time>2021-07-18T12:03:33Z</time>
      </trkpt>
      <trkpt lat="48.76077" lon="2.19405">
        <ele>75.14</ele>
        <time>2021-07-18T12:03:48Z</time>
      </trkpt>
      <trkpt lat="48.76072" lon="2.19398">
        <ele>74.66</ele>
        <time>2021-07-18T12:03:56Z</time>
      </trkpt>
      <trkpt lat="48.76067" lon="2.19396">
        <ele>74.4</ele>
        <time>2021-07-18T12:03:59Z</time>
      </trkpt>
      <trkpt lat="48.76061" lon="2.1939">
        <ele>74.16</ele>
        <time>2021-07-18T12:04:09Z</time>
      </trkpt>
      <trkpt lat="48.7606" lon="2.19384">
        <ele>73.7</ele>
        <time>2021-07-18T12:04:28Z</time>
      </trkpt>
      <trkpt lat="48.76059" lon="2.19382">
        <ele>73.04</ele>
        <time>2021-07-18T12:04:30Z</time>
      </trkpt>
      <trkpt lat="48.76051" lon="2.19364">
        <ele>72.04</ele>
        <time>2021-07-18T12:04:44Z</time>
      </trkpt>
      <trkpt lat="48.76044" lon="2.19343">
        <ele>71.24</ele>
        <time>2021-07-18T12:05:00Z</time>
      </trkpt>
      <trkpt lat="48.76043" lon="2.19334">
        <ele>71.43</ele>
        <time>2021-07-18T12:05:14Z</time>
      </trkpt>
      <trkpt lat="48.76035" lon="2.19321">
        <ele>71.75</ele>
        <time>2021-07-18T12:05:28Z</time>
      </trkpt>
      <trkpt lat="48.76032" lon="2.19313">
        <ele>71.86</ele>
        <time>2021-07-18T12:05:43Z</time>
      </trkpt>
      <trkpt lat="48.76032" lon="2.19313">
        <ele>68.77</ele>
        <time>2021-07-18T12:05:44Z</time>
      </trkpt>
      <trkpt lat="48.76032" lon="2.19313">
        <ele>68.78</ele>
        <time>2021-07-18T12:05:45Z</time>
      </trkpt>
      <trkpt lat="48.76033" lon="2.19315">
        <ele>71.75</ele>
        <time>2021-07-18T12:05:52Z</time>
      </trkpt>
      <trkpt lat="48.76032" lon="2.19319">
        <ele>71.57</ele>
        <time>2021-07-18T12:06:04Z</time>
      </trkpt>
      <trkpt lat="48.76035" lon="2.19322">
        <ele>72.09</ele>
        <time>2021-07-18T12:06:22Z</time>
      </trkpt>
      <trkpt lat="48.76034" lon="2.19319">
        <ele>71.79</ele>
        <time>2021-07-18T12:06:41Z</time>
      </trkpt>
      <trkpt lat="48.7603" lon="2.19313">
        <ele>71.91</ele>
        <time>2021-07-18T12:07:02Z</time>
      </trkpt>
      <trkpt lat="48.76028" lon="2.19307">
        <ele>72.02</ele>
        <time>2021-07-18T12:07:21Z</time>
      </trkpt>
      <trkpt lat="48.76027" lon="2.19307">
        <ele>71.86</ele>
        <time>2021-07-18T12:07:35Z</time>
      </trkpt>
      <trkpt lat="48.76019" lon="2.19301">
        <ele>71.29</ele>
        <time>2021-07-18T12:07:51Z</time>
      </trkpt>
      <trkpt lat="48.76007" lon="2.1929">
        <ele>71.73</ele>
        <time>2021-07-18T12:08:04Z</time>
      </trkpt>
      <trkpt lat="48.75998" lon="2.19283">
        <ele>72.04</ele>
        <time>2021-07-18T12:08:13Z</time>
      </trkpt>
      <trkpt lat="48.75987" lon="2.19271">
        <ele>71.86</ele>
        <time>2021-07-18T12:08:28Z</time>
      </trkpt>
      <trkpt lat="48.75971" lon="2.19257">
        <ele>72.57</ele>
        <time>2021-07-18T12:08:47Z</time>
      </trkpt>
      <trkpt lat="48.7596" lon="2.19243">
        <ele>73.42</ele>
        <time>2021-07-18T12:09:01Z</time>
      </trkpt>
      <trkpt lat="48.75955" lon="2.19235">
        <ele>73.92</ele>
        <time>2021-07-18T12:09:09Z</time>
      </trkpt>
      <trkpt lat="48.75952" lon="2.19229">
        <ele>74.35</ele>
        <time>2021-07-18T12:09:13Z</time>
      </trkpt>
      <trkpt lat="48.75944" lon="2.19213">
        <ele>74.99</ele>
        <time>2021-07-18T12:09:24Z</time>
      </trkpt>
      <trkpt lat="48.75938" lon="2.19208">
        <ele>76.03</ele>
        <time>2021-07-18T12:09:33Z</time>
      </trkpt>
      <trkpt lat="48.75934" lon="2.19208">
        <ele>76.03</ele>
        <time>2021-07-18T12:09:47Z</time>
      </trkpt>
      <trkpt lat="48.75936" lon="2.19208">
        <ele>76.15</ele>
        <time>2021-07-18T12:10:00Z</time>
      </trkpt>
      <trkpt lat="48.75939" lon="2.19215">
        <ele>75.37</ele>
        <time>2021-07-18T12:10:12Z</time>
      </trkpt>
      <trkpt lat="48.75939" lon="2.19216">
        <ele>75.41</ele>
        <time>2021-07-18T12:10:13Z</time>
      </trkpt>
      <trkpt lat="48.75934" lon="2.19229">
        <ele>74.77</ele>
        <time>2021-07-18T12:10:23Z</time>
      </trkpt>
      <trkpt lat="48.75933" lon="2.19231">
        <ele>74.61</ele>
        <time>2021-07-18T12:10:24Z</time>
      </trkpt>
      <trkpt lat="48.75927" lon="2.19244">
        <ele>74.54</ele>
        <time>2021-07-18T12:10:35Z</time>
      </trkpt>
      <trkpt lat="48.75923" lon="2.19254">
        <ele>74.25</ele>
        <time>2021-07-18T12:10:47Z</time>
      </trkpt>
      <trkpt lat="48.75915" lon="2.1927">
        <ele>74.53</ele>
        <time>2021-07-18T12:11:00Z</time>
      </trkpt>
      <trkpt lat="48.75907" lon="2.19286">
        <ele>74.1</ele>
        <time>2021-07-18T12:11:11Z</time>
      </trkpt>
      <trkpt lat="48.75901" lon="2.19298">
        <ele>73.94</ele>
        <time>2021-07-18T12:11:20Z</time>
      </trkpt>
      <trkpt lat="48.75892" lon="2.19315">
        <ele>73.8</ele>
        <time>2021-07-18T12:11:32Z</time>
      </trkpt>
      <trkpt lat="48.75883" lon="2.19331">
        <ele>73.78</ele>
        <time>2021-07-18T12:11:43Z</time>
      </trkpt>
      <trkpt lat="48.75881" lon="2.19336">
        <ele>73.96</ele>
        <time>2021-07-18T12:11:46Z</time>
      </trkpt>
      <trkpt lat="48.75871" lon="2.19355">
        <ele>74.08</ele>
        <time>2021-07-18T12:11:58Z</time>
      </trkpt>
      <trkpt lat="48.75865" lon="2.19369">
        <ele>73.56</ele>
        <time>2021-07-18T12:12:08Z</time>
      </trkpt>
      <trkpt lat="48.75858" lon="2.19384">
        <ele>73.55</ele>
        <time>2021-07-18T12:12:19Z</time>
      </trkpt>
      <trkpt lat="48.7585" lon="2.194">
        <ele>74.32</ele>
        <time>2021-07-18T12:12:31Z</time>
      </trkpt>
      <trkpt lat="48.75841" lon="2.19416">
        <ele>73.44</ele>
        <time>2021-07-18T12:12:44Z</time>
      </trkpt>
      <trkpt lat="48.75833" lon="2.1943">
        <ele>74.66</ele>
        <time>2021-07-18T12:12:55Z</time>
      </trkpt>
      <trkpt lat="48.75826" lon="2.19443">
        <ele>74.36</ele>
        <time>2021-07-18T12:13:06Z</time>
      </trkpt>
      <trkpt lat="48.75819" lon="2.19453">
        <ele>74.14</ele>
        <time>2021-07-18T12:13:19Z</time>
      </trkpt>
      <trkpt lat="48.75811" lon="2.19467">
        <ele>74.38</ele>
        <time>2021-07-18T12:13:32Z</time>
      </trkpt>
      <trkpt lat="48.75804" lon="2.19478">
        <ele>74.31</ele>
        <time>2021-07-18T12:13:42Z</time>
      </trkpt>
      <trkpt lat="48.75795" lon="2.19493">
        <ele>74.39</ele>
        <time>2021-07-18T12:13:54Z</time>
      </trkpt>
      <trkpt lat="48.75786" lon="2.19507">
        <ele>74.3</ele>
        <time>2021-07-18T12:14:07Z</time>
      </trkpt>
      <trkpt lat="48.7578" lon="2.19517">
        <ele>74.21</ele>
        <time>2021-07-18T12:14:16Z</time>
      </trkpt>
      <trkpt lat="48.75771" lon="2.19531">
        <ele>74.49</ele>
        <time>2021-07-18T12:14:28Z</time>
      </trkpt>
      <trkpt lat="48.75764" lon="2.19544">
        <ele>74.15</ele>
        <time>2021-07-18T12:14:39Z</time>
      </trkpt>
      <trkpt lat="48.75758" lon="2.19555">
        <ele>74.22</ele>
        <time>2021-07-18T12:14:49Z</time>
      </trkpt>
      <trkpt lat="48.75748" lon="2.1957">
        <ele>74.11</ele>
        <time>2021-07-18T12:15:03Z</time>
      </trkpt>
      <trkpt lat="48.75743" lon="2.1958">
        <ele>74.3</ele>
        <time>2021-07-18T12:15:13Z</time>
      </trkpt>
      <trkpt lat="48.75741" lon="2.19583">
        <ele>74.33</ele>
        <time>2021-07-18T12:15:15Z</time>
      </trkpt>
      <trkpt lat="48.75734" lon="2.1959">
        <ele>74.69</ele>
        <time>2021-07-18T12:15:29Z</time>
      </trkpt>
      <trkpt lat="48.75734" lon="2.19591">
        <ele>75.16</ele>
        <time>2021-07-18T12:15:30Z</time>
      </trkpt>
      <trkpt lat="48.75726" lon="2.19607">
        <ele>74.86</ele>
        <time>2021-07-18T12:15:42Z</time>
      </trkpt>
      <trkpt lat="48.7572" lon="2.19622">
        <ele>74.6</ele>
        <time>2021-07-18T12:15:53Z</time>
      </trkpt>
      <trkpt lat="48.75719" lon="2.19623">
        <ele>74.55</ele>
        <time>2021-07-18T12:15:54Z</time>
      </trkpt>
      <trkpt lat="48.75712" lon="2.19635">
        <ele>74.22</ele>
        <time>2021-07-18T12:16:04Z</time>
      </trkpt>
      <trkpt lat="48.75704" lon="2.19647">
        <ele>74.9</ele>
        <time>2021-07-18T12:16:15Z</time>
      </trkpt>
      <trkpt lat="48.75702" lon="2.19651">
        <ele>74.72</ele>
        <time>2021-07-18T12:16:19Z</time>
      </trkpt>
      <trkpt lat="48.75692" lon="2.19665">
        <ele>75.06</ele>
        <time>2021-07-18T12:16:31Z</time>
      </trkpt>
      <trkpt lat="48.75685" lon="2.19678">
        <ele>74.93</ele>
        <time>2021-07-18T12:16:42Z</time>
      </trkpt>
      <trkpt lat="48.75679" lon="2.19689">
        <ele>75.34</ele>
        <time>2021-07-18T12:16:52Z</time>
      </trkpt>
      <trkpt lat="48.7567" lon="2.19703">
        <ele>74.76</ele>
        <time>2021-07-18T12:17:04Z</time>
      </trkpt>
      <trkpt lat="48.75666" lon="2.19711">
        <ele>74.66</ele>
        <time>2021-07-18T12:17:11Z</time>
      </trkpt>
      <trkpt lat="48.75661" lon="2.19718">
        <ele>74.41</ele>
        <time>2021-07-18T12:17:17Z</time>
      </trkpt>
      <trkpt lat="48.75661" lon="2.19721">
        <ele>74.71</ele>
        <time>2021-07-18T12:17:19Z</time>
      </trkpt>
      <trkpt lat="48.75657" lon="2.19728">
        <ele>74.68</ele>
        <time>2021-07-18T12:17:25Z</time>
      </trkpt>
      <trkpt lat="48.75653" lon="2.19736">
        <ele>74.48</ele>
        <time>2021-07-18T12:17:32Z</time>
      </trkpt>
      <trkpt lat="48.75647" lon="2.19748">
        <ele>73.74</ele>
        <time>2021-07-18T12:17:43Z</time>
      </trkpt>
      <trkpt lat="48.75638" lon="2.19765">
        <ele>74.44</ele>
        <time>2021-07-18T12:17:56Z</time>
      </trkpt>
      <trkpt lat="48.75632" lon="2.19781">
        <ele>73.46</ele>
        <time>2021-07-18T12:18:08Z</time>
      </trkpt>
      <trkpt lat="48.75627" lon="2.19794">
        <ele>73.57</ele>
        <time>2021-07-18T12:18:18Z</time>
      </trkpt>
      <trkpt lat="48.75619" lon="2.1981">
        <ele>73.31</ele>
        <time>2021-07-18T12:18:30Z</time>
      </trkpt>
      <trkpt lat="48.75613" lon="2.19822">
        <ele>73.72</ele>
        <time>2021-07-18T12:18:38Z</time>
      </trkpt>
      <trkpt lat="48.75606" lon="2.19837">
        <ele>73.3</ele>
        <time>2021-07-18T12:18:50Z</time>
      </trkpt>
      <trkpt lat="48.756" lon="2.19853">
        <ele>73.38</ele>
        <time>2021-07-18T12:19:01Z</time>
      </trkpt>
      <trkpt lat="48.75594" lon="2.19868">
        <ele>73.45</ele>
        <time>2021-07-18T12:19:12Z</time>
      </trkpt>
      <trkpt lat="48.75586" lon="2.19886">
        <ele>72.85</ele>
        <time>2021-07-18T12:19:25Z</time>
      </trkpt>
      <trkpt lat="48.7558" lon="2.19904">
        <ele>72.19</ele>
        <time>2021-07-18T12:19:37Z</time>
      </trkpt>
      <trkpt lat="48.75574" lon="2.19919">
        <ele>73.58</ele>
        <time>2021-07-18T12:19:47Z</time>
      </trkpt>
      <trkpt lat="48.75567" lon="2.19936">
        <ele>73.02</ele>
        <time>2021-07-18T12:20:00Z</time>
      </trkpt>
      <trkpt lat="48.75567" lon="2.19937">
        <ele>73.03</ele>
        <time>2021-07-18T12:20:01Z</time>
      </trkpt>
      <trkpt lat="48.75559" lon="2.19955">
        <ele>73.33</ele>
        <time>2021-07-18T12:20:14Z</time>
      </trkpt>
      <trkpt lat="48.75558" lon="2.19959">
        <ele>73.17</ele>
        <time>2021-07-18T12:20:17Z</time>
      </trkpt>
      <trkpt lat="48.75554" lon="2.19974">
        <ele>72.71</ele>
        <time>2021-07-18T12:20:29Z</time>
      </trkpt>
      <trkpt lat="48.75551" lon="2.19993">
        <ele>73.46</ele>
        <time>2021-07-18T12:20:43Z</time>
      </trkpt>
      <trkpt lat="48.75547" lon="2.2001">
        <ele>73.19</ele>
        <time>2021-07-18T12:20:54Z</time>
      </trkpt>
      <trkpt lat="48.75546" lon="2.20028">
        <ele>72.41</ele>
        <time>2021-07-18T12:21:07Z</time>
      </trkpt>
      <trkpt lat="48.75546" lon="2.20048">
        <ele>71.32</ele>
        <time>2021-07-18T12:21:23Z</time>
      </trkpt>
      <trkpt lat="48.75544" lon="2.20072">
        <ele>70.91</ele>
        <time>2021-07-18T12:21:40Z</time>
      </trkpt>
      <trkpt lat="48.75543" lon="2.20084">
        <ele>70.72</ele>
        <time>2021-07-18T12:21:53Z</time>
      </trkpt>
      <trkpt lat="48.75541" lon="2.20092">
        <ele>70.6</ele>
        <time>2021-07-18T12:22:09Z</time>
      </trkpt>
      <trkpt lat="48.75543" lon="2.20088">
        <ele>70.83</ele>
        <time>2021-07-18T12:22:24Z</time>
      </trkpt>
      <trkpt lat="48.75547" lon="2.20097">
        <ele>69.79</ele>
        <time>2021-07-18T12:22:42Z</time>
      </trkpt>
      <trkpt lat="48.75548" lon="2.20108">
        <ele>70.19</ele>
        <time>2021-07-18T12:22:56Z</time>
      </trkpt>
      <trkpt lat="48.75549" lon="2.20116">
        <ele>70.32</ele>
        <time>2021-07-18T12:23:05Z</time>
      </trkpt>
      <trkpt lat="48.75551" lon="2.20123">
        <ele>70.42</ele>
        <time>2021-07-18T12:23:10Z</time>
      </trkpt>
      <trkpt lat="48.75554" lon="2.20127">
        <ele>70.92</ele>
        <time>2021-07-18T12:23:15Z</time>
      </trkpt>
      <trkpt lat="48.75564" lon="2.20148">
        <ele>70.49</ele>
        <time>2021-07-18T12:23:31Z</time>
      </trkpt>
      <trkpt lat="48.75569" lon="2.20151">
        <ele>70.55</ele>
        <time>2021-07-18T12:23:43Z</time>
      </trkpt>
      <trkpt lat="48.75577" lon="2.20161">
        <ele>70.32</ele>
        <time>2021-07-18T12:23:59Z</time>
      </trkpt>
      <trkpt lat="48.75586" lon="2.20177">
        <ele>70.66</ele>
        <time>2021-07-18T12:24:18Z</time>
      </trkpt>
      <trkpt lat="48.75594" lon="2.20188">
        <ele>72.07</ele>
        <time>2021-07-18T12:24:30Z</time>
      </trkpt>
      <trkpt lat="48.75598" lon="2.20195">
        <ele>73</ele>
        <time>2021-07-18T12:24:41Z</time>
      </trkpt>
      <trkpt lat="48.75601" lon="2.20205">
        <ele>73.97</ele>
        <time>2021-07-18T12:24:52Z</time>
      </trkpt>
      <trkpt lat="48.7561" lon="2.20214">
        <ele>74.74</ele>
        <time>2021-07-18T12:25:06Z</time>
      </trkpt>
      <trkpt lat="48.75618" lon="2.20217">
        <ele>76.98</ele>
        <time>2021-07-18T12:25:18Z</time>
      </trkpt>
      <trkpt lat="48.7563" lon="2.20223">
        <ele>79.04</ele>
        <time>2021-07-18T12:25:31Z</time>
      </trkpt>
      <trkpt lat="48.75642" lon="2.20229">
        <ele>81.26</ele>
        <time>2021-07-18T12:25:49Z</time>
      </trkpt>
      <trkpt lat="48.75658" lon="2.20234">
        <ele>83.01</ele>
        <time>2021-07-18T12:26:05Z</time>
      </trkpt>
      <trkpt lat="48.75663" lon="2.20232">
        <ele>83.13</ele>
        <time>2021-07-18T12:26:18Z</time>
      </trkpt>
      <trkpt lat="48.75669" lon="2.2023">
        <ele>83.26</ele>
        <time>2021-07-18T12:26:35Z</time>
      </trkpt>
      <trkpt lat="48.75672" lon="2.20237">
        <ele>82.87</ele>
        <time>2021-07-18T12:26:49Z</time>
      </trkpt>
      <trkpt lat="48.7567" lon="2.20244">
        <ele>82.81</ele>
        <time>2021-07-18T12:27:03Z</time>
      </trkpt>
      <trkpt lat="48.75668" lon="2.20249">
        <ele>82.43</ele>
        <time>2021-07-18T12:27:23Z</time>
      </trkpt>
      <trkpt lat="48.75666" lon="2.20252">
        <ele>82.36</ele>
        <time>2021-07-18T12:27:40Z</time>
      </trkpt>
      <trkpt lat="48.75665" lon="2.20257">
        <ele>81.66</ele>
        <time>2021-07-18T12:27:58Z</time>
      </trkpt>
      <trkpt lat="48.75667" lon="2.20272">
        <ele>80.99</ele>
        <time>2021-07-18T12:28:12Z</time>
      </trkpt>
      <trkpt lat="48.75666" lon="2.20293">
        <ele>80.21</ele>
        <time>2021-07-18T12:28:27Z</time>
      </trkpt>
      <trkpt lat="48.75663" lon="2.20311">
        <ele>79.7</ele>
        <time>2021-07-18T12:28:40Z</time>
      </trkpt>
      <trkpt lat="48.75656" lon="2.20343">
        <ele>79.09</ele>
        <time>2021-07-18T12:28:57Z</time>
      </trkpt>
      <trkpt lat="48.75656" lon="2.20344">
        <ele>79.15</ele>
        <time>2021-07-18T12:28:58Z</time>
      </trkpt>
      <trkpt lat="48.75656" lon="2.20351">
        <ele>78.68</ele>
        <time>2021-07-18T12:29:02Z</time>
      </trkpt>
      <trkpt lat="48.75657" lon="2.20368">
        <ele>78.54</ele>
        <time>2021-07-18T12:29:14Z</time>
      </trkpt>
      <trkpt lat="48.75656" lon="2.20389">
        <ele>78.63</ele>
        <time>2021-07-18T12:29:29Z</time>
      </trkpt>
      <trkpt lat="48.75653" lon="2.20408">
        <ele>78.09</ele>
        <time>2021-07-18T12:29:44Z</time>
      </trkpt>
      <trkpt lat="48.75654" lon="2.2043">
        <ele>77.79</ele>
        <time>2021-07-18T12:29:59Z</time>
      </trkpt>
      <trkpt lat="48.75648" lon="2.20454">
        <ele>76.99</ele>
        <time>2021-07-18T12:30:15Z</time>
      </trkpt>
      <trkpt lat="48.75634" lon="2.20454">
        <ele>75.4</ele>
        <time>2021-07-18T12:30:33Z</time>
      </trkpt>
      <trkpt lat="48.75622" lon="2.20453">
        <ele>74.24</ele>
        <time>2021-07-18T12:30:46Z</time>
      </trkpt>
      <trkpt lat="48.75615" lon="2.20452">
        <ele>73.46</ele>
        <time>2021-07-18T12:30:51Z</time>
      </trkpt>
      <trkpt lat="48.756" lon="2.20444">
        <ele>72.45</ele>
        <time>2021-07-18T12:31:05Z</time>
      </trkpt>
      <trkpt lat="48.75582" lon="2.20442">
        <ele>70.88</ele>
        <time>2021-07-18T12:31:19Z</time>
      </trkpt>
      <trkpt lat="48.75568" lon="2.20439">
        <ele>69.29</ele>
        <time>2021-07-18T12:31:33Z</time>
      </trkpt>
      <trkpt lat="48.75566" lon="2.20439">
        <ele>69.11</ele>
        <time>2021-07-18T12:31:35Z</time>
      </trkpt>
      <trkpt lat="48.7556" lon="2.20436">
        <ele>68.08</ele>
        <time>2021-07-18T12:31:42Z</time>
      </trkpt>
      <trkpt lat="48.75549" lon="2.20437">
        <ele>66.42</ele>
        <time>2021-07-18T12:31:52Z</time>
      </trkpt>
      <trkpt lat="48.75538" lon="2.20433">
        <ele>66.11</ele>
        <time>2021-07-18T12:32:03Z</time>
      </trkpt>
      <trkpt lat="48.7553" lon="2.20431">
        <ele>66.26</ele>
        <time>2021-07-18T12:32:12Z</time>
      </trkpt>
      <trkpt lat="48.75516" lon="2.20424">
        <ele>64.9</ele>
        <time>2021-07-18T12:32:26Z</time>
      </trkpt>
      <trkpt lat="48.755" lon="2.20417">
        <ele>65.26</ele>
        <time>2021-07-18T12:32:42Z</time>
      </trkpt>
      <trkpt lat="48.75489" lon="2.20414">
        <ele>65.78</ele>
        <time>2021-07-18T12:32:59Z</time>
      </trkpt>
      <trkpt lat="48.75487" lon="2.20418">
        <ele>65.64</ele>
        <time>2021-07-18T12:33:03Z</time>
      </trkpt>
      <trkpt lat="48.75486" lon="2.20422">
        <ele>65.57</ele>
        <time>2021-07-18T12:33:06Z</time>
      </trkpt>
      <trkpt lat="48.75485" lon="2.20425">
        <ele>65.45</ele>
        <time>2021-07-18T12:33:08Z</time>
      </trkpt>
      <trkpt lat="48.7548" lon="2.20439">
        <ele>66.25</ele>
        <time>2021-07-18T12:33:19Z</time>
      </trkpt>
      <trkpt lat="48.75479" lon="2.20457">
        <ele>65.53</ele>
        <time>2021-07-18T12:33:30Z</time>
      </trkpt>
      <trkpt lat="48.75479" lon="2.2047">
        <ele>65.33</ele>
        <time>2021-07-18T12:33:38Z</time>
      </trkpt>
      <trkpt lat="48.75477" lon="2.20494">
        <ele>65.72</ele>
        <time>2021-07-18T12:33:51Z</time>
      </trkpt>
      <trkpt lat="48.75475" lon="2.20513">
        <ele>65.72</ele>
        <time>2021-07-18T12:34:02Z</time>
      </trkpt>
      <trkpt lat="48.75472" lon="2.20533">
        <ele>65.63</ele>
        <time>2021-07-18T12:34:13Z</time>
      </trkpt>
      <trkpt lat="48.75469" lon="2.20551">
        <ele>64.97</ele>
        <time>2021-07-18T12:34:23Z</time>
      </trkpt>
      <trkpt lat="48.75466" lon="2.20561">
        <ele>64.76</ele>
        <time>2021-07-18T12:34:29Z</time>
      </trkpt>
      <trkpt lat="48.75466" lon="2.20586">
        <ele>65.17</ele>
        <time>2021-07-18T12:34:42Z</time>
      </trkpt>
      <trkpt lat="48.75463" lon="2.20608">
        <ele>64.61</ele>
        <time>2021-07-18T12:34:54Z</time>
      </trkpt>
      <trkpt lat="48.75462" lon="2.20617">
        <ele>64.81</ele>
        <time>2021-07-18T12:35:00Z</time>
      </trkpt>
      <trkpt lat="48.7546" lon="2.20633">
        <ele>65.52</ele>
        <time>2021-07-18T12:35:09Z</time>
      </trkpt>
      <trkpt lat="48.75459" lon="2.2064">
        <ele>64.6</ele>
        <time>2021-07-18T12:35:13Z</time>
      </trkpt>
      <trkpt lat="48.75457" lon="2.20649">
        <ele>64.89</ele>
        <time>2021-07-18T12:35:19Z</time>
      </trkpt>
      <trkpt lat="48.75456" lon="2.20652">
        <ele>65.22</ele>
        <time>2021-07-18T12:35:21Z</time>
      </trkpt>
      <trkpt lat="48.75455" lon="2.20663">
        <ele>65.35</ele>
        <time>2021-07-18T12:35:27Z</time>
      </trkpt>
      <trkpt lat="48.75451" lon="2.2068">
        <ele>65.2</ele>
        <time>2021-07-18T12:35:38Z</time>
      </trkpt>
      <trkpt lat="48.75447" lon="2.20693">
        <ele>64.68</ele>
        <time>2021-07-18T12:35:47Z</time>
      </trkpt>
      <trkpt lat="48.75446" lon="2.20697">
        <ele>65.63</ele>
        <time>2021-07-18T12:35:49Z</time>
      </trkpt>
      <trkpt lat="48.75439" lon="2.20719">
        <ele>65.16</ele>
        <time>2021-07-18T12:36:02Z</time>
      </trkpt>
      <trkpt lat="48.75434" lon="2.20737">
        <ele>64.96</ele>
        <time>2021-07-18T12:36:13Z</time>
      </trkpt>
      <trkpt lat="48.75429" lon="2.20752">
        <ele>65.05</ele>
        <time>2021-07-18T12:36:22Z</time>
      </trkpt>
      <trkpt lat="48.75423" lon="2.20774">
        <ele>64.26</ele>
        <time>2021-07-18T12:36:35Z</time>
      </trkpt>
      <trkpt lat="48.75417" lon="2.20791">
        <ele>64.89</ele>
        <time>2021-07-18T12:36:48Z</time>
      </trkpt>
      <trkpt lat="48.75413" lon="2.20812">
        <ele>64.36</ele>
        <time>2021-07-18T12:37:03Z</time>
      </trkpt>
      <trkpt lat="48.75408" lon="2.20835">
        <ele>64.22</ele>
        <time>2021-07-18T12:37:19Z</time>
      </trkpt>
      <trkpt lat="48.75402" lon="2.20852">
        <ele>64.31</ele>
        <time>2021-07-18T12:37:30Z</time>
      </trkpt>
      <trkpt lat="48.75394" lon="2.20878">
        <ele>64.43</ele>
        <time>2021-07-18T12:37:46Z</time>
      </trkpt>
      <trkpt lat="48.75389" lon="2.20893">
        <ele>64.85</ele>
        <time>2021-07-18T12:37:55Z</time>
      </trkpt>
      <trkpt lat="48.75383" lon="2.20915">
        <ele>64.57</ele>
        <time>2021-07-18T12:38:08Z</time>
      </trkpt>
      <trkpt lat="48.75375" lon="2.2094">
        <ele>64.01</ele>
        <time>2021-07-18T12:38:23Z</time>
      </trkpt>
      <trkpt lat="48.7537" lon="2.20959">
        <ele>63.84</ele>
        <time>2021-07-18T12:38:37Z</time>
      </trkpt>
      <trkpt lat="48.75363" lon="2.2098">
        <ele>64.22</ele>
        <time>2021-07-18T12:38:52Z</time>
      </trkpt>
      <trkpt lat="48.75356" lon="2.21004">
        <ele>64.12</ele>
        <time>2021-07-18T12:39:07Z</time>
      </trkpt>
      <trkpt lat="48.75349" lon="2.21024">
        <ele>64.27</ele>
        <time>2021-07-18T12:39:20Z</time>
      </trkpt>
      <trkpt lat="48.75342" lon="2.21045">
        <ele>64.18</ele>
        <time>2021-07-18T12:39:33Z</time>
      </trkpt>
      <trkpt lat="48.7534" lon="2.21056">
        <ele>64.09</ele>
        <time>2021-07-18T12:39:38Z</time>
      </trkpt>
      <trkpt lat="48.75337" lon="2.21067">
        <ele>64.19</ele>
        <time>2021-07-18T12:39:44Z</time>
      </trkpt>
      <trkpt lat="48.75333" lon="2.21085">
        <ele>64.09</ele>
        <time>2021-07-18T12:39:55Z</time>
      </trkpt>
      <trkpt lat="48.75329" lon="2.21113">
        <ele>64</ele>
        <time>2021-07-18T12:40:12Z</time>
      </trkpt>
      <trkpt lat="48.75323" lon="2.21135">
        <ele>64.23</ele>
        <time>2021-07-18T12:40:28Z</time>
      </trkpt>
      <trkpt lat="48.75316" lon="2.21168">
        <ele>63.97</ele>
        <time>2021-07-18T12:40:44Z</time>
      </trkpt>
      <trkpt lat="48.75313" lon="2.2118">
        <ele>64.22</ele>
        <time>2021-07-18T12:40:49Z</time>
      </trkpt>
      <trkpt lat="48.75308" lon="2.21197">
        <ele>63.74</ele>
        <time>2021-07-18T12:40:58Z</time>
      </trkpt>
      <trkpt lat="48.75305" lon="2.21216">
        <ele>64.12</ele>
        <time>2021-07-18T12:41:09Z</time>
      </trkpt>
      <trkpt lat="48.75304" lon="2.21222">
        <ele>63.9</ele>
        <time>2021-07-18T12:41:12Z</time>
      </trkpt>
      <trkpt lat="48.75305" lon="2.21244">
        <ele>64.6</ele>
        <time>2021-07-18T12:41:24Z</time>
      </trkpt>
      <trkpt lat="48.75308" lon="2.2126">
        <ele>63.67</ele>
        <time>2021-07-18T12:41:34Z</time>
      </trkpt>
      <trkpt lat="48.75312" lon="2.21283">
        <ele>63.85</ele>
        <time>2021-07-18T12:41:44Z</time>
      </trkpt>
      <trkpt lat="48.75312" lon="2.21288">
        <ele>64</ele>
        <time>2021-07-18T12:42:03Z</time>
      </trkpt>
      <trkpt lat="48.75319" lon="2.21292">
        <ele>64.94</ele>
        <time>2021-07-18T12:42:17Z</time>
      </trkpt>
      <trkpt lat="48.75323" lon="2.21294">
        <ele>65</ele>
        <time>2021-07-18T12:42:32Z</time>
      </trkpt>
      <trkpt lat="48.75329" lon="2.21296">
        <ele>65.47</ele>
        <time>2021-07-18T12:42:48Z</time>
      </trkpt>
      <trkpt lat="48.7533" lon="2.21299">
        <ele>64.93</ele>
        <time>2021-07-18T12:43:07Z</time>
      </trkpt>
      <trkpt lat="48.75333" lon="2.21303">
        <ele>64.64</ele>
        <time>2021-07-18T12:43:21Z</time>
      </trkpt>
      <trkpt lat="48.75339" lon="2.21309">
        <ele>64.8</ele>
        <time>2021-07-18T12:43:35Z</time>
      </trkpt>
      <trkpt lat="48.75344" lon="2.21311">
        <ele>65.3</ele>
        <time>2021-07-18T12:43:52Z</time>
      </trkpt>
      <trkpt lat="48.75352" lon="2.21315">
        <ele>64.68</ele>
        <time>2021-07-18T12:44:07Z</time>
      </trkpt>
      <trkpt lat="48.75354" lon="2.21316">
        <ele>66.45</ele>
        <time>2021-07-18T12:44:10Z</time>
      </trkpt>
      <trkpt lat="48.75367" lon="2.21323">
        <ele>66.73</ele>
        <time>2021-07-18T12:44:25Z</time>
      </trkpt>
      <trkpt lat="48.75381" lon="2.21331">
        <ele>68.04</ele>
        <time>2021-07-18T12:44:42Z</time>
      </trkpt>
      <trkpt lat="48.7539" lon="2.21335">
        <ele>68.21</ele>
        <time>2021-07-18T12:44:59Z</time>
      </trkpt>
      <trkpt lat="48.75403" lon="2.2134">
        <ele>69.66</ele>
        <time>2021-07-18T12:45:13Z</time>
      </trkpt>
      <trkpt lat="48.75408" lon="2.21347">
        <ele>70.89</ele>
        <time>2021-07-18T12:45:25Z</time>
      </trkpt>
      <trkpt lat="48.75418" lon="2.21352">
        <ele>73.26</ele>
        <time>2021-07-18T12:45:43Z</time>
      </trkpt>
      <trkpt lat="48.75422" lon="2.21356">
        <ele>74.85</ele>
        <time>2021-07-18T12:45:55Z</time>
      </trkpt>
      <trkpt lat="48.7543" lon="2.21364">
        <ele>76.34</ele>
        <time>2021-07-18T12:46:13Z</time>
      </trkpt>
      <trkpt lat="48.75431" lon="2.21385">
        <ele>75.4</ele>
        <time>2021-07-18T12:46:31Z</time>
      </trkpt>
      <trkpt lat="48.75426" lon="2.21413">
        <ele>74.41</ele>
        <time>2021-07-18T12:46:48Z</time>
      </trkpt>
      <trkpt lat="48.75423" lon="2.21426">
        <ele>74.6</ele>
        <time>2021-07-18T12:47:02Z</time>
      </trkpt>
      <trkpt lat="48.75421" lon="2.21439">
        <ele>74.94</ele>
        <time>2021-07-18T12:47:12Z</time>
      </trkpt>
      <trkpt lat="48.75415" lon="2.21464">
        <ele>75</ele>
        <time>2021-07-18T12:47:29Z</time>
      </trkpt>
      <trkpt lat="48.75414" lon="2.21475">
        <ele>74.63</ele>
        <time>2021-07-18T12:47:38Z</time>
      </trkpt>
      <trkpt lat="48.75415" lon="2.21485">
        <ele>74.69</ele>
        <time>2021-07-18T12:47:47Z</time>
      </trkpt>
      <trkpt lat="48.75407" lon="2.21493">
        <ele>74.79</ele>
        <time>2021-07-18T12:48:04Z</time>
      </trkpt>
      <trkpt lat="48.75401" lon="2.21495">
        <ele>74.14</ele>
        <time>2021-07-18T12:48:21Z</time>
      </trkpt>
      <trkpt lat="48.75398" lon="2.21494">
        <ele>72.96</ele>
        <time>2021-07-18T12:48:40Z</time>
      </trkpt>
      <trkpt lat="48.75388" lon="2.21485">
        <ele>70.66</ele>
        <time>2021-07-18T12:48:55Z</time>
      </trkpt>
      <trkpt lat="48.75378" lon="2.21479">
        <ele>69.59</ele>
        <time>2021-07-18T12:49:07Z</time>
      </trkpt>
      <trkpt lat="48.7536" lon="2.21471">
        <ele>67.43</ele>
        <time>2021-07-18T12:49:26Z</time>
      </trkpt>
      <trkpt lat="48.75346" lon="2.21465">
        <ele>66.56</ele>
        <time>2021-07-18T12:49:41Z</time>
      </trkpt>
      <trkpt lat="48.75334" lon="2.21461">
        <ele>65.5</ele>
        <time>2021-07-18T12:49:56Z</time>
      </trkpt>
      <trkpt lat="48.75324" lon="2.21455">
        <ele>64.23</ele>
        <time>2021-07-18T12:50:07Z</time>
      </trkpt>
      <trkpt lat="48.75316" lon="2.2145">
        <ele>64.16</ele>
        <time>2021-07-18T12:50:14Z</time>
      </trkpt>
      <trkpt lat="48.75309" lon="2.21446">
        <ele>64.31</ele>
        <time>2021-07-18T12:50:20Z</time>
      </trkpt>
      <trkpt lat="48.75295" lon="2.21435">
        <ele>63.09</ele>
        <time>2021-07-18T12:50:33Z</time>
      </trkpt>
      <trkpt lat="48.75286" lon="2.21435">
        <ele>62.92</ele>
        <time>2021-07-18T12:50:43Z</time>
      </trkpt>
      <trkpt lat="48.7528" lon="2.21452">
        <ele>63.28</ele>
        <time>2021-07-18T12:50:58Z</time>
      </trkpt>
      <trkpt lat="48.75275" lon="2.21463">
        <ele>63.97</ele>
        <time>2021-07-18T12:51:12Z</time>
      </trkpt>
      <trkpt lat="48.7527" lon="2.21475">
        <ele>64.53</ele>
        <time>2021-07-18T12:51:22Z</time>
      </trkpt>
      <trkpt lat="48.75268" lon="2.21491">
        <ele>64.33</ele>
        <time>2021-07-18T12:51:33Z</time>
      </trkpt>
      <trkpt lat="48.75265" lon="2.21501">
        <ele>64.97</ele>
        <time>2021-07-18T12:51:42Z</time>
      </trkpt>
      <trkpt lat="48.75271" lon="2.21514">
        <ele>66.04</ele>
        <time>2021-07-18T12:51:54Z</time>
      </trkpt>
      <trkpt lat="48.75282" lon="2.21526">
        <ele>65.82</ele>
        <time>2021-07-18T12:52:05Z</time>
      </trkpt>
      <trkpt lat="48.75284" lon="2.21535">
        <ele>66.25</ele>
        <time>2021-07-18T12:52:18Z</time>
      </trkpt>
      <trkpt lat="48.75281" lon="2.21546">
        <ele>63.16</ele>
        <time>2021-07-18T12:52:33Z</time>
      </trkpt>
      <trkpt lat="48.75272" lon="2.21562">
        <ele>63.33</ele>
        <time>2021-07-18T12:52:50Z</time>
      </trkpt>
      <trkpt lat="48.75265" lon="2.21582">
        <ele>63.98</ele>
        <time>2021-07-18T12:53:07Z</time>
      </trkpt>
      <trkpt lat="48.75257" lon="2.21604">
        <ele>62.9</ele>
        <time>2021-07-18T12:53:25Z</time>
      </trkpt>
      <trkpt lat="48.75246" lon="2.21621">
        <ele>63.84</ele>
        <time>2021-07-18T12:53:41Z</time>
      </trkpt>
      <trkpt lat="48.75235" lon="2.21623">
        <ele>64.44</ele>
        <time>2021-07-18T12:53:54Z</time>
      </trkpt>
      <trkpt lat="48.75222" lon="2.21611">
        <ele>65.39</ele>
        <time>2021-07-18T12:54:11Z</time>
      </trkpt>
      <trkpt lat="48.7521" lon="2.21597">
        <ele>65.32</ele>
        <time>2021-07-18T12:54:26Z</time>
      </trkpt>
      <trkpt lat="48.75203" lon="2.21584">
        <ele>64.9</ele>
        <time>2021-07-18T12:54:43Z</time>
      </trkpt>
      <trkpt lat="48.75203" lon="2.21575">
        <ele>65.17</ele>
        <time>2021-07-18T12:55:26Z</time>
      </trkpt>
      <trkpt lat="48.75201" lon="2.2158">
        <ele>64.71</ele>
        <time>2021-07-18T12:55:48Z</time>
      </trkpt>
      <trkpt lat="48.75195" lon="2.21582">
        <ele>65.47</ele>
        <time>2021-07-18T12:57:12Z</time>
      </trkpt>
      <trkpt lat="48.75183" lon="2.21586">
        <ele>66.78</ele>
        <time>2021-07-18T12:57:31Z</time>
      </trkpt>
      <trkpt lat="48.75173" lon="2.21583">
        <ele>66.4</ele>
        <time>2021-07-18T12:57:45Z</time>
      </trkpt>
      <trkpt lat="48.75164" lon="2.21573">
        <ele>66.94</ele>
        <time>2021-07-18T12:58:02Z</time>
      </trkpt>
      <trkpt lat="48.75152" lon="2.21557">
        <ele>67.59</ele>
        <time>2021-07-18T12:58:17Z</time>
      </trkpt>
    </trkseg>
  </trk>
</gpx>